Provisional Data: Hammer Creek near Route 322


Please select a monitoring station.
Please select start date.
Please select start date.

Toggle Unit: C/F Toggle Unit: C/F
Sample Time Temperature (C) Temperature (F) Specific Conductivity (mS/cm) pH   Turbidity (NTU+) DO (mg/L)
5/17/2022 12:00:00 AM 15.01 59.018 0.386 7.71 5.84 9.09
5/17/2022 12:15:00 AM 14.86 58.748 0.387 7.71 5.74 9.11
5/17/2022 12:30:00 AM 14.71 58.478 0.387 7.71 5.67 9.13
5/17/2022 12:45:00 AM 14.57 58.226 0.387 7.7 5.62 9.16
5/17/2022 1:00:00 AM 14.43 57.974 0.386 7.7 6.05 9.19
5/17/2022 1:15:00 AM 14.3 57.74 0.386 7.69 5.52 9.21
5/17/2022 1:30:00 AM 14.17 57.506 0.385 7.69 5.72 9.25
5/17/2022 1:45:00 AM 14.05 57.29 0.385 7.69 5.72 9.27
5/17/2022 2:00:00 AM 13.93 57.074 0.385 7.69 5.39 9.3
5/17/2022 2:15:00 AM 13.82 56.876 0.385 7.69 5.25 9.34
5/17/2022 2:30:00 AM 13.71 56.678 0.385 7.68 5.35 9.36
5/17/2022 2:45:00 AM 13.6 56.48 0.385 7.68 5.28 9.39
5/17/2022 3:00:00 AM 13.5 56.3 0.385 7.68 5.15 9.42
5/17/2022 3:15:00 AM 13.4 56.12 0.385 7.68 5.24 9.45
5/17/2022 3:30:00 AM 13.31 55.958 0.385 7.68 5.29 9.48
5/17/2022 3:45:00 AM 13.21 55.778 0.385 7.68 5.44 9.51
5/17/2022 4:00:00 AM 13.12 55.616 0.385 7.68 5.41 9.53
5/17/2022 4:15:00 AM 13.04 55.472 0.385 7.68 5.73 9.56
5/17/2022 4:30:00 AM 12.96 55.328 0.386 7.68 5.53 9.57
5/17/2022 4:45:00 AM 12.88 55.184 0.386 7.68 5.29 9.6
5/17/2022 5:00:00 AM 12.8 55.04 0.386 7.68 6.17 9.62
5/17/2022 5:15:00 AM 12.72 54.896 0.387 7.68 5.47 9.65
5/17/2022 5:30:00 AM 12.65 54.77 0.387 7.69 5.34 9.67
5/17/2022 5:45:00 AM 12.58 54.644 0.387 7.68 5.26 9.7
5/17/2022 6:00:00 AM 12.52 54.536 0.387 7.69 5.26 9.73
5/17/2022 6:15:00 AM 12.46 54.428 0.387 7.69 5.11 9.79
5/17/2022 6:30:00 AM 12.4 54.32 0.387 7.69 5.04 9.85
5/17/2022 6:45:00 AM 12.36 54.248 0.388 7.7 4.93 9.92
5/17/2022 7:00:00 AM 12.32 54.176 0.388 7.71 4.94 10
5/17/2022 7:15:00 AM 12.3 54.14 0.388 7.72 4.71 10.08
5/17/2022 7:30:00 AM 12.29 54.122 0.388 7.74 4.65 10.17
5/17/2022 7:45:00 AM 12.3 54.14 0.388 7.74 4.37 10.28
5/17/2022 8:00:00 AM 12.33 54.194 0.388 7.76 4.22 10.42
5/17/2022 8:15:00 AM 12.37 54.266 0.388 7.78 4.03 10.54
5/17/2022 8:30:00 AM 12.42 54.356 0.388 7.8 3.8 10.65
5/17/2022 8:45:00 AM 12.49 54.482 0.388 7.81 4.27 10.77
5/17/2022 9:00:00 AM 12.56 54.608 0.388 7.84 4.02 10.9
5/17/2022 9:15:00 AM 12.65 54.77 0.387 7.86 3.77 11.07
5/17/2022 9:30:00 AM 12.75 54.95 0.387 7.89 3.7 11.22
5/17/2022 9:45:00 AM 12.86 55.148 0.387 7.92 3.59 11.36
5/17/2022 10:00:00 AM 13 55.4 0.387 7.95 3.68 11.53
5/17/2022 10:15:00 AM 13.16 55.688 0.387 7.98 3.66 11.71
5/17/2022 10:30:00 AM 13.34 56.012 0.387 8.02 3.52 11.89
5/17/2022 10:45:00 AM 13.55 56.39 0.386 8.06 3.48 12.05
5/17/2022 11:00:00 AM 13.79 56.822 0.386 8.1 3.62 12.2
5/17/2022 11:15:00 AM 14.05 57.29 0.386 8.14 3.55 12.35
5/17/2022 11:30:00 AM 14.34 57.812 0.386 8.18 3.48 12.49
5/17/2022 11:45:00 AM 14.62 58.316 0.386 8.22 3.47 12.57
5/17/2022 12:00:00 PM 14.93 58.874 0.386 8.25 3.49 12.66
5/17/2022 12:15:00 PM 15.14 59.252 0.385 8.28 3.61 12.65
5/17/2022 12:30:00 PM 15.42 59.756 0.385 8.29 3.51 12.6
5/17/2022 12:45:00 PM 15.66 60.188 0.385 8.32 3.61 12.58
5/17/2022 1:00:00 PM 15.84 60.512 0.385 8.33 3.51 12.44
5/17/2022 1:15:00 PM 16.28 61.304 0.384 8.36 3.58 12.58
5/17/2022 1:30:00 PM 16.56 61.808 0.384 8.39 3.68 12.59
5/17/2022 1:45:00 PM 16.76 62.168 0.384 8.4 3.73 12.56
5/17/2022 2:00:00 PM 17.06 62.708 0.384 8.43 3.62 12.59
5/17/2022 2:15:00 PM 17.38 63.284 0.384 8.45 3.62 12.67
5/17/2022 2:30:00 PM 17.65 63.77 0.383 8.47 3.66 12.69
5/17/2022 2:45:00 PM 17.74 63.932 0.384 8.47 3.56 12.56
5/17/2022 3:00:00 PM 17.93 64.274 0.384 8.49 3.54 12.57
5/17/2022 3:15:00 PM 18.11 64.598 0.383 8.5 3.5 12.5
5/17/2022 3:30:00 PM 18.27 64.886 0.384 8.5 3.96 12.46
5/17/2022 3:45:00 PM 18.36 65.048 0.384 8.5 3.68 12.33
5/17/2022 4:00:00 PM 18.45 65.21 0.384 8.49 3.64 12.23
5/17/2022 4:15:00 PM 18.49 65.282 0.384 8.48 3.79 12.08
5/17/2022 4:30:00 PM 18.46 65.228 0.385 8.46 3.69 11.86
5/17/2022 4:45:00 PM 18.39 65.102 0.386 8.42 3.72 11.55
5/17/2022 5:00:00 PM 18.4 65.12 0.386 8.4 3.77 11.4
5/17/2022 5:15:00 PM 18.39 65.102 0.387 8.37 3.67 11.18
5/17/2022 5:30:00 PM 18.33 64.994 0.387 8.33 3.66 10.96
5/17/2022 5:45:00 PM 18.28 64.904 0.388 8.29 3.65 10.73
5/17/2022 6:00:00 PM 18.22 64.796 0.389 8.25 3.69 10.49
5/17/2022 6:15:00 PM 18.16 64.688 0.389 8.2 3.8 10.23
5/17/2022 6:30:00 PM 18.09 64.562 0.39 8.16 3.99 9.99
5/17/2022 6:45:00 PM 18.01 64.418 0.391 8.11 3.99 9.79
5/17/2022 7:00:00 PM 17.94 64.292 0.391 8.08 3.93 9.61
5/17/2022 7:15:00 PM 17.86 64.148 0.392 8.04 3.78 9.45
5/17/2022 7:30:00 PM 17.79 64.022 0.392 8.01 3.82 9.3
5/17/2022 7:45:00 PM 17.72 63.896 0.393 7.97 3.79 9.18
5/17/2022 8:00:00 PM 17.65 63.77 0.393 7.95 3.83 9.08
5/17/2022 8:15:00 PM 17.56 63.608 0.393 7.92 3.89 8.99
5/17/2022 8:30:00 PM 17.44 63.392 0.394 7.91 4.02 8.93
5/17/2022 8:45:00 PM 17.32 63.176 0.394 7.88 4.14 8.88
5/17/2022 9:00:00 PM 17.18 62.924 0.394 7.87 4.36 8.85
5/17/2022 9:15:00 PM 17.03 62.654 0.395 7.85 4.78 8.84
5/17/2022 9:30:00 PM 16.86 62.348 0.395 7.84 4.59 8.84
5/17/2022 9:45:00 PM 16.67 62.006 0.396 7.83 4.7 8.85
5/17/2022 10:00:00 PM 16.49 61.682 0.396 7.82 4.53 8.86
5/17/2022 10:15:00 PM 16.3 61.34 0.396 7.81 4.79 8.89
5/17/2022 10:30:00 PM 16.1 60.98 0.397 7.8 4.88 8.92
5/17/2022 10:45:00 PM 15.9 60.62 0.397 7.79 4.71 8.95
5/17/2022 11:00:00 PM 15.71 60.278 0.398 7.78 4.93 8.99
5/17/2022 11:15:00 PM 15.51 59.918 0.398 7.78 4.94 9.03
5/17/2022 11:30:00 PM 15.32 59.576 0.399 7.77 4.86 9.05
5/17/2022 11:45:00 PM 15.13 59.234 0.399 7.76 5.37 9.08
5/18/2022 12:00:00 AM 14.95 58.91 0.399 7.75 4.98 9.12
5/18/2022 12:15:00 AM 14.76 58.568 0.4 7.75 5.52 9.14
5/18/2022 12:30:00 AM 14.57 58.226 0.4 7.74 5.05 9.18
5/18/2022 12:45:00 AM 14.4 57.92 0.401 7.74 5.58 9.21
5/18/2022 1:00:00 AM 14.24 57.632 0.401 7.73 5.21 9.24
5/18/2022 1:15:00 AM 14.08 57.344 0.401 7.73 5.17 9.28
5/18/2022 1:30:00 AM 13.93 57.074 0.401 7.73 5.19 9.32
5/18/2022 1:45:00 AM 13.78 56.804 0.401 7.72 5 9.36
5/18/2022 2:00:00 AM 13.65 56.57 0.401 7.72 5.19 9.39
5/18/2022 2:15:00 AM 13.51 56.318 0.401 7.72 5.44 9.42
5/18/2022 2:30:00 AM 13.38 56.084 0.401 7.72 5.28 9.46
5/18/2022 2:45:00 AM 13.26 55.868 0.402 7.72 5.01 9.49
5/18/2022 3:00:00 AM 13.14 55.652 0.401 7.72 4.87 9.53
5/18/2022 3:15:00 AM 13.02 55.436 0.402 7.72 4.77 9.55
5/18/2022 3:30:00 AM 12.9 55.22 0.402 7.72 4.65 9.6
5/18/2022 3:45:00 AM 12.79 55.022 0.402 7.72 4.66 9.63
5/18/2022 4:00:00 AM 12.68 54.824 0.402 7.72 4.89 9.66
5/18/2022 4:15:00 AM 12.57 54.626 0.401 7.72 4.77 9.7
5/18/2022 4:30:00 AM 12.46 54.428 0.401 7.72 4.8 9.73
5/18/2022 4:45:00 AM 12.36 54.248 0.401 7.72 4.77 9.76
5/18/2022 5:00:00 AM 12.26 54.068 0.401 7.72 4.74 9.79
5/18/2022 5:15:00 AM 12.16 53.888 0.401 7.72 4.74 9.82
5/18/2022 5:30:00 AM 12.07 53.726 0.401 7.72 4.77 9.85
5/18/2022 5:45:00 AM 11.98 53.564 0.401 7.72 5.02 9.88
5/18/2022 6:00:00 AM 11.89 53.402 0.401 7.73 4.64 9.93
5/18/2022 6:15:00 AM 11.81 53.258 0.401 7.73 4.86 9.99
5/18/2022 6:30:00 AM 11.73 53.114 0.4 7.74 4.43 10.06
5/18/2022 6:45:00 AM 11.66 52.988 0.4 7.74 4.35 10.14
5/18/2022 7:00:00 AM 11.6 52.88 0.4 7.75 4.23 10.23
5/18/2022 7:15:00 AM 11.55 52.79 0.4 7.76 4.27 10.31
5/18/2022 7:30:00 AM 11.52 52.736 0.4 7.77 4.28 10.41
5/18/2022 7:45:00 AM 11.5 52.7 0.4 7.78 4.36 10.54
5/18/2022 8:00:00 AM 11.51 52.718 0.4 7.8 4.17 10.69
5/18/2022 8:15:00 AM 11.53 52.754 0.4 7.82 4.02 10.86
5/18/2022 8:30:00 AM 11.55 52.79 0.4 7.84 3.85 11
5/18/2022 8:45:00 AM 11.59 52.862 0.4 7.86 3.38 11.16
5/18/2022 9:00:00 AM 11.62 52.916 0.399 7.89 3.25 11.32
5/18/2022 9:15:00 AM 11.7 53.06 0.399 7.91 3.07 11.5
5/18/2022 9:30:00 AM 11.79 53.222 0.399 7.95 3.13 11.69
5/18/2022 9:45:00 AM 11.9 53.42 0.399 7.98 3.15 11.9
5/18/2022 10:00:00 AM 12.02 53.636 0.398 8.01 3.12 12.11
5/18/2022 10:15:00 AM 12.15 53.87 0.398 8.06 3.11 12.36
5/18/2022 10:30:00 AM 12.32 54.176 0.398 8.1 3.14 12.57
5/18/2022 10:45:00 AM 12.49 54.482 0.397 8.16 3 12.81
5/18/2022 11:00:00 AM 12.66 54.788 0.396 8.2 3.08 12.99
5/18/2022 11:15:00 AM 12.88 55.184 0.396 8.25 3.11 13.15
5/18/2022 11:30:00 AM 13.11 55.598 0.395 8.29 3.06 13.34
5/18/2022 11:45:00 AM 13.35 56.03 0.395 8.34 3.19 13.44
5/18/2022 12:00:00 PM 13.7 56.66 0.394 8.38 3.12 13.58
5/18/2022 12:15:00 PM 14 57.2 0.394 8.42 3.08 13.68
5/18/2022 12:30:00 PM 14.33 57.794 0.393 8.45 3.14 13.72
5/18/2022 12:45:00 PM 14.67 58.406 0.393 8.48 3.2 13.73
5/18/2022 1:00:00 PM 14.99 58.982 0.392 8.51 3.08 13.77
5/18/2022 1:15:00 PM 15.22 59.396 0.392 8.53 3.21 13.73
5/18/2022 1:30:00 PM 15.56 60.008 0.391 8.54 3.82 13.69
5/18/2022 1:45:00 PM 15.86 60.548 0.391 8.56 3.35 13.69
5/18/2022 2:00:00 PM 16.13 61.034 0.391 8.58 3.22 13.67
5/18/2022 2:15:00 PM 16.43 61.574 0.391 8.59 3.2 13.64
5/18/2022 2:30:00 PM 16.69 62.042 0.39 8.61 3.22 13.61
5/18/2022 2:45:00 PM 16.9 62.42 0.39 8.61 3.21 13.57
5/18/2022 3:00:00 PM 17.05 62.69 0.39 8.62 3.22 13.48
5/18/2022 3:15:00 PM 17.11 62.798 0.39 8.62 3.24 13.32
5/18/2022 3:30:00 PM 17.23 63.014 0.39 8.63 3.32 13.3
5/18/2022 3:45:00 PM 17.33 63.194 0.39 8.62 3.29 13.23
5/18/2022 4:00:00 PM 17.41 63.338 0.39 8.61 3.35 13.02
5/18/2022 4:15:00 PM 17.48 63.464 0.391 8.59 3.27 12.79
5/18/2022 4:30:00 PM 17.5 63.5 0.391 8.58 3.29 12.62
5/18/2022 4:45:00 PM 17.48 63.464 0.392 8.54 3.37 12.24
5/18/2022 5:00:00 PM 17.44 63.392 0.394 8.48 3.46 11.68
5/18/2022 5:15:00 PM 17.42 63.356 0.395 8.42 3.5 11.22
5/18/2022 5:30:00 PM 17.37 63.266 0.396 8.35 3.53 10.82
5/18/2022 5:45:00 PM 17.31 63.158 0.397 8.27 3.56 10.43
5/18/2022 6:00:00 PM 17.25 63.05 0.398 8.21 3.55 10.17
5/18/2022 6:15:00 PM 17.18 62.924 0.399 8.16 3.51 9.99
5/18/2022 6:30:00 PM 17.12 62.816 0.399 8.13 3.45 9.9
5/18/2022 6:45:00 PM 17.06 62.708 0.4 8.09 3.53 9.71
5/18/2022 7:00:00 PM 17.04 62.672 0.4 8.07 3.48 9.75
5/18/2022 7:15:00 PM 16.98 62.564 0.4 8.06 3.68 9.71
5/18/2022 7:30:00 PM 16.89 62.402 0.401 8.03 4.19 9.57
5/18/2022 7:45:00 PM 16.8 62.24 0.401 8 3.86 9.46
5/18/2022 8:00:00 PM 16.71 62.078 0.402 7.97 3.76 9.35
5/18/2022 8:15:00 PM 16.61 61.898 0.402 7.94 3.78 9.24
5/18/2022 8:30:00 PM 16.51 61.718 0.402 7.91 3.94 9.14
5/18/2022 8:45:00 PM 16.39 61.502 0.403 7.89 4.01 9.07
5/18/2022 9:00:00 PM 16.26 61.268 0.403 7.87 4.09 9.02
5/18/2022 9:15:00 PM 16.11 60.998 0.404 7.85 4.23 9
5/18/2022 9:30:00 PM 15.95 60.71 0.404 7.83 4.23 8.99
5/18/2022 9:45:00 PM 15.78 60.404 0.405 7.82 4.07 8.99
5/18/2022 10:00:00 PM 15.62 60.116 0.405 7.81 4.39 9.01
5/18/2022 10:15:00 PM 15.47 59.846 0.405 7.8 4.51 9.02
5/18/2022 10:30:00 PM 15.34 59.612 0.405 7.78 4.55 9.03
5/18/2022 10:45:00 PM 15.21 59.378 0.406 7.78 5.16 9.05
5/18/2022 11:00:00 PM 15.1 59.18 0.406 7.77 4.49 9.06
5/18/2022 11:15:00 PM 14.99 58.982 0.405 7.76 4.44 9.07
5/18/2022 11:30:00 PM 14.89 58.802 0.406 7.76 4.44 9.09
5/18/2022 11:45:00 PM 14.79 58.622 0.405 7.75 4.52 9.09
5/19/2022 12:00:00 AM 14.7 58.46 0.405 7.74 4.44 9.1
5/19/2022 12:15:00 AM 14.61 58.298 0.404 7.73 4.67 9.11
5/19/2022 12:30:00 AM 14.52 58.136 0.403 7.73 5.33 9.11
5/19/2022 12:45:00 AM 14.42 57.956 0.401 7.72 5.71 9.11
5/19/2022 1:00:00 AM 14.33 57.794 0.4 7.71 6.19 9.12
5/19/2022 1:15:00 AM 14.24 57.632 0.398 7.7 6.27 9.12
5/19/2022 1:30:00 AM 14.16 57.488 0.395 7.69 6.83 9.13
5/19/2022 1:45:00 AM 14.08 57.344 0.392 7.69 8.07 9.14
5/19/2022 2:00:00 AM 13.99 57.182 0.389 7.68 8.84 9.16
5/19/2022 2:15:00 AM 13.91 57.038 0.385 7.67 9.78 9.17
5/19/2022 2:30:00 AM 13.84 56.912 0.383 7.66 10.44 9.17
5/19/2022 2:45:00 AM 13.76 56.768 0.38 7.66 11.39 9.19
5/19/2022 3:00:00 AM 13.69 56.642 0.378 7.64 12.07 9.19
5/19/2022 3:15:00 AM 13.63 56.534 0.376 7.64 12.91 9.2
5/19/2022 3:30:00 AM 13.57 56.426 0.373 7.63 13.69 9.21
5/19/2022 3:45:00 AM 13.51 56.318 0.369 7.63 14.36 9.23
5/19/2022 4:00:00 AM 13.46 56.228 0.366 7.62 15.86 9.23
5/19/2022 4:15:00 AM 13.42 56.156 0.363 7.61 17.05 9.22
5/19/2022 4:30:00 AM 13.38 56.084 0.361 7.61 18.45 9.19
5/19/2022 4:45:00 AM 13.35 56.03 0.361 7.6 19.66 9.15
5/19/2022 5:00:00 AM 13.32 55.976 0.359 7.59 22.48 9.11
5/19/2022 5:15:00 AM 13.3 55.94 0.357 7.58 24.66 9.08
5/19/2022 5:30:00 AM 13.28 55.904 0.355 7.57 27.56 9.06
5/19/2022 5:45:00 AM 13.27 55.886 0.354 7.57 31.11 9.04
5/19/2022 6:00:00 AM 13.27 55.886 0.354 7.56 33.28 9.01
5/19/2022 6:15:00 AM 13.26 55.868 0.355 7.56 34.38 9.02
5/19/2022 6:30:00 AM 13.25 55.85 0.357 7.56 33.91 9.02
5/19/2022 6:45:00 AM 13.25 55.85 0.358 7.56 33.44 9.02
5/19/2022 7:00:00 AM 13.24 55.832 0.358 7.56 31.81 9.04
5/19/2022 7:15:00 AM 13.24 55.832 0.356 7.56 29.89 9.07
5/19/2022 7:30:00 AM 13.25 55.85 0.352 7.56 27.75 9.11
5/19/2022 7:45:00 AM 13.26 55.868 0.347 7.56 26.24 9.17
5/19/2022 8:00:00 AM 13.28 55.904 0.343 7.56 23.33 9.23
5/19/2022 8:15:00 AM 13.29 55.922 0.339 7.56 21.52 9.27
5/19/2022 8:30:00 AM 13.3 55.94 0.333 7.57 20.22 9.32
5/19/2022 8:45:00 AM 13.32 55.976 0.327 7.56 18.66 9.36
5/19/2022 9:00:00 AM 13.33 55.994 0.322 7.56 17.06 9.42
5/19/2022 9:15:00 AM 13.36 56.048 0.316 7.56 16.04 9.49
5/19/2022 9:30:00 AM 13.38 56.084 0.311 7.56 14.88 9.55
5/19/2022 9:45:00 AM 13.4 56.12 0.307 7.56 14.49 9.61
5/19/2022 10:00:00 AM 13.43 56.174 0.305 7.57 13.17 9.72
5/19/2022 10:15:00 AM 13.47 56.246 0.304 7.58 12.51 9.84
5/19/2022 10:30:00 AM 13.51 56.318 0.303 7.6 11.72 9.96
5/19/2022 10:45:00 AM 13.54 56.372 0.304 7.61 11.43 10.04
5/19/2022 11:00:00 AM 13.59 56.462 0.304 7.63 10.75 10.19
5/19/2022 11:15:00 AM 13.68 56.624 0.306 7.66 10.17 10.42
5/19/2022 11:30:00 AM 13.75 56.75 0.307 7.69 9.71 10.54
5/19/2022 11:45:00 AM 13.91 57.038 0.309 7.74 9.43 10.85
5/19/2022 12:00:00 PM 14.16 57.488 0.311 7.8 9.16 11.2
5/19/2022 12:15:00 PM 14.42 57.956 0.313 7.87 8.74 11.5
5/19/2022 12:30:00 PM 14.58 58.244 0.316 7.91 8.37 11.68
5/19/2022 12:45:00 PM 14.65 58.37 0.319 7.94 8.11 11.7
5/19/2022 1:00:00 PM 14.9 58.82 0.322 7.98 7.77 11.91
5/19/2022 1:15:00 PM 15.17 59.306 0.325 8.05 7.4 12.13
5/19/2022 1:30:00 PM 15.49 59.882 0.328 8.11 7.26 12.36
5/19/2022 1:45:00 PM 15.6 60.08 0.332 8.12 6.94 12.25
5/19/2022 2:00:00 PM 15.74 60.332 0.335 8.14 6.83 12.22
5/19/2022 2:15:00 PM 15.8 60.44 0.339 8.14 6.61 12.1
5/19/2022 2:30:00 PM 15.92 60.656 0.342 8.15 6.28 12.07
5/19/2022 2:45:00 PM 16.08 60.944 0.345 8.17 5.88 12.08
5/19/2022 3:00:00 PM 16.36 61.448 0.347 8.21 5.64 12.2
5/19/2022 3:15:00 PM 16.48 61.664 0.35 8.21 5.7 12.01
5/19/2022 3:30:00 PM 16.68 62.024 0.352 8.21 5.56 11.95
5/19/2022 3:45:00 PM 16.68 62.024 0.355 8.16 5.43 11.52
5/19/2022 4:00:00 PM 16.81 62.258 0.358 8.13 5.25 11.3
5/19/2022 4:15:00 PM 17.06 62.708 0.36 8.16 5.15 11.4
5/19/2022 4:30:00 PM 17.22 62.996 0.362 8.16 5.22 11.27
5/19/2022 4:45:00 PM 17.4 63.32 0.364 8.16 5.11 11.19
5/19/2022 5:00:00 PM 17.58 63.644 0.366 8.16 5.18 11.11
5/19/2022 5:15:00 PM 17.65 63.77 0.368 8.15 5.18 10.92
5/19/2022 5:30:00 PM 17.67 63.806 0.37 8.12 5.33 10.76
5/19/2022 5:45:00 PM 17.65 63.77 0.371 8.1 5.08 10.58
5/19/2022 6:00:00 PM 17.6 63.68 0.373 8.07 5.12 10.36
5/19/2022 6:15:00 PM 17.55 63.59 0.375 8.03 5.01 10.15
5/19/2022 6:30:00 PM 17.49 63.482 0.376 8 4.93 9.95
5/19/2022 6:45:00 PM 17.42 63.356 0.378 7.97 4.79 9.77
5/19/2022 7:00:00 PM 17.35 63.23 0.38 7.94 4.95 9.62
5/19/2022 7:15:00 PM 17.29 63.122 0.381 7.91 4.82 9.49
5/19/2022 7:30:00 PM 17.25 63.05 0.382 7.89 4.82 9.38
5/19/2022 7:45:00 PM 17.22 62.996 0.383 7.87 4.78 9.27
5/19/2022 8:00:00 PM 17.2 62.96 0.384 7.85 4.78 9.16
5/19/2022 8:15:00 PM 17.19 62.942 0.384 7.83 4.76 9.07
5/19/2022 8:30:00 PM 17.16 62.888 0.385 7.82 5 8.98
5/19/2022 8:45:00 PM 17.11 62.798 0.386 7.8 5.04 8.91
5/19/2022 9:00:00 PM 17.05 62.69 0.386 7.79 5.79 8.86
5/19/2022 9:15:00 PM 16.96 62.528 0.387 7.78 5.71 8.83
5/19/2022 9:30:00 PM 16.86 62.348 0.388 7.77 5.56 8.81
5/19/2022 9:45:00 PM 16.74 62.132 0.389 7.77 5.72 8.81
5/19/2022 10:00:00 PM 16.61 61.898 0.39 7.76 5.67 8.82
5/19/2022 10:15:00 PM 16.46 61.628 0.39 7.75 5.8 8.83
5/19/2022 10:30:00 PM 16.31 61.358 0.391 7.75 5.7 8.85
5/19/2022 10:45:00 PM 16.16 61.088 0.392 7.75 5.7 8.86
5/19/2022 11:00:00 PM 16.01 60.818 0.393 7.74 5.74 8.89
5/19/2022 11:15:00 PM 15.85 60.53 0.394 7.73 5.87 8.9
5/19/2022 11:30:00 PM 15.7 60.26 0.395 7.73 5.65 8.92
5/19/2022 11:45:00 PM 15.54 59.972 0.396 7.72 5.75 8.93
5/20/2022 12:00:00 AM 15.39 59.702 0.396 7.72 5.8 8.94
5/20/2022 12:15:00 AM 15.25 59.45 0.397 7.71 6.72 8.97
5/20/2022 12:30:00 AM 15.12 59.216 0.397 7.71 5.77 8.99
5/20/2022 12:45:00 AM 14.99 58.982 0.397 7.7 6.02 9.01
5/20/2022 1:00:00 AM 14.88 58.784 0.397 7.7 5.77 9.03
5/20/2022 1:15:00 AM 14.77 58.586 0.398 7.7 5.68 9.06
5/20/2022 1:30:00 AM 14.67 58.406 0.398 7.69 5.77 9.08
5/20/2022 1:45:00 AM 14.58 58.244 0.398 7.69 5.6 9.1
5/20/2022 2:00:00 AM 14.49 58.082 0.399 7.69 5.64 9.13
5/20/2022 2:15:00 AM 14.4 57.92 0.399 7.69 5.77 9.14
5/20/2022 2:30:00 AM 14.32 57.776 0.4 7.69 5.54 9.16
5/20/2022 2:45:00 AM 14.23 57.614 0.4 7.69 5.88 9.19
5/20/2022 3:00:00 AM 14.15 57.47 0.4 7.69 6.02 9.22
5/20/2022 3:15:00 AM 14.07 57.326 0.401 7.69 5.97 9.23
5/20/2022 3:30:00 AM 13.99 57.182 0.401 7.69 6.26 9.26
5/20/2022 3:45:00 AM 13.91 57.038 0.401 7.69 5.99 9.29
5/20/2022 4:00:00 AM 13.83 56.894 0.402 7.69 5.97 9.31
5/20/2022 4:15:00 AM 13.75 56.75 0.402 7.69 6.21 9.34
5/20/2022 4:30:00 AM 13.68 56.624 0.402 7.69 6.33 9.36
5/20/2022 4:45:00 AM 13.6 56.48 0.402 7.69 6.88 9.38
5/20/2022 5:00:00 AM 13.54 56.372 0.403 7.69 6.83 9.41
5/20/2022 5:15:00 AM 13.47 56.246 0.403 7.69 6.24 9.43
5/20/2022 5:30:00 AM 13.41 56.138 0.403 7.69 5.84 9.45
5/20/2022 5:45:00 AM 13.34 56.012 0.403 7.69 5.82 9.47
5/20/2022 6:00:00 AM 13.28 55.904 0.403 7.69 6.29 9.51
5/20/2022 6:15:00 AM 13.23 55.814 0.404 7.69 5.5 9.56
5/20/2022 6:30:00 AM 13.18 55.724 0.404 7.7 5.48 9.63
5/20/2022 6:45:00 AM 13.14 55.652 0.404 7.71 5.28 9.72
5/20/2022 7:00:00 AM 13.11 55.598 0.403 7.72 4.96 9.82
5/20/2022 7:15:00 AM 13.1 55.58 0.404 7.73 4.84 9.96
5/20/2022 7:30:00 AM 13.08 55.544 0.404 7.74 4.63 10.05
5/20/2022 7:45:00 AM 13.07 55.526 0.404 7.75 4.39 10.12
5/20/2022 8:00:00 AM 13.06 55.508 0.404 7.75 4.21 10.1
5/20/2022 8:15:00 AM 13.05 55.49 0.404 7.75 4.02 10.11
5/20/2022 8:30:00 AM 13.05 55.49 0.404 7.75 3.96 10.12
5/20/2022 8:45:00 AM 13.07 55.526 0.404 7.78 3.85 10.34
5/20/2022 9:00:00 AM 13.12 55.616 0.404 7.81 3.82 10.64
5/20/2022 9:15:00 AM 13.14 55.652 0.404 7.83 3.72 10.73
5/20/2022 9:30:00 AM 13.16 55.688 0.404 7.83 3.64 10.69
5/20/2022 9:45:00 AM 13.2 55.76 0.404 7.84 3.53 10.81
5/20/2022 10:00:00 AM 13.27 55.886 0.404 7.88 3.56 11.09
5/20/2022 10:15:00 AM 13.35 56.03 0.404 7.91 3.47 11.28
5/20/2022 10:30:00 AM 13.44 56.192 0.403 7.94 3.66 11.48
5/20/2022 10:45:00 AM 13.56 56.408 0.403 7.98 3.38 11.69
5/20/2022 11:00:00 AM 13.71 56.678 0.403 8.04 3.46 11.99
5/20/2022 11:15:00 AM 13.87 56.966 0.402 8.08 3.42 12.19
5/20/2022 11:30:00 AM 14.03 57.254 0.402 8.12 3.38 12.37
5/20/2022 11:45:00 AM 14.16 57.488 0.402 8.15 3.39 12.42
5/20/2022 12:00:00 PM 14.35 57.83 0.401 8.19 3.37 12.53
5/20/2022 12:15:00 PM 14.5 58.1 0.401 8.21 3.32 12.61
5/20/2022 12:30:00 PM 14.67 58.406 0.401 8.23 3.39 12.62
5/20/2022 12:45:00 PM 14.84 58.712 0.4 8.25 3.5 12.61
5/20/2022 1:00:00 PM 14.94 58.892 0.4 8.23 3.57 12.27
5/20/2022 1:15:00 PM 15.02 59.036 0.4 8.17 4.19 11.77
5/20/2022 1:30:00 PM 15.09 59.162 0.4 8.12 4.04 11.43
5/20/2022 1:45:00 PM 15.2 59.36 0.399 8.12 4.12 11.41
5/20/2022 2:00:00 PM 15.32 59.576 0.396 8.09 4.47 11.07
5/20/2022 2:15:00 PM 15.58 60.044 0.392 8.09 8.8 11.21
5/20/2022 2:30:00 PM 15.82 60.476 0.39 8.14 8.57 11.58
5/20/2022 2:45:00 PM 15.87 60.566 0.386 8.07 9.72 10.91
5/20/2022 3:00:00 PM 16.08 60.944 0.365 8 32.86 10.38
5/20/2022 3:15:00 PM 16.2 61.16 0.361 7.96 39.13 10.21
5/20/2022 3:30:00 PM 16.26 61.268 0.357 7.91 35.19 10
5/20/2022 3:45:00 PM 16.35 61.43 0.35 7.83 66.73 9.59
5/20/2022 4:00:00 PM 16.47 61.646 0.348 7.77 84.71 9.39
5/20/2022 4:15:00 PM 16.59 61.862 0.343 7.74 84.23 9.23
5/20/2022 4:30:00 PM 16.71 62.078 0.343 7.73 81.37 9.11
5/20/2022 4:45:00 PM 16.8 62.24 0.347 7.73 66.23 9.1
5/20/2022 5:00:00 PM 16.94 62.492 0.352 7.72 62.21 9.01
5/20/2022 5:15:00 PM 17.08 62.744 0.35 7.7 69.92 8.82
5/20/2022 5:30:00 PM 17.13 62.834 0.336 7.65 92.33 8.57
5/20/2022 5:45:00 PM 17.21 62.978 0.326 7.61 116.36 8.4
5/20/2022 6:00:00 PM 17.3 63.14 0.321 7.57 121.82 8.33
5/20/2022 6:15:00 PM 17.3 63.14 0.32 7.56 118.02 8.31
5/20/2022 6:30:00 PM 17.26 63.068 0.325 7.54 116.62 8.24
5/20/2022 6:45:00 PM 17.21 62.978 0.33 7.54 115.82 8.22
5/20/2022 7:00:00 PM 17.22 62.996 0.328 7.53 122.71 8.21
5/20/2022 7:15:00 PM 17.29 63.122 0.319 7.52 120.23 8.19
5/20/2022 7:30:00 PM 17.39 63.302 0.304 7.5 113.33 8.15
5/20/2022 7:45:00 PM 17.46 63.428 0.291 7.48 104.37 8.12
5/20/2022 8:00:00 PM 17.5 63.5 0.283 7.47 96.72 8.1
5/20/2022 8:15:00 PM 17.49 63.482 0.278 7.46 91.34 8.11
5/20/2022 8:30:00 PM 17.45 63.41 0.275 7.45 86.7 8.13
5/20/2022 8:45:00 PM 17.38 63.284 0.274 7.45 81.78 8.15
5/20/2022 9:00:00 PM 17.29 63.122 0.274 7.45 77.07 8.19
5/20/2022 9:15:00 PM 17.2 62.96 0.275 7.45 71.35 8.23
5/20/2022 9:30:00 PM 17.1 62.78 0.275 7.45 63.09 8.27
5/20/2022 9:45:00 PM 16.99 62.582 0.276 7.45 57.42 8.32
5/20/2022 10:00:00 PM 16.86 62.348 0.277 7.44 52.63 8.36
5/20/2022 10:15:00 PM 16.74 62.132 0.279 7.44 48.47 8.39
5/20/2022 10:30:00 PM 16.61 61.898 0.282 7.44 45.84 8.41
5/20/2022 10:45:00 PM 16.48 61.664 0.285 7.44 41.18 8.44
5/20/2022 11:00:00 PM 16.36 61.448 0.289 7.44 38.81 8.45
5/20/2022 11:15:00 PM 16.25 61.25 0.294 7.44 36.58 8.47
5/20/2022 11:30:00 PM 16.14 61.052 0.299 7.44 33.55 8.48
5/20/2022 11:45:00 PM 16.03 60.854 0.305 7.45 32.57 8.51
5/21/2022 12:00:00 AM 15.93 60.674 0.31 7.45 30.7 8.53
5/21/2022 12:15:00 AM 15.84 60.512 0.316 7.46 27.96 8.56
5/21/2022 12:30:00 AM 15.74 60.332 0.321 7.46 27.25 8.58
5/21/2022 12:45:00 AM 15.65 60.17 0.326 7.47 26.27 8.62
5/21/2022 1:00:00 AM 15.56 60.008 0.331 7.47 24.51 8.63
5/21/2022 1:15:00 AM 15.48 59.864 0.336 7.47 23.46 8.67
5/21/2022 1:30:00 AM 15.4 59.72 0.341 7.48 20.49 8.71
5/21/2022 1:45:00 AM 15.32 59.576 0.345 7.48 20.69 8.75
5/21/2022 2:00:00 AM 15.25 59.45 0.348 7.49 19.65 8.79
5/21/2022 2:15:00 AM 15.18 59.324 0.352 7.49 18.34 8.82
5/21/2022 2:30:00 AM 15.11 59.198 0.355 7.5 17.81 8.86
5/21/2022 2:45:00 AM 15.05 59.09 0.358 7.51 16.65 8.9
5/21/2022 3:00:00 AM 14.99 58.982 0.361 7.51 16.1 8.93
5/21/2022 3:15:00 AM 14.93 58.874 0.364 7.52 15.39 8.96
5/21/2022 3:30:00 AM 14.88 58.784 0.366 7.52 14.63 8.99
5/21/2022 3:45:00 AM 14.82 58.676 0.368 7.53 14.32 9.02
5/21/2022 4:00:00 AM 14.77 58.586 0.371 7.53 13.89 9.05
5/21/2022 4:15:00 AM 14.72 58.496 0.373 7.53 13.62 9.07
5/21/2022 4:30:00 AM 14.68 58.424 0.375 7.53 13.51 9.1
5/21/2022 4:45:00 AM 14.64 58.352 0.376 7.54 13.34 9.12
5/21/2022 5:00:00 AM 14.6 58.28 0.378 7.53 13.17 9.14
5/21/2022 5:15:00 AM 14.56 58.208 0.38 7.54 13 9.16
5/21/2022 5:30:00 AM 14.53 58.154 0.381 7.54 12.61 9.17
5/21/2022 5:45:00 AM 14.5 58.1 0.382 7.55 12.42 9.19
5/21/2022 6:00:00 AM 14.47 58.046 0.384 7.54 13.06 9.21
5/21/2022 6:15:00 AM 14.45 58.01 0.385 7.55 12.05 9.24
5/21/2022 6:30:00 AM 14.42 57.956 0.387 7.55 11.51 9.28
5/21/2022 6:45:00 AM 14.39 57.902 0.388 7.56 11.65 9.33
5/21/2022 7:00:00 AM 14.39 57.902 0.388 7.57 10.59 9.39
5/21/2022 7:15:00 AM 14.39 57.902 0.389 7.58 10.06 9.45
5/21/2022 7:30:00 AM 14.39 57.902 0.39 7.59 9.45 9.53
5/21/2022 7:45:00 AM 14.4 57.92 0.391 7.6 9.07 9.62
5/21/2022 8:00:00 AM 14.42 57.956 0.391 7.62 8.46 9.72
5/21/2022 8:15:00 AM 14.46 58.028 0.392 7.65 8.11 9.84
5/21/2022 8:30:00 AM 14.48 58.064 0.392 7.68 7.78 9.93
5/21/2022 8:45:00 AM 14.52 58.136 0.393 7.7 7.43 10.04
5/21/2022 9:00:00 AM 14.58 58.244 0.394 7.73 7.11 10.16
5/21/2022 9:15:00 AM 14.65 58.37 0.394 7.75 7.07 10.27
5/21/2022 9:30:00 AM 14.71 58.478 0.395 7.77 6.61 10.35
5/21/2022 9:45:00 AM 14.81 58.658 0.395 7.78 6.47 10.45
5/21/2022 10:00:00 AM 14.93 58.874 0.395 7.81 6.31 10.57
5/21/2022 10:15:00 AM 15.09 59.162 0.396 7.83 6.1 10.69
5/21/2022 10:30:00 AM 15.24 59.432 0.396 7.86 6.08 10.8
5/21/2022 10:45:00 AM 15.4 59.72 0.396 7.88 6.12 10.91
5/21/2022 11:00:00 AM 15.62 60.116 0.396 7.91 6.35 11.02
5/21/2022 11:15:00 AM 15.84 60.512 0.397 7.93 6.09 11.12
5/21/2022 11:30:00 AM 16.09 60.962 0.397 7.96 6.09 11.23
5/21/2022 11:45:00 AM 16.36 61.448 0.397 7.99 6.3 11.32
5/21/2022 12:00:00 PM 16.63 61.934 0.397 8.02 6.28 11.4
5/21/2022 12:15:00 PM 16.95 62.51 0.397 8.04 6.62 11.49
5/21/2022 12:30:00 PM 17.3 63.14 0.397 8.08 6.67 11.56
5/21/2022 12:45:00 PM 17.66 63.788 0.398 8.1 6.81 11.61
5/21/2022 1:00:00 PM 18.04 64.472 0.398 8.13 7.33 11.64
5/21/2022 1:15:00 PM 18.38 65.084 0.398 8.15 7.57 11.64
5/21/2022 1:30:00 PM 18.68 65.624 0.398 8.17 8.36 11.58
5/21/2022 1:45:00 PM 19.03 66.254 0.398 8.18 7.65 11.57
5/21/2022 2:00:00 PM 19.39 66.902 0.398 8.2 7.54 11.55
5/21/2022 2:15:00 PM 19.7 67.46 0.399 8.21 7.93 11.47
5/21/2022 2:30:00 PM 20.03 68.054 0.399 8.22 8.42 11.43
5/21/2022 2:45:00 PM 20.28 68.504 0.4 8.21 8.78 11.27
5/21/2022 3:00:00 PM 20.54 68.972 0.4 8.21 9.35 11.2
5/21/2022 3:15:00 PM 20.73 69.314 0.401 8.19 9.8 11.02
5/21/2022 3:30:00 PM 20.93 69.674 0.401 8.19 9.72 10.9
5/21/2022 3:45:00 PM 21.07 69.926 0.402 8.18 10.06 10.75
5/21/2022 4:00:00 PM 21.19 70.142 0.402 8.16 9.38 10.6
5/21/2022 4:15:00 PM 21.28 70.304 0.402 8.15 8.98 10.42
5/21/2022 4:30:00 PM 21.35 70.43 0.403 8.13 8.53 10.21
5/21/2022 4:45:00 PM 21.39 70.502 0.404 8.1 8.59 10
5/21/2022 5:00:00 PM 21.4 70.52 0.404 8.08 8.55 9.81
5/21/2022 5:15:00 PM 21.38 70.484 0.405 8.05 8.13 9.63
5/21/2022 5:30:00 PM 21.35 70.43 0.405 8.03 8.32 9.47
5/21/2022 5:45:00 PM 21.3 70.34 0.405 8 8.08 9.29
5/21/2022 6:00:00 PM 21.25 70.25 0.406 7.97 8.17 9.1
5/21/2022 6:15:00 PM 21.19 70.142 0.406 7.94 8.45 8.94
5/21/2022 6:30:00 PM 21.12 70.016 0.407 7.91 8.55 8.79
5/21/2022 6:45:00 PM 21.05 69.89 0.407 7.9 8.58 8.67
5/21/2022 7:00:00 PM 20.98 69.764 0.408 7.88 7.76 8.57
5/21/2022 7:15:00 PM 20.9 69.62 0.408 7.85 7.6 8.47
5/21/2022 7:30:00 PM 20.82 69.476 0.408 7.84 7.71 8.38
5/21/2022 7:45:00 PM 20.75 69.35 0.409 7.82 7.84 8.29
5/21/2022 8:00:00 PM 20.67 69.206 0.409 7.8 8.22 8.22
5/21/2022 8:15:00 PM 20.58 69.044 0.41 7.78 7.92 8.15
5/21/2022 8:30:00 PM 20.47 68.846 0.41 7.76 8.34 8.11
5/21/2022 8:45:00 PM 20.35 68.63 0.41 7.75 8.86 8.09
5/21/2022 9:00:00 PM 20.22 68.396 0.41 7.74 9.95 8.07
5/21/2022 9:15:00 PM 20.08 68.144 0.411 7.73 9.7 8.06
5/21/2022 9:30:00 PM 19.92 67.856 0.411 7.73 9.72 8.08
5/21/2022 9:45:00 PM 19.76 67.568 0.412 7.72 9.85 8.09
5/21/2022 10:00:00 PM 19.59 67.262 0.412 7.71 9.24 8.1
5/21/2022 10:15:00 PM 19.41 66.938 0.413 7.7 9.44 8.12
5/21/2022 10:30:00 PM 19.22 66.596 0.413 7.7 9.83 8.15
5/21/2022 10:45:00 PM 19.04 66.272 0.413 7.69 9.97 8.18
5/21/2022 11:00:00 PM 18.85 65.93 0.414 7.69 10 8.23
5/21/2022 11:15:00 PM 18.66 65.588 0.414 7.69 9.74 8.26
5/21/2022 11:30:00 PM 18.47 65.246 0.415 7.68 9.56 8.29
5/21/2022 11:45:00 PM 18.28 64.904 0.415 7.68 9.25 8.33
5/22/2022 12:00:00 AM 18.1 64.58 0.416 7.68 9.14 8.36
5/22/2022 12:15:00 AM 17.92 64.256 0.416 7.67 8.89 8.4
5/22/2022 12:30:00 AM 17.76 63.968 0.417 7.67 9.36 8.42
5/22/2022 12:45:00 AM 17.6 63.68 0.417 7.67 9.19 8.45
5/22/2022 1:00:00 AM 17.46 63.428 0.417 7.67 9.2 8.48
5/22/2022 1:15:00 AM 17.34 63.212 0.418 7.66 9.39 8.5
5/22/2022 1:30:00 AM 17.22 62.996 0.418 7.67 9.12 8.54
5/22/2022 1:45:00 AM 17.12 62.816 0.418 7.66 9.16 8.56
5/22/2022 2:00:00 AM 17.01 62.618 0.418 7.67 9.33 8.59
5/22/2022 2:15:00 AM 16.9 62.42 0.419 7.66 9.46 8.62
5/22/2022 2:30:00 AM 16.8 62.24 0.419 7.66 9.7 8.65
5/22/2022 2:45:00 AM 16.69 62.042 0.419 7.66 9.36 8.67
5/22/2022 3:00:00 AM 16.59 61.862 0.419 7.66 9.51 8.7
5/22/2022 3:15:00 AM 16.49 61.682 0.419 7.66 8.98 8.72
5/22/2022 3:30:00 AM 16.4 61.52 0.419 7.66 9.38 8.76
5/22/2022 3:45:00 AM 16.3 61.34 0.419 7.66 9.9 8.78
5/22/2022 4:00:00 AM 16.22 61.196 0.42 7.66 10.02 8.8
5/22/2022 4:15:00 AM 16.13 61.034 0.42 7.66 10.47 8.83
5/22/2022 4:30:00 AM 16.05 60.89 0.42 7.66 9.12 8.85
5/22/2022 4:45:00 AM 15.97 60.746 0.42 7.66 9.09 8.88
5/22/2022 5:00:00 AM 15.89 60.602 0.42 7.66 9.18 8.9
5/22/2022 5:15:00 AM 15.83 60.494 0.42 7.66 9.5 8.92
5/22/2022 5:30:00 AM 15.76 60.368 0.42 7.66 9.41 8.94
5/22/2022 5:45:00 AM 15.7 60.26 0.42 7.66 8.93 8.96
5/22/2022 6:00:00 AM 15.65 60.17 0.42 7.66 8.66 8.98
5/22/2022 6:15:00 AM 15.59 60.062 0.42 7.66 8.46 9
5/22/2022 6:30:00 AM 15.53 59.954 0.42 7.66 8.22 9.05
5/22/2022 6:45:00 AM 15.47 59.846 0.42 7.66 7.8 9.1
5/22/2022 7:00:00 AM 15.41 59.738 0.42 7.66 7.51 9.16
5/22/2022 7:15:00 AM 15.35 59.63 0.42 7.66 7.01 9.21
5/22/2022 7:30:00 AM 15.3 59.54 0.42 7.66 6.77 9.3
5/22/2022 7:45:00 AM 15.25 59.45 0.42 7.67 6.37 9.37
5/22/2022 8:00:00 AM 15.22 59.396 0.42 7.68 6.13 9.48
5/22/2022 8:15:00 AM 15.19 59.342 0.42 7.69 5.92 9.56
5/22/2022 8:30:00 AM 15.21 59.378 0.42 7.7 5.69 9.69
5/22/2022 8:45:00 AM 15.24 59.432 0.42 7.72 5.45 9.83
5/22/2022 9:00:00 AM 15.28 59.504 0.42 7.74 5.13 9.95
5/22/2022 9:15:00 AM 15.35 59.63 0.419 7.77 5.02 10.1
5/22/2022 9:30:00 AM 15.45 59.81 0.419 7.79 4.75 10.24
5/22/2022 9:45:00 AM 15.5 59.9 0.419 7.81 4.9 10.33
5/22/2022 10:00:00 AM 15.56 60.008 0.419 7.83 4.77 10.42
5/22/2022 10:15:00 AM 15.69 60.242 0.419 7.86 4.71 10.62
5/22/2022 10:30:00 AM 15.77 60.386 0.418 7.88 4.85 10.64
5/22/2022 10:45:00 AM 15.96 60.728 0.418 7.9 4.95 10.71
5/22/2022 11:00:00 AM 16.22 61.196 0.418 7.93 5.14 10.9
5/22/2022 11:15:00 AM 16.48 61.664 0.417 7.97 5.17 11.01
5/22/2022 11:30:00 AM 16.76 62.168 0.417 7.99 5.3 11.07
5/22/2022 11:45:00 AM 17.03 62.654 0.416 8.02 5.41 11.17
5/22/2022 12:00:00 PM 17.34 63.212 0.416 8.05 5.44 11.24
5/22/2022 12:15:00 PM -99999.99 -179968 -99999.99 -99999.99 -99999.99 -99999.99
5/22/2022 12:30:00 PM 18.04 64.472 0.415 8.1 5.53 11.36
5/22/2022 12:45:00 PM -99999.99 -179968 -99999.99 -99999.99 -99999.99 -99999.99
5/22/2022 1:00:00 PM 18.79 65.82201 0.414 8.15 5.34 11.42
5/22/2022 1:15:00 PM 19.18 66.524 0.414 8.17 5.52 11.43
5/22/2022 1:30:00 PM 19.55 67.19 0.414 8.19 5.55 11.43
5/22/2022 1:45:00 PM 19.89 67.802 0.414 8.21 5.74 11.43
5/22/2022 2:00:00 PM 20.21 68.378 0.414 8.23 5.78 11.4
5/22/2022 2:15:00 PM 20.5 68.9 0.414 8.24 6.09 11.36
5/22/2022 2:30:00 PM 20.78 69.404 0.414 8.25 6.29 11.32
5/22/2022 2:45:00 PM 21.01 69.818 0.414 8.25 6.41 11.22
5/22/2022 3:00:00 PM 21.22 70.196 0.414 8.25 6.78 11.12
5/22/2022 3:15:00 PM 21.34 70.412 0.415 8.23 7.15 10.89
5/22/2022 3:30:00 PM 21.46 70.628 0.415 8.22 7.02 10.76
5/22/2022 3:45:00 PM 21.5 70.7 0.415 8.2 6.84 10.45
5/22/2022 4:00:00 PM 21.46 70.628 0.416 8.16 6.61 10.08
5/22/2022 4:15:00 PM 21.4 70.52 0.417 8.11 6.7 9.7
5/22/2022 4:30:00 PM 21.27 70.286 0.411 8.07 7.58 9.28
5/22/2022 4:45:00 PM 21.15 70.07 0.407 8.01 12.79 8.99
5/22/2022 5:00:00 PM 21.17 70.106 0.406 8.01 11.59 9.16
5/22/2022 5:15:00 PM 21.15 70.07 0.404 8 13.5 9.1
5/22/2022 5:30:00 PM 21.08 69.944 0.402 7.97 12.97 8.95
5/22/2022 5:45:00 PM 21.05 69.89 0.402 7.93 14.24 8.82
5/22/2022 6:00:00 PM 21.05 69.89 0.402 7.91 13.2 8.74
5/22/2022 6:15:00 PM 21 69.8 0.403 7.9 11.26 8.66
5/22/2022 6:30:00 PM 20.95 69.71 0.405 7.88 11.46 8.59
5/22/2022 6:45:00 PM 20.87 69.566 0.407 7.87 12.19 8.53
5/22/2022 7:00:00 PM 20.76 69.368 0.408 7.86 11.72 8.46
5/22/2022 7:15:00 PM 20.63 69.134 0.41 7.84 11.49 8.38
5/22/2022 7:30:00 PM 20.5 68.9 0.412 7.82 10.76 8.32
5/22/2022 7:45:00 PM 20.35 68.63 0.414 7.82 9.77 8.29
5/22/2022 8:00:00 PM 20.17 68.306 0.414 7.8 10 8.26
5/22/2022 8:15:00 PM 19.96 67.92799 0.412 7.79 9.78 8.26
5/22/2022 8:30:00 PM 19.75 67.55 0.412 7.78 10.32 8.25
5/22/2022 8:45:00 PM 19.56 67.208 0.411 7.76 11.05 8.22
5/22/2022 9:00:00 PM 19.4 66.92 0.41 7.76 11.52 8.18
5/22/2022 9:15:00 PM 19.28 66.704 0.41 7.75 11.69 8.13
5/22/2022 9:30:00 PM 19.17 66.506 0.41 7.73 12.28 8.13
5/22/2022 9:45:00 PM 19.07 66.326 0.409 7.73 12.69 8.16
5/22/2022 10:00:00 PM 18.96 66.128 0.409 7.72 14 8.18
5/22/2022 10:15:00 PM 18.83 65.894 0.409 7.7 14.59 8.16
5/22/2022 10:30:00 PM 18.68 65.624 0.411 7.69 14.91 8.16
5/22/2022 10:45:00 PM 18.52 65.336 0.412 7.69 14.56 8.18
5/22/2022 11:00:00 PM 18.35 65.03 0.414 7.69 14.39 8.23
5/22/2022 11:15:00 PM 18.17 64.706 0.416 7.69 14.16 8.3
5/22/2022 11:30:00 PM 17.99 64.382 0.417 7.69 13.56 8.35
5/22/2022 11:45:00 PM 17.82 64.076 0.418 7.69 12.73 8.4
5/23/2022 12:00:00 AM 17.67 63.806 0.418 7.68 12.41 8.44
5/23/2022 12:15:00 AM 17.53 63.554 0.415 7.68 12.7 8.46
5/23/2022 12:30:00 AM 17.42 63.356 0.41 7.67 12.75 8.48
5/23/2022 12:45:00 AM 17.33 63.194 0.406 7.67 12 8.5
5/23/2022 1:00:00 AM 17.24 63.032 0.401 7.66 12.44 8.51
5/23/2022 1:15:00 AM 17.16 62.888 0.398 7.66 12.09 8.52
5/23/2022 1:30:00 AM 17.07 62.726 0.395 7.67 11.65 8.55
5/23/2022 1:45:00 AM 16.98 62.564 0.393 7.66 10.8 8.58
5/23/2022 2:00:00 AM 16.88 62.384 0.392 7.67 10.96 8.61
5/23/2022 2:15:00 AM 16.77 62.186 0.391 7.67 10.74 8.64
5/23/2022 2:30:00 AM 16.65 61.97 0.392 7.67 11.18 8.67
5/23/2022 2:45:00 AM 16.53 61.754 0.394 7.68 12.04 8.7
5/23/2022 3:00:00 AM 16.41 61.538 0.396 7.68 10.53 8.73
5/23/2022 3:15:00 AM 16.29 61.322 0.399 7.68 10.47 8.75
5/23/2022 3:30:00 AM 16.16 61.088 0.401 7.68 10.67 8.78
5/23/2022 3:45:00 AM 16.03 60.854 0.403 7.69 10.43 8.82
5/23/2022 4:00:00 AM 15.9 60.62 0.405 7.69 11.07 8.85
5/23/2022 4:15:00 AM 15.77 60.386 0.407 7.69 10.49 8.88
5/23/2022 4:30:00 AM 15.64 60.152 0.408 7.69 10.23 8.91
5/23/2022 4:45:00 AM 15.52 59.936 0.409 7.69 10.22 8.94
5/23/2022 5:00:00 AM 15.4 59.72 0.41 7.7 10.52 8.98
5/23/2022 5:15:00 AM 15.28 59.504 0.411 7.7 10.73 9
5/23/2022 5:30:00 AM 15.16 59.288 0.411 7.7 9.94 9.05
5/23/2022 5:45:00 AM 15.04 59.072 0.412 7.71 10.69 9.09
5/23/2022 6:00:00 AM 14.92 58.856 0.412 7.71 10.11 9.14
5/23/2022 6:15:00 AM 14.81 58.658 0.413 7.71 10 9.2
5/23/2022 6:30:00 AM 14.71 58.478 0.413 7.72 9.77 9.28
5/23/2022 6:45:00 AM 14.61 58.298 0.413 7.73 9.27 9.37
5/23/2022 7:00:00 AM 14.52 58.136 0.414 7.74 8.44 9.44
5/23/2022 7:15:00 AM 14.43 57.974 0.414 7.75 7.94 9.54
5/23/2022 7:30:00 AM 14.36 57.848 0.415 7.76 7.54 9.65
5/23/2022 7:45:00 AM 14.28 57.704 0.415 7.77 7.24 9.74
5/23/2022 8:00:00 AM 14.22 57.596 0.416 7.78 7.5 9.83
5/23/2022 8:15:00 AM 14.16 57.488 0.416 7.8 6.71 9.94
5/23/2022 8:30:00 AM 14.13 57.434 0.417 7.81 6.3 10.07
5/23/2022 8:45:00 AM 14.15 57.47 0.417 7.83 5.93 10.34
5/23/2022 9:00:00 AM 14.16 57.488 0.417 7.86 5.8 10.52
5/23/2022 9:15:00 AM 14.11 57.398 0.418 7.87 5.67 10.58
5/23/2022 9:30:00 AM 14.07 57.326 0.418 7.87 5.5 10.57
5/23/2022 9:45:00 AM 14.1 57.38 0.418 7.9 5.52 10.73
5/23/2022 10:00:00 AM 14.18 57.524 0.418 7.93 5.43 10.92
5/23/2022 10:15:00 AM 14.25 57.65 0.419 7.95 5.18 11.04
5/23/2022 10:30:00 AM 14.36 57.848 0.419 7.97 5.2 11.14
5/23/2022 10:45:00 AM 14.5 58.1 0.419 7.99 5.21 11.23
5/23/2022 11:00:00 AM 14.59 58.262 0.419 8.01 5 11.32
5/23/2022 11:15:00 AM 14.73 58.514 0.419 8.03 5.15 11.4
5/23/2022 11:30:00 AM 15.02 59.036 0.418 8.07 5.11 11.59
5/23/2022 11:45:00 AM 15.29 59.522 0.418 8.1 5.51 11.72
5/23/2022 12:00:00 PM 15.56 60.008 0.418 8.12 5.31 11.73
5/23/2022 12:15:00 PM 15.83 60.494 0.417 8.14 5.5 11.79
5/23/2022 12:30:00 PM 16.14 61.052 0.417 8.16 5.57 11.81
5/23/2022 12:45:00 PM 16.46 61.628 0.417 8.19 5.61 11.84
5/23/2022 1:00:00 PM 16.76 62.168 0.416 8.21 5.67 11.86
5/23/2022 1:15:00 PM 17.04 62.672 0.416 8.24 5.59 11.95
5/23/2022 1:30:00 PM 17.31 63.158 0.416 8.25 5.69 11.88
5/23/2022 1:45:00 PM 17.63 63.734 0.416 8.27 5.81 11.89
5/23/2022 2:00:00 PM 17.77 63.986 0.415 8.28 5.82 11.81
5/23/2022 2:15:00 PM 17.85 64.13 0.416 8.28 5.53 11.66
5/23/2022 2:30:00 PM 18.04 64.472 0.416 8.29 5.59 11.68
5/23/2022 2:45:00 PM 18.19 64.742 0.416 8.3 5.42 11.58
5/23/2022 3:00:00 PM 18.4 65.12 0.416 8.3 5.92 11.54
5/23/2022 3:15:00 PM 18.55 65.39 0.416 8.31 5.79 11.49
5/23/2022 3:30:00 PM 18.68 65.624 0.416 8.31 5.52 11.4
5/23/2022 3:45:00 PM 18.78 65.804 0.417 8.31 5.37 11.32
5/23/2022 4:00:00 PM 18.79 65.82201 0.417 8.29 5.57 11.09
5/23/2022 4:15:00 PM 18.78 65.804 0.418 8.27 5.75 10.87
5/23/2022 4:30:00 PM 18.8 65.84 0.418 8.25 5.7 10.71
5/23/2022 4:45:00 PM 18.79 65.82201 0.419 8.23 5.89 10.54
5/23/2022 5:00:00 PM 18.74 65.732 0.419 8.19 5.72 10.29
5/23/2022 5:15:00 PM 18.71 65.67799 0.42 8.16 5.85 10.04
5/23/2022 5:30:00 PM 18.65 65.57 0.42 8.12 5.85 9.8
5/23/2022 5:45:00 PM 18.59 65.462 0.421 8.09 5.83 9.66
5/23/2022 6:00:00 PM 18.54 65.372 0.421 8.07 5.45 9.57
5/23/2022 6:15:00 PM 18.48 65.264 0.422 8.05 5.48 9.52
5/23/2022 6:30:00 PM 18.41 65.138 0.422 8.04 5.38 9.48
5/23/2022 6:45:00 PM 18.33 64.994 0.422 8.02 20.17 9.39
5/23/2022 7:00:00 PM 18.25 64.85 0.422 8 10.46 9.32
5/23/2022 7:15:00 PM 18.17 64.706 0.422 7.99 5.25 9.26
5/23/2022 7:30:00 PM 18.09 64.562 0.423 7.97 5.35 9.18
5/23/2022 7:45:00 PM 18 64.4 0.423 7.95 5.46 9.1
5/23/2022 8:00:00 PM 17.88 64.184 0.423 7.93 5.42 9.02
5/23/2022 8:15:00 PM 17.75 63.95 0.424 7.91 6.8 8.95
5/23/2022 8:30:00 PM 17.59 63.662 0.424 7.89 6.79 8.92
5/23/2022 8:45:00 PM 17.42 63.356 0.424 7.88 6.63 8.91
5/23/2022 9:00:00 PM 17.24 63.032 0.425 7.87 7.16 8.91
5/23/2022 9:15:00 PM 17.05 62.69 0.425 7.85 7.36 8.92
5/23/2022 9:30:00 PM 16.87 62.366 0.425 7.85 7.2 8.94
5/23/2022 9:45:00 PM 16.68 62.024 0.426 7.84 7.34 8.96
5/23/2022 10:00:00 PM 16.51 61.718 0.426 7.83 7.46 8.97
5/23/2022 10:15:00 PM 16.33 61.394 0.427 7.82 7.47 9.01
5/23/2022 10:30:00 PM 16.17 61.106 0.427 7.81 7.54 9.03
5/23/2022 10:45:00 PM 16.02 60.836 0.428 7.81 7.51 9.05
5/23/2022 11:00:00 PM 15.88 60.584 0.428 7.8 8.21 9.07
5/23/2022 11:15:00 PM 15.75 60.35 0.428 7.8 7.52 9.1
5/23/2022 11:30:00 PM 15.62 60.116 0.429 7.79 7.68 9.13
5/23/2022 11:45:00 PM 15.5 59.9 0.429 7.79 7.85 9.16
5/24/2022 12:00:00 AM 15.38 59.684 0.429 7.79 7.73 9.17
5/24/2022 12:15:00 AM 15.27 59.486 0.43 7.78 7.83 9.2
5/24/2022 12:30:00 AM 15.16 59.288 0.43 7.78 7.68 9.23
5/24/2022 12:45:00 AM 15.05 59.09 0.43 7.78 7.58 9.25
5/24/2022 1:00:00 AM 14.95 58.91 0.431 7.77 7.66 9.26
5/24/2022 1:15:00 AM 14.86 58.748 0.431 7.77 7.73 9.29
5/24/2022 1:30:00 AM 14.77 58.586 0.431 7.77 7.87 9.32
5/24/2022 1:45:00 AM 14.69 58.442 0.432 7.77 8.02 9.33
5/24/2022 2:00:00 AM 14.61 58.298 0.432 7.76 7.71 9.35
5/24/2022 2:15:00 AM 14.54 58.172 0.432 7.76 7.87 9.37
5/24/2022 2:30:00 AM 14.47 58.046 0.432 7.76 8.08 9.39
5/24/2022 2:45:00 AM 14.4 57.92 0.432 7.76 7.96 9.41
5/24/2022 3:00:00 AM 14.34 57.812 0.432 7.76 8.03 9.42
5/24/2022 3:15:00 AM 14.28 57.704 0.432 7.76 7.78 9.44
5/24/2022 3:30:00 AM 14.22 57.596 0.432 7.76 7.55 9.46
5/24/2022 3:45:00 AM 14.16 57.488 0.432 7.76 7.53 9.46
5/24/2022 4:00:00 AM 14.11 57.398 0.432 7.76 7.6 9.48
5/24/2022 4:15:00 AM 14.06 57.308 0.432 7.76 7.84 9.5
5/24/2022 4:30:00 AM 14.02 57.236 0.432 7.75 7.71 9.51
5/24/2022 4:45:00 AM 13.98 57.164 0.432 7.76 7.95 9.53
5/24/2022 5:00:00 AM 13.93 57.074 0.432 7.76 7.8 9.54
5/24/2022 5:15:00 AM 13.89 57.002 0.432 7.76 8.3 9.56
5/24/2022 5:30:00 AM 13.86 56.948 0.432 7.76 8.54 9.56
5/24/2022 5:45:00 AM 14.06 57.308 0.429 7.76 8.14 9.49
5/24/2022 6:00:00 AM 14.02 57.236 0.429 7.76 7.88 9.51
5/24/2022 6:15:00 AM 13.99 57.182 0.429 7.76 7.81 9.53
5/24/2022 6:30:00 AM 13.96 57.128 0.429 7.76 7.39 9.55
5/24/2022 6:45:00 AM 13.94 57.092 0.429 7.76 7.4 9.59
5/24/2022 7:00:00 AM 13.91 57.038 0.429 7.76 7.24 9.63
5/24/2022 7:15:00 AM 13.9 57.02 0.429 7.77 6.64 9.71
5/24/2022 7:30:00 AM 13.89 57.002 0.428 7.78 6.33 9.81
5/24/2022 7:45:00 AM 13.89 57.002 0.428 7.79 5.7 9.88
5/24/2022 8:00:00 AM 13.9 57.02 0.428 7.8 5.82 9.96
5/24/2022 8:15:00 AM 13.9 57.02 0.428 7.81 5.23 10.03
5/24/2022 8:30:00 AM 13.9 57.02 0.428 7.81 5.12 10.07
5/24/2022 8:45:00 AM 13.9 57.02 0.428 7.82 4.76 10.09
5/24/2022 9:00:00 AM 13.9 57.02 0.428 7.83 4.67 10.14
5/24/2022 9:15:00 AM 13.93 57.074 0.428 7.84 4.6 10.29
5/24/2022 9:30:00 AM 13.98 57.164 0.428 7.87 4.48 10.5
5/24/2022 9:45:00 AM 14.07 57.326 0.427 7.9 4.63 10.77
5/24/2022 10:00:00 AM 14.17 57.506 0.427 7.94 4.47 10.99
5/24/2022 10:15:00 AM 14.23 57.614 0.427 7.96 4.86 11.1
5/24/2022 10:30:00 AM 14.33 57.794 0.427 7.98 5.14 11.22
5/24/2022 10:45:00 AM 14.38 57.884 0.427 7.99 5.01 11.22
5/24/2022 11:00:00 AM 14.43 57.974 0.426 8 5.07 11.22
5/24/2022 11:15:00 AM 14.49 58.082 0.426 8.02 5.28 11.28
5/24/2022 11:30:00 AM 14.54 58.172 0.426 8.03 4.96 11.32
5/24/2022 11:45:00 AM 14.61 58.298 0.426 8.05 4.88 11.39
5/24/2022 12:00:00 PM 14.72 58.496 0.425 8.08 4.69 11.53
5/24/2022 12:15:00 PM 14.85 58.73 0.425 8.11 4.5 11.67
5/24/2022 12:30:00 PM 14.88 58.784 0.425 8.1 4.5 11.46
5/24/2022 12:45:00 PM 14.92 58.856 0.425 8.1 4.41 11.39
5/24/2022 1:00:00 PM 14.95 58.91 0.425 8.1 4.58 11.27
5/24/2022 1:15:00 PM 14.96 58.928 0.425 8.09 4.38 11.11
5/24/2022 1:30:00 PM 14.98 58.964 0.425 8.07 4.42 10.92
5/24/2022 1:45:00 PM 15.04 59.072 0.425 8.06 4.51 10.84
5/24/2022 2:00:00 PM 15.11 59.198 0.425 8.06 4.52 10.79
5/24/2022 2:15:00 PM 15.19 59.342 0.425 8.06 4.53 10.73
5/24/2022 2:30:00 PM 15.26 59.468 0.425 8.05 4.61 10.57
5/24/2022 2:45:00 PM 15.32 59.576 0.425 8.04 4.59 10.48
5/24/2022 3:00:00 PM 15.4 59.72 0.425 8.05 4.41 10.55
5/24/2022 3:15:00 PM 15.46 59.828 0.425 8.07 4.82 10.67
5/24/2022 3:30:00 PM 15.54 59.972 0.425 8.09 4.88 10.83
5/24/2022 3:45:00 PM 15.6 60.08 0.425 8.11 4.78 10.91
5/24/2022 4:00:00 PM 15.68 60.224 0.425 8.13 4.78 11.02
5/24/2022 4:15:00 PM 15.73 60.314 0.425 8.13 4.94 10.95
5/24/2022 4:30:00 PM 15.78 60.404 0.425 8.12 5.4 10.86
5/24/2022 4:45:00 PM 15.83 60.494 0.425 8.13 5.2 10.87
5/24/2022 5:00:00 PM 15.84 60.512 0.426 8.11 5.21 10.71
5/24/2022 5:15:00 PM 15.83 60.494 0.426 8.09 5.23 10.57
5/24/2022 5:30:00 PM 15.83 60.494 0.426 8.09 5.41 10.6
5/24/2022 5:45:00 PM 15.8 60.44 0.426 8.09 5.26 10.55
5/24/2022 6:00:00 PM 15.75 60.35 0.426 8.07 5.18 10.45
5/24/2022 6:15:00 PM 15.7 60.26 0.427 8.06 5.23 10.41
5/24/2022 6:30:00 PM 15.66 60.188 0.427 8.05 5.23 10.38
5/24/2022 6:45:00 PM 15.61 60.098 0.427 8.04 5.08 10.33
5/24/2022 7:00:00 PM 15.56 60.008 0.428 8.02 5.44 10.26
5/24/2022 7:15:00 PM 15.53 59.954 0.428 8.01 4.99 10.24
5/24/2022 7:30:00 PM 15.49 59.882 0.428 8 4.94 10.16
5/24/2022 7:45:00 PM 15.46 59.828 0.428 7.98 5.69 10.06
5/24/2022 8:00:00 PM 15.44 59.792 0.429 7.96 6.16 9.95
5/24/2022 8:15:00 PM 15.42 59.756 0.429 7.95 5.76 9.84
5/24/2022 8:30:00 PM 15.4 59.72 0.429 7.93 5.64 9.73
5/24/2022 8:45:00 PM 15.37 59.666 0.43 7.92 5.61 9.65
5/24/2022 9:00:00 PM 15.33 59.594 0.43 7.9 5.74 9.59
5/24/2022 9:15:00 PM 15.28 59.504 0.43 7.89 6.48 9.55
5/24/2022 9:30:00 PM 15.23 59.414 0.43 7.88 6.63 9.53
5/24/2022 9:45:00 PM 15.16 59.288 0.43 7.88 6.93 9.51
5/24/2022 10:00:00 PM 15.1 59.18 0.431 7.87 7.07 9.49
5/24/2022 10:15:00 PM 15.03 59.054 0.431 7.86 7.05 9.5
5/24/2022 10:30:00 PM 14.96 58.928 0.431 7.86 6.97 9.5
5/24/2022 10:45:00 PM 14.88 58.784 0.431 7.85 7.04 9.5
5/24/2022 11:00:00 PM 14.82 58.676 0.431 7.84 7.09 9.5
5/24/2022 11:15:00 PM 14.76 58.568 0.432 7.84 7.03 9.5
5/24/2022 11:30:00 PM 14.7 58.46 0.432 7.83 7.54 9.51
5/24/2022 11:45:00 PM 14.63 58.334 0.432 7.83 7.43 9.51
5/25/2022 12:00:00 AM 14.57 58.226 0.432 7.82 7.4 9.52
5/25/2022 12:15:00 AM 14.49 58.082 0.432 7.82 7.56 9.53
5/25/2022 12:30:00 AM 14.41 57.938 0.433 7.81 7.97 9.54
5/25/2022 12:45:00 AM 14.33 57.794 0.433 7.81 7.73 9.53
5/25/2022 1:00:00 AM 14.24 57.632 0.433 7.81 7.8 9.55
5/25/2022 1:15:00 AM 14.17 57.506 0.433 7.8 8.73 9.56
5/25/2022 1:30:00 AM 14.1 57.38 0.434 7.8 7.93 9.57
5/25/2022 1:45:00 AM 14.03 57.254 0.434 7.79 8.11 9.58
5/25/2022 2:00:00 AM 13.97 57.146 0.434 7.79 7.52 9.59
5/25/2022 2:15:00 AM 13.92 57.056 0.433 7.79 7.51 9.61
5/25/2022 2:30:00 AM 13.87 56.966 0.433 7.79 7.68 9.62
5/25/2022 2:45:00 AM 13.81 56.858 0.433 7.79 8.42 9.63
5/25/2022 3:00:00 AM 13.76 56.768 0.433 7.79 8.22 9.65
5/25/2022 3:15:00 AM 13.7 56.66 0.433 7.79 8.36 9.66
5/25/2022 3:30:00 AM 13.64 56.552 0.433 7.79 9.03 9.67
5/25/2022 3:45:00 AM 13.59 56.462 0.434 7.79 8.08 9.69
5/25/2022 4:00:00 AM 13.54 56.372 0.434 7.79 7.88 9.69
5/25/2022 4:15:00 AM 13.48 56.264 0.434 7.79 7.78 9.71
5/25/2022 4:30:00 AM 13.43 56.174 0.434 7.78 7.7 9.73
5/25/2022 4:45:00 AM 13.38 56.084 0.434 7.79 7.6 9.75
5/25/2022 5:00:00 AM 13.34 56.012 0.434 7.79 7.39 9.76
5/25/2022 5:15:00 AM 13.3 55.94 0.434 7.79 7.52 9.77
5/25/2022 5:30:00 AM 13.26 55.868 0.434 7.79 7.6 9.78
5/25/2022 5:45:00 AM 13.23 55.814 0.434 7.79 7.56 9.8
5/25/2022 6:00:00 AM 13.2 55.76 0.434 7.79 7.41 9.82
5/25/2022 6:15:00 AM 13.17 55.706 0.434 7.79 7.55 9.84
5/25/2022 6:30:00 AM 13.15 55.67 0.434 7.8 6.95 9.9
5/25/2022 6:45:00 AM 13.13 55.634 0.434 7.81 6.92 9.96
5/25/2022 7:00:00 AM 13.12 55.616 0.434 7.81 6.61 10.04
5/25/2022 7:15:00 AM 13.13 55.634 0.434 7.82 6.2 10.11
5/25/2022 7:30:00 AM 13.13 55.634 0.434 7.83 5.94 10.21
5/25/2022 7:45:00 AM 13.13 55.634 0.434 7.84 5.57 10.29
5/25/2022 8:00:00 AM 13.14 55.652 0.434 7.86 5.28 10.38
5/25/2022 8:15:00 AM 13.16 55.688 0.434 7.87 5.17 10.49
5/25/2022 8:30:00 AM 13.2 55.76 0.433 7.89 4.9 10.67
5/25/2022 8:45:00 AM 13.24 55.832 0.433 7.91 4.72 10.79
5/25/2022 9:00:00 AM 13.27 55.886 0.433 7.93 4.58 10.89
5/25/2022 9:15:00 AM 13.34 56.012 0.433 7.95 4.49 11.02
5/25/2022 9:30:00 AM 13.41 56.138 0.432 7.98 4.51 11.18
5/25/2022 9:45:00 AM 13.47 56.246 0.432 7.99 4.49 11.3
5/25/2022 10:00:00 AM 13.54 56.372 0.432 8.02 4.27 11.4
5/25/2022 10:15:00 AM 13.63 56.534 0.432 8.04 4.25 11.53
5/25/2022 10:30:00 AM 13.76 56.768 0.431 8.06 4.35 11.64
5/25/2022 10:45:00 AM 13.88 56.984 0.431 8.08 4.51 11.7
5/25/2022 11:00:00 AM 14.07 57.326 0.431 8.1 4.58 11.76
5/25/2022 11:15:00 AM 14.26 57.668 0.431 8.12 4.44 11.82
5/25/2022 11:30:00 AM 14.43 57.974 0.431 8.14 4.44 11.87
5/25/2022 11:45:00 AM 14.59 58.262 0.43 8.17 4.5 12.02
5/25/2022 12:00:00 PM 14.72 58.496 0.43 8.2 4.42 12.09
5/25/2022 12:15:00 PM 14.83 58.694 0.429 8.22 4.5 12.1
5/25/2022 12:30:00 PM 14.98 58.964 0.429 8.24 4.4 12.15
5/25/2022 12:45:00 PM 15.21 59.378 0.429 8.26 4.49 12.26
5/25/2022 1:00:00 PM 15.48 59.864 0.428 8.29 4.47 12.35
5/25/2022 1:15:00 PM 15.73 60.314 0.428 8.32 4.5 12.41
5/25/2022 1:30:00 PM 16.02 60.836 0.427 8.34 4.54 12.42
5/25/2022 1:45:00 PM 16.3 61.34 0.427 8.36 4.48 12.42
5/25/2022 2:00:00 PM 16.57 61.826 0.426 8.38 4.44 12.4
5/25/2022 2:15:00 PM 16.78 62.204 0.426 8.39 4.51 12.35
5/25/2022 2:30:00 PM 16.94 62.492 0.426 8.4 4.59 12.28
5/25/2022 2:45:00 PM 17.13 62.834 0.426 8.41 4.51 12.2
5/25/2022 3:00:00 PM 17.32 63.176 0.426 8.41 4.59 12.13
5/25/2022 3:15:00 PM 17.54 63.572 0.426 8.41 4.68 12.02
5/25/2022 3:30:00 PM 17.74 63.932 0.426 8.4 4.75 11.86
5/25/2022 3:45:00 PM 17.94 64.292 0.427 8.39 4.82 11.65
5/25/2022 4:00:00 PM 18.09 64.562 0.427 8.37 4.87 11.44
5/25/2022 4:15:00 PM 18.22 64.796 0.428 8.36 5.12 11.29
5/25/2022 4:30:00 PM 18.33 64.994 0.428 8.34 5.28 11.08
5/25/2022 4:45:00 PM 18.41 65.138 0.429 8.32 5.35 10.9
5/25/2022 5:00:00 PM 18.44 65.192 0.429 8.3 5.42 10.71
5/25/2022 5:15:00 PM 18.48 65.264 0.43 8.28 5.31 10.61
5/25/2022 5:30:00 PM 18.42 65.156 0.43 8.25 5.35 10.37
5/25/2022 5:45:00 PM 18.41 65.138 0.431 8.24 5.32 10.3
5/25/2022 6:00:00 PM 18.37 65.066 0.431 8.22 5.16 10.14
5/25/2022 6:15:00 PM 18.31 64.958 0.432 8.18 5.15 9.93
5/25/2022 6:30:00 PM 18.25 64.85 0.432 8.15 5.35 9.78
5/25/2022 6:45:00 PM 18.2 64.76 0.433 8.13 5.31 9.69
5/25/2022 7:00:00 PM 18.14 64.652 0.433 8.11 5.11 9.58
5/25/2022 7:15:00 PM 18.1 64.58 0.433 8.09 5.36 9.48
5/25/2022 7:30:00 PM 18.07 64.526 0.434 8.07 5.38 9.39
5/25/2022 7:45:00 PM 18.02 64.436 0.434 8.04 5.4 9.27
5/25/2022 8:00:00 PM 17.96 64.328 0.434 8.02 5.66 9.16
5/25/2022 8:15:00 PM 17.9 64.22 0.435 7.99 6.49 9.05
5/25/2022 8:30:00 PM 17.83 64.094 0.435 7.97 5.74 8.99
5/25/2022 8:45:00 PM 17.75 63.95 0.435 7.96 5.84 8.94
5/25/2022 9:00:00 PM 17.66 63.788 0.436 7.94 6.37 8.9
5/25/2022 9:15:00 PM 17.57 63.626 0.436 7.93 6.72 8.87
5/25/2022 9:30:00 PM 17.46 63.428 0.436 7.91 6.96 8.85
5/25/2022 9:45:00 PM 17.33 63.194 0.437 7.9 7.21 8.85
5/25/2022 10:00:00 PM 17.2 62.96 0.437 7.89 6.92 8.86
5/25/2022 10:15:00 PM 17.05 62.69 0.438 7.89 7.33 8.86
5/25/2022 10:30:00 PM 16.92 62.456 0.438 7.87 7.37 8.87
5/25/2022 10:45:00 PM 16.76 62.168 0.438 7.86 7.37 8.89
5/25/2022 11:00:00 PM 16.6 61.88 0.438 7.85 7.64 8.92
5/25/2022 11:15:00 PM 16.45 61.61 0.439 7.86 7.62 8.95
5/25/2022 11:30:00 PM 16.29 61.322 0.439 7.85 7.62 8.99
5/25/2022 11:45:00 PM 16.14 61.052 0.439 7.84 7.85 9.02
5/26/2022 12:00:00 AM 15.99 60.782 0.439 7.84 7.66 9.04
5/26/2022 12:15:00 AM 15.85 60.53 0.44 7.83 7.85 9.07
5/26/2022 12:30:00 AM 15.71 60.278 0.44 7.83 7.86 9.08
5/26/2022 12:45:00 AM 15.58 60.044 0.44 7.83 7.81 9.11
5/26/2022 1:00:00 AM 15.46 59.828 0.44 7.82 7.63 9.15
5/26/2022 1:15:00 AM 15.34 59.612 0.44 7.81 7.93 9.16
5/26/2022 1:30:00 AM 15.23 59.414 0.44 7.82 8.03 9.2
5/26/2022 1:45:00 AM 15.12 59.216 0.441 7.81 8.64 9.22
5/26/2022 2:00:00 AM 15.01 59.018 0.441 7.81 9.25 9.25
5/26/2022 2:15:00 AM 14.9 58.82 0.441 7.81 9.8 9.28
5/26/2022 2:30:00 AM 14.8 58.64 0.441 7.8 8.83 9.3
5/26/2022 2:45:00 AM 14.71 58.478 0.441 7.8 9.77 9.32
5/26/2022 3:00:00 AM 14.62 58.316 0.441 7.81 8.26 9.35
5/26/2022 3:15:00 AM 14.53 58.154 0.441 7.8 8.13 9.37
5/26/2022 3:30:00 AM 14.44 57.992 0.441 7.8 7.84 9.4
5/26/2022 3:45:00 AM 14.35 57.83 0.441 7.81 8.13 9.42
5/26/2022 4:00:00 AM 14.27 57.686 0.441 7.81 7.86 9.45
5/26/2022 4:15:00 AM 14.18 57.524 0.441 7.81 8.1 9.48
5/26/2022 4:30:00 AM 14.1 57.38 0.441 7.81 8.17 9.5
5/26/2022 4:45:00 AM 14.02 57.236 0.441 7.81 8.06 9.51
5/26/2022 5:00:00 AM 13.95 57.11 0.441 7.8 7.91 9.53
5/26/2022 5:15:00 AM 13.88 56.984 0.44 7.81 7.83 9.56
5/26/2022 5:30:00 AM 13.81 56.858 0.44 7.81 7.67 9.57
5/26/2022 5:45:00 AM 13.74 56.732 0.44 7.81 7.54 9.6
5/26/2022 6:00:00 AM 13.67 56.606 0.44 7.81 7.5 9.64
5/26/2022 6:15:00 AM 13.62 56.516 0.44 7.81 7.07 9.68
5/26/2022 6:30:00 AM 13.58 56.444 0.44 7.81 6.81 9.73
5/26/2022 6:45:00 AM 13.54 56.372 0.44 7.83 6.65 9.79
5/26/2022 7:00:00 AM 13.51 56.318 0.44 7.83 6.09 9.88
5/26/2022 7:15:00 AM 13.49 56.282 0.439 7.84 5.67 9.96
5/26/2022 7:30:00 AM 13.48 56.264 0.439 7.86 5.51 10.11
5/26/2022 7:45:00 AM 13.47 56.246 0.439 7.87 6.03 10.19
5/26/2022 8:00:00 AM 13.46 56.228 0.439 7.88 5.16 10.26
5/26/2022 8:15:00 AM 13.47 56.246 0.439 7.89 5.06 10.36
5/26/2022 8:30:00 AM 13.48 56.264 0.438 7.91 4.75 10.51
5/26/2022 8:45:00 AM 13.51 56.318 0.438 7.93 4.58 10.7
5/26/2022 9:00:00 AM 13.53 56.354 0.438 7.95 4.4 10.83
5/26/2022 9:15:00 AM 13.57 56.426 0.438 7.97 4.44 10.97
5/26/2022 9:30:00 AM 13.62 56.516 0.437 7.99 4.28 11.13
5/26/2022 9:45:00 AM 13.67 56.606 0.437 8.02 4.21 11.2
5/26/2022 10:00:00 AM 13.7 56.66 0.437 8.02 4.2 11.24
5/26/2022 10:15:00 AM 13.74 56.732 0.437 8.03 4.29 11.25
5/26/2022 10:30:00 AM 13.79 56.822 0.436 8.04 4.29 11.27
5/26/2022 10:45:00 AM 13.84 56.912 0.436 8.05 4.26 11.28
5/26/2022 11:00:00 AM 13.9 57.02 0.436 8.06 4.31 11.33
5/26/2022 11:15:00 AM 13.99 57.182 0.436 8.09 4.26 11.45
5/26/2022 11:30:00 AM 14.08 57.344 0.436 8.1 4.21 11.53
5/26/2022 11:45:00 AM 14.23 57.614 0.435 8.13 4.25 11.71
5/26/2022 12:00:00 PM 14.36 57.848 0.435 8.16 4.18 11.78
5/26/2022 12:15:00 PM 14.48 58.064 0.434 8.17 4.29 11.76
5/26/2022 12:30:00 PM 14.62 58.316 0.434 8.19 4.33 11.82
5/26/2022 12:45:00 PM 14.72 58.496 0.433 8.2 4.45 11.8
5/26/2022 1:00:00 PM 14.84 58.712 0.433 8.22 4.42 11.77
5/26/2022 1:15:00 PM 14.95 58.91 0.433 8.21 4.32 11.67
5/26/2022 1:30:00 PM 15.06 59.108 0.433 8.21 4.37 11.54
5/26/2022 1:45:00 PM 15.15 59.27 0.433 8.2 4.36 11.39
5/26/2022 2:00:00 PM 15.23 59.414 0.433 8.2 4.14 11.23
5/26/2022 2:15:00 PM 15.32 59.576 0.433 8.19 4.13 11.2
5/26/2022 2:30:00 PM 15.44 59.792 0.433 8.21 4.1 11.26
5/26/2022 2:45:00 PM 15.53 59.954 0.433 8.21 4.15 11.21
5/26/2022 3:00:00 PM 15.61 60.098 0.433 8.21 4.11 11.16
5/26/2022 3:15:00 PM 15.71 60.278 0.432 8.22 4.38 11.17
5/26/2022 3:30:00 PM 15.82 60.476 0.432 8.22 4.08 11.22
5/26/2022 3:45:00 PM 15.9 60.62 0.433 8.22 4.31 11.09
5/26/2022 4:00:00 PM 16.01 60.818 0.433 8.22 4.23 11.06
5/26/2022 4:15:00 PM 16.1 60.98 0.433 8.21 4.31 10.97
5/26/2022 4:30:00 PM 16.2 61.16 0.433 8.21 4.32 10.92
5/26/2022 4:45:00 PM 16.28 61.304 0.433 8.21 4.46 10.86
5/26/2022 5:00:00 PM 16.37 61.466 0.433 8.21 4.67 10.86
5/26/2022 5:15:00 PM 16.41 61.538 0.433 8.2 5.17 10.75
5/26/2022 5:30:00 PM 16.44 61.592 0.433 8.18 5.65 10.6
5/26/2022 5:45:00 PM 16.44 61.592 0.434 8.16 5.31 10.42
5/26/2022 6:00:00 PM 16.44 61.592 0.434 8.14 5.06 10.33
5/26/2022 6:15:00 PM 16.41 61.538 0.434 8.12 5.13 10.16
5/26/2022 6:30:00 PM 16.37 61.466 0.435 8.09 5.03 9.98
5/26/2022 6:45:00 PM 16.34 61.412 0.435 8.06 5.21 9.87
5/26/2022 7:00:00 PM 16.33 61.394 0.435 8.05 5.48 9.82
5/26/2022 7:15:00 PM 16.31 61.358 0.435 8.03 5.34 9.74
5/26/2022 7:30:00 PM 16.28 61.304 0.436 8.01 5.48 9.66
5/26/2022 7:45:00 PM 16.27 61.286 0.436 7.99 5.16 9.58
5/26/2022 8:00:00 PM 16.24 61.232 0.436 7.98 4.96 9.48
5/26/2022 8:15:00 PM 16.21 61.178 0.436 7.96 5.01 9.4
5/26/2022 8:30:00 PM 16.18 61.124 0.436 7.94 5.06 9.34
5/26/2022 8:45:00 PM 16.14 61.052 0.437 7.93 6.18 9.29
5/26/2022 9:00:00 PM 16.11 60.998 0.437 7.92 6.77 9.25
5/26/2022 9:15:00 PM 16.07 60.926 0.437 7.91 6.45 9.21
5/26/2022 9:30:00 PM 16.04 60.872 0.437 7.9 6.66 9.18
5/26/2022 9:45:00 PM 15.99 60.782 0.438 7.88 7.23 9.16
5/26/2022 10:00:00 PM 15.95 60.71 0.438 7.88 7.06 9.15
5/26/2022 10:15:00 PM 15.9 60.62 0.438 7.87 6.95 9.15
5/26/2022 10:30:00 PM 15.84 60.512 0.438 7.86 7.17 9.14
5/26/2022 10:45:00 PM 15.79 60.422 0.438 7.85 7.35 9.14
5/26/2022 11:00:00 PM 15.74 60.332 0.438 7.85 7.65 9.14
5/26/2022 11:15:00 PM 15.69 60.242 0.438 7.84 7.6 9.15
5/26/2022 11:30:00 PM 15.64 60.152 0.438 7.84 7.37 9.15
5/26/2022 11:45:00 PM 15.6 60.08 0.438 7.83 7.88 9.14
5/27/2022 12:00:00 AM 15.56 60.008 0.438 7.83 7.91 9.16
5/27/2022 12:15:00 AM 15.51 59.918 0.438 7.83 7.84 9.16
5/27/2022 12:30:00 AM 15.47 59.846 0.438 7.82 7.98 9.15
5/27/2022 12:45:00 AM 15.42 59.756 0.438 7.82 8.34 9.15
5/27/2022 1:00:00 AM 15.38 59.684 0.438 7.81 8.29 9.16
5/27/2022 1:15:00 AM 15.33 59.594 0.438 7.81 8.11 9.15
5/27/2022 1:30:00 AM 15.29 59.522 0.438 7.8 7.98 9.17
5/27/2022 1:45:00 AM 15.26 59.468 0.438 7.8 8.56 9.17
5/27/2022 2:00:00 AM 15.23 59.414 0.439 7.8 8.02 9.17
5/27/2022 2:15:00 AM 15.19 59.342 0.439 7.8 7.65 9.17
5/27/2022 2:30:00 AM 15.17 59.306 0.439 7.8 7.67 9.18
5/27/2022 2:45:00 AM 15.14 59.252 0.439 7.79 7.68 9.19
5/27/2022 3:00:00 AM 15.11 59.198 0.439 7.79 8.04 9.19
5/27/2022 3:15:00 AM 15.08 59.144 0.439 7.79 7.78 9.19
5/27/2022 3:30:00 AM 15.04 59.072 0.439 7.78 9.14 9.2
5/27/2022 3:45:00 AM 15.01 59.018 0.439 7.77 8.76 9.2
5/27/2022 4:00:00 AM 14.98 58.964 0.439 7.77 8.68 9.21
5/27/2022 4:15:00 AM 14.94 58.892 0.439 7.77 9.14 9.22
5/27/2022 4:30:00 AM 14.91 58.838 0.439 7.76 8.8 9.23
5/27/2022 4:45:00 AM 14.88 58.784 0.438 7.76 9.36 9.24
5/27/2022 5:00:00 AM 14.86 58.748 0.438 7.77 8.78 9.25
5/27/2022 5:15:00 AM 14.84 58.712 0.438 7.76 8.94 9.26
5/27/2022 5:30:00 AM 14.81 58.658 0.438 7.77 8.62 9.27
5/27/2022 5:45:00 AM 14.79 58.622 0.438 7.77 8.4 9.27
5/27/2022 6:00:00 AM 14.77 58.586 0.438 7.77 8.35 9.29
5/27/2022 6:15:00 AM 14.75 58.55 0.438 7.77 8.3 9.3
5/27/2022 6:30:00 AM 14.73 58.514 0.438 7.77 7.99 9.32
5/27/2022 6:45:00 AM 14.71 58.478 0.438 7.78 7.65 9.34
5/27/2022 7:00:00 AM 14.69 58.442 0.437 7.79 7.13 9.36
5/27/2022 7:15:00 AM 14.68 58.424 0.437 7.79 6.72 9.4
5/27/2022 7:30:00 AM 14.67 58.406 0.437 7.8 5.88 9.44
5/27/2022 7:45:00 AM 14.66 58.388 0.437 7.8 5.93 9.48
5/27/2022 8:00:00 AM 14.66 58.388 0.437 7.81 5.31 9.53
5/27/2022 8:15:00 AM 14.65 58.37 0.437 7.81 5.16 9.57
5/27/2022 8:30:00 AM 14.65 58.37 0.437 7.81 5.14 9.6
5/27/2022 8:45:00 AM 14.65 58.37 0.436 7.82 4.51 9.67
5/27/2022 9:00:00 AM 14.66 58.388 0.436 7.83 4.5 9.69
5/27/2022 9:15:00 AM 14.68 58.424 0.436 7.84 4.36 9.72
5/27/2022 9:30:00 AM 14.7 58.46 0.436 7.84 4.27 9.81
5/27/2022 9:45:00 AM 14.72 58.496 0.436 7.85 4.26 9.86
5/27/2022 10:00:00 AM 14.75 58.55 0.436 7.86 4.3 9.88
5/27/2022 10:15:00 AM 14.79 58.622 0.436 7.87 4.42 9.97
5/27/2022 10:30:00 AM 14.83 58.694 0.435 7.88 4.71 10.05
5/27/2022 10:45:00 AM 14.9 58.82 0.435 7.9 4.57 10.18
5/27/2022 11:00:00 AM 14.95 58.91 0.435 7.91 4.62 10.18
5/27/2022 11:15:00 AM 14.99 58.982 0.435 7.91 4.51 10.15
5/27/2022 11:30:00 AM 15.04 59.072 0.435 7.92 4.43 10.19
5/27/2022 11:45:00 AM 15.09 59.162 0.435 7.93 4.84 10.18
5/27/2022 12:00:00 PM 15.13 59.234 0.435 7.93 4.9 10.17
5/27/2022 12:15:00 PM 15.18 59.324 0.434 7.94 4.66 10.13
5/27/2022 12:30:00 PM 15.24 59.432 0.434 7.95 4.76 10.19
5/27/2022 12:45:00 PM 15.3 59.54 0.434 7.95 4.81 10.2
5/27/2022 1:00:00 PM 15.35 59.63 0.433 7.96 4.98 10.19
5/27/2022 1:15:00 PM 15.43 59.774 0.433 7.96 5.1 10.24
5/27/2022 1:30:00 PM 15.5 59.9 0.433 7.97 5.08 10.28
5/27/2022 1:45:00 PM 15.55 59.99 0.433 7.98 5.05 10.2
5/27/2022 2:00:00 PM 15.62 60.116 0.43 7.96 5.77 10.02
5/27/2022 2:15:00 PM 15.66 60.188 0.429 7.93 5.99 9.87
5/27/2022 2:30:00 PM 15.69 60.242 0.428 7.92 5.93 9.79
5/27/2022 2:45:00 PM 15.72 60.296 0.427 7.93 5.72 9.88
5/27/2022 3:00:00 PM 15.79 60.422 0.427 7.95 5.66 10.04
5/27/2022 3:15:00 PM 15.87 60.566 0.426 7.98 5.4 10.21
5/27/2022 3:30:00 PM 15.96 60.728 0.426 7.99 5.5 10.31
5/27/2022 3:45:00 PM 16.06 60.908 0.426 8.02 5.51 10.46
5/27/2022 4:00:00 PM 16.15 61.07 0.426 8.04 5.49 10.55
5/27/2022 4:15:00 PM 16.2 61.16 0.426 8.04 5.58 10.55
5/27/2022 4:30:00 PM 16.27 61.286 0.426 8.06 5.53 10.58
5/27/2022 4:45:00 PM 16.32 61.376 0.426 8.06 5.61 10.5
5/27/2022 5:00:00 PM 16.36 61.448 0.426 8.06 5.81 10.38
5/27/2022 5:15:00 PM 16.38 61.484 0.427 8.04 6.16 10.31
5/27/2022 5:30:00 PM 16.42 61.556 0.427 8.05 5.86 10.26
5/27/2022 5:45:00 PM 16.44 61.592 0.426 8.04 5.92 10.2
5/27/2022 6:00:00 PM 16.46 61.628 0.425 8.04 5.94 10.13
5/27/2022 6:15:00 PM 16.48 61.664 0.424 8.03 5.8 10.09
5/27/2022 6:30:00 PM 16.49 61.682 0.423 8.02 6.04 10.03
5/27/2022 6:45:00 PM 16.49 61.682 0.423 8 6.29 9.91
5/27/2022 7:00:00 PM 16.48 61.664 0.423 7.98 6.34 9.77
5/27/2022 7:15:00 PM 16.47 61.646 0.423 7.96 6.5 9.64
5/27/2022 7:30:00 PM 16.47 61.646 0.423 7.95 6.8 9.55
5/27/2022 7:45:00 PM 16.48 61.664 0.422 7.93 6.88 9.46
5/27/2022 8:00:00 PM 16.5 61.7 0.422 7.92 6.94 9.39
5/27/2022 8:15:00 PM 16.51 61.718 0.422 7.9 7 9.32
5/27/2022 8:30:00 PM 16.53 61.754 0.423 7.89 7.1 9.24
5/27/2022 8:45:00 PM 16.53 61.754 0.424 7.88 7.53 9.17
5/27/2022 9:00:00 PM 16.53 61.754 0.426 7.87 7.92 9.12
5/27/2022 9:15:00 PM 16.52 61.736 0.427 7.86 8.36 9.08
5/27/2022 9:30:00 PM 16.49 61.682 0.428 7.85 8.39 9.05
5/27/2022 9:45:00 PM 16.47 61.646 0.429 7.84 9.13 9.03
5/27/2022 10:00:00 PM 16.43 61.574 0.43 7.84 8.73 9.01
5/27/2022 10:15:00 PM 16.4 61.52 0.43 7.82 8.68 9
5/27/2022 10:30:00 PM 16.36 61.448 0.429 7.82 8.71 8.99
5/27/2022 10:45:00 PM 16.31 61.358 0.429 7.81 8.86 8.99
5/27/2022 11:00:00 PM 16.25 61.25 0.428 7.8 9.77 8.98
5/27/2022 11:15:00 PM 16.18 61.124 0.427 7.79 9.99 8.98
5/27/2022 11:30:00 PM 16.1 60.98 0.425 7.78 9.09 8.97
5/27/2022 11:45:00 PM 16.03 60.854 0.423 7.76 9.89 8.97
5/28/2022 12:00:00 AM 15.95 60.71 0.42 7.75 10.05 8.95
5/28/2022 12:15:00 AM 15.88 60.584 0.418 7.74 9.85 8.93
5/28/2022 12:30:00 AM 15.81 60.458 0.416 7.72 10.26 8.93
5/28/2022 12:45:00 AM 15.74 60.332 0.415 7.72 9.97 8.93
5/28/2022 1:00:00 AM 15.67 60.206 0.414 7.7 10.28 8.94
5/28/2022 1:15:00 AM 15.61 60.098 0.413 7.7 10.15 8.93
5/28/2022 1:30:00 AM 15.55 59.99 0.413 7.69 10.45 8.96
5/28/2022 1:45:00 AM 15.49 59.882 0.413 7.69 10.55 8.96
5/28/2022 2:00:00 AM 15.43 59.774 0.414 7.68 10.4 8.99
5/28/2022 2:15:00 AM 15.37 59.666 0.416 7.68 10.05 9
5/28/2022 2:30:00 AM 15.31 59.558 0.417 7.68 10.38 9.01
5/28/2022 2:45:00 AM 15.26 59.468 0.419 7.68 11.02 9.03
5/28/2022 3:00:00 AM 15.21 59.378 0.42 7.68 10.21 9.05
5/28/2022 3:15:00 AM 15.16 59.288 0.421 7.68 9.83 9.06
5/28/2022 3:30:00 AM 15.12 59.216 0.422 7.68 9.78 9.08
5/28/2022 3:45:00 AM 15.08 59.144 0.423 7.68 9.85 9.09
5/28/2022 4:00:00 AM 15.04 59.072 0.423 7.68 9.28 9.1
5/28/2022 4:15:00 AM 15 59 0.423 7.68 9.52 9.11
5/28/2022 4:30:00 AM 14.97 58.946 0.423 7.68 9.3 9.11
5/28/2022 4:45:00 AM 14.93 58.874 0.423 7.69 9.46 9.12
5/28/2022 5:00:00 AM 14.89 58.802 0.424 7.69 9.62 9.12
5/28/2022 5:15:00 AM 14.86 58.748 0.424 7.68 14.4 9.11
5/28/2022 5:30:00 AM 14.82 58.676 0.424 7.69 10.88 9.12
5/28/2022 5:45:00 AM 14.78 58.604 0.424 7.69 10.17 9.13
5/28/2022 6:00:00 AM 14.73 58.514 0.425 7.69 9.75 9.16
5/28/2022 6:15:00 AM 14.69 58.442 0.425 7.7 9.47 9.18
5/28/2022 6:30:00 AM 14.64 58.352 0.426 7.71 9.03 9.21
5/28/2022 6:45:00 AM 14.61 58.298 0.426 7.71 8.05 9.25
5/28/2022 7:00:00 AM 14.58 58.244 0.427 7.72 7.67 9.3
5/28/2022 7:15:00 AM 14.57 58.226 0.428 7.74 7.15 9.39
5/28/2022 7:30:00 AM 14.57 58.226 0.428 7.76 6.99 9.49
5/28/2022 7:45:00 AM 14.6 58.28 0.429 7.78 6.64 9.65
5/28/2022 8:00:00 AM 14.65 58.37 0.429 7.8 5.86 9.82
5/28/2022 8:15:00 AM 14.65 58.37 0.429 7.81 5.63 9.79
5/28/2022 8:30:00 AM 14.62 58.316 0.429 7.81 5.46 9.79
5/28/2022 8:45:00 AM 14.63 58.334 0.429 7.83 5.11 9.89
5/28/2022 9:00:00 AM 14.63 58.334 0.429 7.84 5 9.94
5/28/2022 9:15:00 AM 14.65 58.37 0.428 7.86 5.07 10.01
5/28/2022 9:30:00 AM 14.71 58.478 0.427 7.88 4.94 10.21
5/28/2022 9:45:00 AM 14.81 58.658 0.426 7.91 4.96 10.44
5/28/2022 10:00:00 AM 14.89 58.802 0.425 7.93 4.88 10.57
5/28/2022 10:15:00 AM 14.98 58.964 0.424 7.95 4.92 10.65
5/28/2022 10:30:00 AM 15.08 59.144 0.424 7.97 4.87 10.74
5/28/2022 10:45:00 AM 15.3 59.54 0.423 8 4.97 10.89
5/28/2022 11:00:00 AM 15.42 59.756 0.423 8.02 5.08 11.01
5/28/2022 11:15:00 AM 15.48 59.864 0.422 8.04 4.94 11.01
5/28/2022 11:30:00 AM 15.56 60.008 0.422 8.05 5.69 11.02
5/28/2022 11:45:00 AM 15.67 60.206 0.422 8.07 6.48 11.05
5/28/2022 12:00:00 PM 15.86 60.548 0.422 8.09 5.13 11.17
5/28/2022 12:15:00 PM 16.06 60.908 0.422 8.11 4.93 11.21
5/28/2022 12:30:00 PM 16.17 61.106 0.422 8.13 4.89 11.19
5/28/2022 12:45:00 PM 16.34 61.412 0.423 8.15 4.88 11.23
5/28/2022 1:00:00 PM 16.58 61.844 0.423 8.17 4.79 11.33
5/28/2022 1:15:00 PM 16.82 62.276 0.423 8.2 4.82 11.45
5/28/2022 1:30:00 PM 16.9 62.42 0.423 8.21 4.92 11.39
5/28/2022 1:45:00 PM 17.1 62.78 0.424 8.22 4.54 11.39
5/28/2022 2:00:00 PM 17.41 63.338 0.424 8.24 4.83 11.4
5/28/2022 2:15:00 PM 17.71 63.878 0.424 8.25 4.67 11.37
5/28/2022 2:30:00 PM 17.74 63.932 0.425 8.24 4.82 11.02
5/28/2022 2:45:00 PM 17.8 64.04 0.425 8.23 5.09 10.8
5/28/2022 3:00:00 PM 18.02 64.436 0.425 8.24 4.91 10.84
5/28/2022 3:15:00 PM 18.25 64.85 0.425 8.24 5.13 10.83
5/28/2022 3:30:00 PM 18.38 65.084 0.425 8.24 4.82 10.75
5/28/2022 3:45:00 PM 18.57 65.426 0.425 8.24 4.89 10.67
5/28/2022 4:00:00 PM 18.77 65.786 0.425 8.24 4.85 10.58
5/28/2022 4:15:00 PM 18.9 66.02 0.426 8.24 5.04 10.5
5/28/2022 4:30:00 PM 18.97 66.146 0.426 8.24 5 10.45
5/28/2022 4:45:00 PM 19.06 66.308 0.426 8.23 4.89 10.39
5/28/2022 5:00:00 PM 19.07 66.326 0.426 8.22 4.93 10.23
5/28/2022 5:15:00 PM 19.13 66.434 0.427 8.21 4.98 10.09
5/28/2022 5:30:00 PM 19.11 66.398 0.428 8.19 5.11 9.92
5/28/2022 5:45:00 PM 19.11 66.398 0.428 8.17 5.13 9.88
5/28/2022 6:00:00 PM 19.05 66.29 0.429 8.15 5.06 9.66
5/28/2022 6:15:00 PM 19 66.2 0.429 8.12 5.21 9.5
5/28/2022 6:30:00 PM 18.96 66.128 0.43 8.1 5.1 9.35
5/28/2022 6:45:00 PM 18.93 66.074 0.43 8.08 5.07 9.26
5/28/2022 7:00:00 PM 18.91 66.038 0.431 8.05 5.13 9.18
5/28/2022 7:15:00 PM 18.89 66.002 0.431 8.04 5.1 9.09
5/28/2022 7:30:00 PM 18.85 65.93 0.432 8.01 5.46 8.97
5/28/2022 7:45:00 PM 18.79 65.82201 0.432 7.99 5.47 8.88
5/28/2022 8:00:00 PM 18.74 65.732 0.433 7.97 5.44 8.8
5/28/2022 8:15:00 PM 18.69 65.642 0.433 7.96 5.59 8.72
5/28/2022 8:30:00 PM 18.63 65.534 0.434 7.94 5.48 8.66
5/28/2022 8:45:00 PM 18.56 65.408 0.434 7.93 5.78 8.62
5/28/2022 9:00:00 PM 18.45 65.21 0.435 7.92 6.28 8.6
5/28/2022 9:15:00 PM 18.32 64.976 0.435 7.91 7.06 8.59
5/28/2022 9:30:00 PM 18.17 64.706 0.436 7.89 6.94 8.6
5/28/2022 9:45:00 PM 18.02 64.436 0.436 7.89 7.11 8.6
5/28/2022 10:00:00 PM 17.87 64.166 0.436 7.88 7.59 8.62
5/28/2022 10:15:00 PM 17.73 63.914 0.436 7.86 7.68 8.63
5/28/2022 10:30:00 PM 17.61 63.698 0.436 7.86 7.64 8.65
5/28/2022 10:45:00 PM 17.49 63.482 0.435 7.85 7.87 8.67
5/28/2022 11:00:00 PM 17.37 63.266 0.435 7.85 8.17 8.69
5/28/2022 11:15:00 PM 17.26 63.068 0.435 7.83 7.9 8.71
5/28/2022 11:30:00 PM 17.13 62.834 0.436 7.83 8.2 8.73
5/28/2022 11:45:00 PM 16.99 62.582 0.436 7.82 9.42 8.75
5/29/2022 12:00:00 AM 16.85 62.33 0.436 7.81 8.22 8.77
5/29/2022 12:15:00 AM 16.7 62.06 0.437 7.81 8.97 8.8
5/29/2022 12:30:00 AM 16.56 61.808 0.438 7.8 8.38 8.83
5/29/2022 12:45:00 AM 16.42 61.556 0.438 7.8 8.44 8.85
5/29/2022 1:00:00 AM 16.29 61.322 0.439 7.79 8.9 8.88
5/29/2022 1:15:00 AM 16.15 61.07 0.439 7.79 8.35 8.9
5/29/2022 1:30:00 AM 16.03 60.854 0.439 7.78 8.84 8.93
5/29/2022 1:45:00 AM 15.91 60.638 0.439 7.78 8.56 8.96
5/29/2022 2:00:00 AM 15.79 60.422 0.439 7.78 8.77 8.99
5/29/2022 2:15:00 AM 15.69 60.242 0.44 7.78 8.97 9.01
5/29/2022 2:30:00 AM 15.59 60.062 0.44 7.78 8.58 9.02
5/29/2022 2:45:00 AM 15.5 59.9 0.44 7.77 8.57 9.05
5/29/2022 3:00:00 AM 15.41 59.738 0.44 7.78 8.7 9.08
5/29/2022 3:15:00 AM 15.33 59.594 0.441 7.78 8.52 9.1
5/29/2022 3:30:00 AM 15.25 59.45 0.441 7.78 9.18 9.13
5/29/2022 3:45:00 AM 15.17 59.306 0.441 7.78 8.69 9.15
5/29/2022 4:00:00 AM 15.09 59.162 0.441 7.78 8.76 9.18
5/29/2022 4:15:00 AM 15 59 0.441 7.78 8.94 9.2
5/29/2022 4:30:00 AM 14.92 58.856 0.442 7.78 9.59 9.23
5/29/2022 4:45:00 AM 14.84 58.712 0.442 7.78 9.34 9.25
5/29/2022 5:00:00 AM 14.76 58.568 0.442 7.78 9.1 9.28
5/29/2022 5:15:00 AM 14.68 58.424 0.442 7.79 8.83 9.29
5/29/2022 5:30:00 AM 14.6 58.28 0.442 7.79 8.74 9.32
5/29/2022 5:45:00 AM 14.53 58.154 0.442 7.78 8.25 9.35
5/29/2022 6:00:00 AM 14.47 58.046 0.442 7.79 7.62 9.39
5/29/2022 6:15:00 AM 14.4 57.92 0.442 7.79 7.39 9.43
5/29/2022 6:30:00 AM 14.35 57.83 0.442 7.78 7.39 9.48
5/29/2022 6:45:00 AM 14.31 57.758 0.442 7.79 6.63 9.54
5/29/2022 7:00:00 AM 14.27 57.686 0.442 7.8 6.35 9.61
5/29/2022 7:15:00 AM 14.23 57.614 0.442 7.8 6.06 9.68
5/29/2022 7:30:00 AM 14.2 57.56 0.442 7.81 5.56 9.74
5/29/2022 7:45:00 AM 14.2 57.56 0.442 7.82 5.25 9.83
5/29/2022 8:00:00 AM 14.21 57.578 0.442 7.83 5.16 9.94
5/29/2022 8:15:00 AM 14.21 57.578 0.441 7.84 4.75 10.04
5/29/2022 8:30:00 AM 14.22 57.596 0.441 7.85 4.62 10.16
5/29/2022 8:45:00 AM 14.24 57.632 0.441 7.86 4.53 10.26
5/29/2022 9:00:00 AM 14.28 57.704 0.441 7.87 4.55 10.34
5/29/2022 9:15:00 AM 14.33 57.794 0.441 7.88 4.5 10.44
5/29/2022 9:30:00 AM 14.3 57.74 0.441 7.88 4.34 10.39
5/29/2022 9:45:00 AM 14.44 57.992 0.441 7.9 4.31 10.57
5/29/2022 10:00:00 AM 14.42 57.956 0.441 7.91 4.2 10.56
5/29/2022 10:15:00 AM 14.61 58.298 0.44 7.94 4.12 10.76
5/29/2022 10:30:00 AM 14.79 58.622 0.44 7.98 4.29 10.94
5/29/2022 10:45:00 AM 14.87 58.766 0.44 7.99 4.52 10.94
5/29/2022 11:00:00 AM 14.98 58.964 0.44 8.01 4.65 10.99
5/29/2022 11:15:00 AM 15.02 59.036 0.44 8.01 4.67 10.86
5/29/2022 11:30:00 AM 15.2 59.36 0.44 8.03 4.73 10.96
5/29/2022 11:45:00 AM 15.42 59.756 0.439 8.06 4.57 11.06
5/29/2022 12:00:00 PM 15.74 60.332 0.439 8.09 4.4 11.21
5/29/2022 12:15:00 PM 15.88 60.584 0.439 8.1 4.44 11.15
5/29/2022 12:30:00 PM 16.22 61.196 0.439 8.12 4.36 11.25
5/29/2022 12:45:00 PM 16.65 61.97 0.438 8.16 4.52 11.37
5/29/2022 1:00:00 PM 16.79 62.222 0.438 8.18 4.51 11.31
5/29/2022 1:15:00 PM 17.04 62.672 0.438 8.2 4.56 11.35
5/29/2022 1:30:00 PM 17.24 63.032 0.438 8.21 4.6 11.28
5/29/2022 1:45:00 PM 17.58 63.644 0.437 8.23 4.72 11.31
5/29/2022 2:00:00 PM 17.83 64.094 0.437 8.25 4.7 11.28
5/29/2022 2:15:00 PM 18.09 64.562 0.437 8.26 4.75 11.28
5/29/2022 2:30:00 PM 18.37 65.066 0.437 8.27 5.91 11.27
5/29/2022 2:45:00 PM 18.63 65.534 0.437 8.27 6.38 11.23
5/29/2022 3:00:00 PM 18.9 66.02 0.437 8.29 6.69 11.17
5/29/2022 3:15:00 PM 19.1 66.38 0.437 8.29 8.52 11.03
5/29/2022 3:30:00 PM 19.3 66.74 0.437 8.28 6.63 10.93
5/29/2022 3:45:00 PM 19.41 66.938 0.437 8.28 5.72 10.71
5/29/2022 4:00:00 PM 19.53 67.154 0.437 8.27 5.49 10.61
5/29/2022 4:15:00 PM 19.52 67.136 0.437 8.26 5.54 10.34
5/29/2022 4:30:00 PM 19.69 67.442 0.437 8.26 5.49 10.32
5/29/2022 4:45:00 PM 19.76 67.568 0.437 8.24 5.41 10.15
5/29/2022 5:00:00 PM 19.8 67.64 0.437 8.23 5.5 9.98
5/29/2022 5:15:00 PM 19.8 67.64 0.438 8.21 5.4 9.8
5/29/2022 5:30:00 PM 19.83 67.694 0.438 8.18 5.16 9.65
5/29/2022 5:45:00 PM 19.88 67.784 0.438 8.18 5.55 9.52
5/29/2022 6:00:00 PM 19.88 67.784 0.439 8.15 5.54 9.36
5/29/2022 6:15:00 PM 19.88 67.784 0.439 8.14 5.29 9.23
5/29/2022 6:30:00 PM 19.88 67.784 0.439 8.11 5.03 9.1
5/29/2022 6:45:00 PM 19.86 67.748 0.44 8.09 5.27 8.96
5/29/2022 7:00:00 PM 19.83 67.694 0.44 8.07 5.46 8.86
5/29/2022 7:15:00 PM 19.79 67.622 0.441 8.05 5.33 8.76
5/29/2022 7:30:00 PM 19.73 67.514 0.442 8.01 5.78 8.67
5/29/2022 7:45:00 PM 19.66 67.388 0.442 8 6.84 8.6
5/29/2022 8:00:00 PM 19.58 67.244 0.442 7.98 6.07 8.55
5/29/2022 8:15:00 PM 19.5 67.1 0.442 7.97 5.97 8.51
5/29/2022 8:30:00 PM 19.41 66.938 0.442 7.97 5.88 8.48
5/29/2022 8:45:00 PM 19.31 66.758 0.443 7.94 6.1 8.45
5/29/2022 9:00:00 PM 19.21 66.578 0.443 7.94 6.84 8.43
5/29/2022 9:15:00 PM 19.09 66.362 0.444 7.93 6.96 8.42
5/29/2022 9:30:00 PM 18.97 66.146 0.444 7.92 7.53 8.41
5/29/2022 9:45:00 PM 18.83 65.894 0.445 7.91 7.62 8.42
5/29/2022 10:00:00 PM 18.68 65.624 0.445 7.91 7.49 8.43
5/29/2022 10:15:00 PM 18.52 65.336 0.446 7.9 8.02 8.46
5/29/2022 10:30:00 PM 18.35 65.03 0.446 7.89 7.84 8.49
5/29/2022 10:45:00 PM 18.17 64.706 0.446 7.89 7.91 8.53
5/29/2022 11:00:00 PM 17.99 64.382 0.447 7.87 8.22 8.57
5/29/2022 11:15:00 PM 17.81 64.058 0.447 7.88 8.26 8.6
5/29/2022 11:30:00 PM 17.62 63.716 0.448 7.87 8.3 8.64
5/29/2022 11:45:00 PM 17.43 63.374 0.448 7.87 8.53 8.68
5/30/2022 12:00:00 AM 17.24 63.032 0.449 7.85 8.78 8.72
5/30/2022 12:15:00 AM 17.04 62.672 0.449 7.85 8.84 8.76
5/30/2022 12:30:00 AM 16.85 62.33 0.45 7.84 8.99 8.79
5/30/2022 12:45:00 AM 16.65 61.97 0.45 7.84 9.02 8.84
5/30/2022 1:00:00 AM 16.47 61.646 0.451 7.84 9.19 8.88
5/30/2022 1:15:00 AM 16.29 61.322 0.451 7.82 9.37 8.92
5/30/2022 1:30:00 AM 16.11 60.998 0.451 7.82 9.11 8.97
5/30/2022 1:45:00 AM 15.95 60.71 0.451 7.82 9.55 9.01
5/30/2022 2:00:00 AM 15.81 60.458 0.452 7.82 9.5 9.05
5/30/2022 2:15:00 AM 15.66 60.188 0.452 7.81 9.09 9.09
5/30/2022 2:30:00 AM 15.53 59.954 0.452 7.82 9.07 9.13
5/30/2022 2:45:00 AM 15.4 59.72 0.452 7.82 8.92 9.15
5/30/2022 3:00:00 AM 15.28 59.504 0.453 7.81 9.04 9.2
5/30/2022 3:15:00 AM 15.17 59.306 0.453 7.81 8.81 9.23
5/30/2022 3:30:00 AM 15.06 59.108 0.453 7.81 9.07 9.26
5/30/2022 3:45:00 AM 14.96 58.928 0.453 7.81 9.23 9.29
5/30/2022 4:00:00 AM 14.86 58.748 0.454 7.81 9.18 9.31
5/30/2022 4:15:00 AM 14.77 58.586 0.454 7.81 9.66 9.34
5/30/2022 4:30:00 AM 14.68 58.424 0.454 7.81 10.21 9.36
5/30/2022 4:45:00 AM 14.59 58.262 0.454 7.81 9.79 9.39
5/30/2022 5:00:00 AM 14.51 58.118 0.454 7.81 9.53 9.41
5/30/2022 5:15:00 AM 14.43 57.974 0.454 7.8 9.68 9.44
5/30/2022 5:30:00 AM 14.35 57.83 0.454 7.81 9.31 9.46
5/30/2022 5:45:00 AM 14.29 57.722 0.454 7.81 9.45 9.49
5/30/2022 6:00:00 AM 14.22 57.596 0.453 7.81 9.03 9.51
5/30/2022 6:15:00 AM 14.16 57.488 0.453 7.81 8.24 9.56
5/30/2022 6:30:00 AM 14.11 57.398 0.453 7.81 7.97 9.6
5/30/2022 6:45:00 AM 14.06 57.308 0.453 7.82 7.33 9.65
5/30/2022 7:00:00 AM 14.03 57.254 0.453 7.82 7.07 9.7
5/30/2022 7:15:00 AM 13.99 57.182 0.453 7.83 6.68 9.75
5/30/2022 7:30:00 AM 13.97 57.146 0.453 7.83 6.37 9.81
5/30/2022 7:45:00 AM 13.96 57.128 0.452 7.84 5.94 9.88
5/30/2022 8:00:00 AM 13.97 57.146 0.452 7.85 5.83 9.95
5/30/2022 8:15:00 AM 13.98 57.164 0.452 7.85 5.5 10.04
5/30/2022 8:30:00 AM 14 57.2 0.452 7.87 5.11 10.12
5/30/2022 8:45:00 AM 14.02 57.236 0.452 7.86 5.03 10.18
5/30/2022 9:00:00 AM 14.07 57.326 0.452 7.88 4.97 10.27
5/30/2022 9:15:00 AM 14.13 57.434 0.452 7.89 5.2 10.37
5/30/2022 9:30:00 AM 14.2 57.56 0.451 7.9 4.76 10.44
5/30/2022 9:45:00 AM 14.3 57.74 0.451 7.91 4.86 10.53
5/30/2022 10:00:00 AM 14.42 57.956 0.451 7.93 5.01 10.62
5/30/2022 10:15:00 AM 14.56 58.208 0.451 7.95 5 10.7
5/30/2022 10:30:00 AM 14.74 58.532 0.45 7.96 5.04 10.78
5/30/2022 10:45:00 AM 14.93 58.874 0.45 7.98 5.01 10.85
5/30/2022 11:00:00 AM 15.15 59.27 0.449 8 5 10.93
5/30/2022 11:15:00 AM 15.4 59.72 0.449 8.02 5.03 11
5/30/2022 11:30:00 AM 15.68 60.224 0.448 8.05 4.86 11.06
5/30/2022 11:45:00 AM 15.99 60.782 0.448 8.07 4.87 11.12
5/30/2022 12:00:00 PM 16.33 61.394 0.447 8.09 5.1 11.16
5/30/2022 12:15:00 PM 16.71 62.078 0.446 8.12 4.97 11.21
5/30/2022 12:30:00 PM 17.07 62.726 0.446 8.14 4.98 11.23
5/30/2022 12:45:00 PM 17.47 63.446 0.445 8.17 5.42 11.25
5/30/2022 1:00:00 PM 17.86 64.148 0.445 8.19 5.48 11.26
5/30/2022 1:15:00 PM 18.27 64.886 0.444 8.21 5.48 11.27
5/30/2022 1:30:00 PM 18.66 65.588 0.444 8.23 5.75 11.26
5/30/2022 1:45:00 PM 19.02 66.236 0.444 8.24 5.94 11.19
5/30/2022 2:00:00 PM 19.35 66.83 0.443 8.25 6.32 11.12
5/30/2022 2:15:00 PM 19.72 67.496 0.443 8.27 6.94 11.12
5/30/2022 2:30:00 PM 20.1 68.18 0.442 8.3 6.33 11.09
5/30/2022 2:45:00 PM 20.36 68.648 0.442 8.3 6.06 10.98
5/30/2022 3:00:00 PM 20.66 69.188 0.442 8.31 6.16 10.89
5/30/2022 3:15:00 PM 20.93 69.674 0.442 8.31 7.52 10.76
5/30/2022 3:30:00 PM 21.12 70.016 0.442 8.31 6.1 10.63
5/30/2022 3:45:00 PM 21.25 70.25 0.442 8.3 5.92 10.45
5/30/2022 4:00:00 PM 21.36 70.448 0.442 8.29 5.85 10.31
5/30/2022 4:15:00 PM 21.44 70.592 0.443 8.28 5.82 10.14
5/30/2022 4:30:00 PM 21.5 70.7 0.443 8.27 5.61 9.98
5/30/2022 4:45:00 PM 21.51 70.718 0.443 8.25 5.95 9.81
5/30/2022 5:00:00 PM 21.51 70.718 0.444 8.22 6 9.66
5/30/2022 5:15:00 PM 21.48 70.664 0.444 8.2 6.01 9.49
5/30/2022 5:30:00 PM 21.44 70.592 0.445 8.18 6.07 9.35
5/30/2022 5:45:00 PM 21.39 70.502 0.445 8.15 6.58 9.19
5/30/2022 6:00:00 PM 21.34 70.412 0.446 8.13 6 9.06
5/30/2022 6:15:00 PM 21.28 70.304 0.446 8.11 6.08 8.92
5/30/2022 6:30:00 PM 21.21 70.17799 0.447 8.09 6.3 8.8
5/30/2022 6:45:00 PM 21.15 70.07 0.447 8.06 6.56 8.68
5/30/2022 7:00:00 PM 21.09 69.962 0.447 8.05 6.46 8.59
5/30/2022 7:15:00 PM 21.05 69.89 0.448 8.02 6.36 8.5
5/30/2022 7:30:00 PM 21 69.8 0.448 8 6.72 8.4
5/30/2022 7:45:00 PM 20.95 69.71 0.448 7.98 6.59 8.32
5/30/2022 8:00:00 PM 20.9 69.62 0.448 7.96 6.58 8.26
5/30/2022 8:15:00 PM 20.85 69.53 0.449 7.95 6.93 8.2
5/30/2022 8:30:00 PM 20.79 69.422 0.449 7.93 6.86 8.15
5/30/2022 8:45:00 PM 20.71 69.278 0.449 7.92 7.41 8.1
5/30/2022 9:00:00 PM 20.63 69.134 0.45 7.9 7.74 8.08
5/30/2022 9:15:00 PM 20.53 68.954 0.45 7.89 8.44 8.07
5/30/2022 9:30:00 PM 20.42 68.756 0.451 7.88 8.35 8.04
5/30/2022 9:45:00 PM 20.29 68.522 0.451 7.87 8.46 8.05
5/30/2022 10:00:00 PM 20.16 68.288 0.451 7.86 8.59 8.06
5/30/2022 10:15:00 PM 20.01 68.018 0.452 7.86 8.76 8.08
5/30/2022 10:30:00 PM 19.85 67.73 0.452 7.85 9.31 8.11
5/30/2022 10:45:00 PM 19.68 67.424 0.452 7.85 9.98 8.14
5/30/2022 11:00:00 PM 19.51 67.118 0.452 7.85 9.45 8.18
5/30/2022 11:15:00 PM 19.33 66.794 0.453 7.84 10.02 8.21
5/30/2022 11:30:00 PM 19.14 66.452 0.453 7.84 9.99 8.26
5/30/2022 11:45:00 PM 18.96 66.128 0.454 7.84 10.31 8.3
5/31/2022 12:00:00 AM 18.77 65.786 0.454 7.83 10.17 8.33
5/31/2022 12:15:00 AM 18.58 65.444 0.455 7.83 9.99 8.37
5/31/2022 12:30:00 AM 18.38 65.084 0.455 7.82 10.3 8.41
5/31/2022 12:45:00 AM 18.19 64.742 0.455 7.81 10.26 8.45
5/31/2022 1:00:00 AM 18 64.4 0.456 7.81 10.83 8.5
5/31/2022 1:15:00 AM 17.81 64.058 0.456 7.81 10.8 8.54
5/31/2022 1:30:00 AM 17.63 63.734 0.456 7.81 10.63 8.58
5/31/2022 1:45:00 AM 17.46 63.428 0.457 7.8 10.97 8.62
5/31/2022 2:00:00 AM 17.3 63.14 0.457 7.8 10.69 8.66
5/31/2022 2:15:00 AM 17.15 62.87 0.457 7.8 10.97 8.7
5/31/2022 2:30:00 AM 17.01 62.618 0.457 7.8 10.66 8.73
5/31/2022 2:45:00 AM 16.88 62.384 0.457 7.79 11.19 8.77
5/31/2022 3:00:00 AM 16.76 62.168 0.457 7.79 10.57 8.8
5/31/2022 3:15:00 AM 16.65 61.97 0.458 7.8 10.56 8.83
5/31/2022 3:30:00 AM 16.55 61.79 0.458 7.79 10.16 8.86
5/31/2022 3:45:00 AM 16.45 61.61 0.458 7.79 10.5 8.89
5/31/2022 4:00:00 AM 16.37 61.466 0.458 7.79 10.61 8.91
5/31/2022 4:15:00 AM 16.28 61.304 0.458 7.8 12.1 8.94
5/31/2022 4:30:00 AM 16.19 61.142 0.458 7.79 10.97 8.96
5/31/2022 4:45:00 AM 16.11 60.998 0.458 7.8 11.17 8.98
5/31/2022 5:00:00 AM 16.03 60.854 0.458 7.79 10.63 9
5/31/2022 5:15:00 AM 15.95 60.71 0.458 7.79 10.31 9.01
5/31/2022 5:30:00 AM 15.87 60.566 0.458 7.79 10.36 9.04
5/31/2022 5:45:00 AM 15.79 60.422 0.459 7.79 10.19 9.07
5/31/2022 6:00:00 AM 15.71 60.278 0.459 7.8 9.47 9.1
5/31/2022 6:15:00 AM 15.63 60.134 0.459 7.8 8.9 9.14
5/31/2022 6:30:00 AM 15.55 59.99 0.459 7.79 8.48 9.19
5/31/2022 6:45:00 AM 15.49 59.882 0.458 7.8 7.87 9.25
5/31/2022 7:00:00 AM 15.43 59.774 0.458 7.81 7.43 9.3
5/31/2022 7:15:00 AM 15.39 59.702 0.458 7.81 7.14 9.36
5/31/2022 7:30:00 AM 15.35 59.63 0.458 7.81 6.49 9.42
5/31/2022 7:45:00 AM 15.32 59.576 0.458 7.82 6.21 9.49
5/31/2022 8:00:00 AM 15.31 59.558 0.458 7.83 6.13 9.55
5/31/2022 8:15:00 AM 15.31 59.558 0.458 7.83 5.87 9.65
5/31/2022 8:30:00 AM 15.32 59.576 0.457 7.85 5.6 9.73
5/31/2022 8:45:00 AM 15.34 59.612 0.457 7.84 5.43 9.8
5/31/2022 9:00:00 AM 15.39 59.702 0.456 7.86 5.32 9.88
5/31/2022 9:15:00 AM 15.43 59.774 0.456 7.87 5.21 9.97
5/31/2022 9:30:00 AM 15.51 59.918 0.456 7.88 5.02 10.04
5/31/2022 9:45:00 AM 15.61 60.098 0.455 7.9 5.01 10.13
5/31/2022 10:00:00 AM 15.75 60.35 0.455 7.91 5.16 10.21
5/31/2022 10:15:00 AM 15.9 60.62 0.455 7.93 4.98 10.3
5/31/2022 10:30:00 AM 16.07 60.926 0.454 7.95 4.97 10.37
5/31/2022 10:45:00 AM 16.25 61.25 0.454 7.97 5.08 10.45
5/31/2022 11:00:00 AM 16.46 61.628 0.453 7.99 4.98 10.53
5/31/2022 11:15:00 AM 16.7 62.06 0.453 8.01 4.83 10.62
5/31/2022 11:30:00 AM 16.97 62.546 0.452 8.03 4.86 10.69
5/31/2022 11:45:00 AM 17.26 63.068 0.451 8.05 5.03 10.77
5/31/2022 12:00:00 PM 17.56 63.608 0.451 8.08 5.16 10.83
5/31/2022 12:15:00 PM 17.9 64.22 0.45 8.1 5.28 10.89
5/31/2022 12:30:00 PM 18.25 64.85 0.45 8.12 5.32 10.94
5/31/2022 12:45:00 PM 18.62 65.516 0.449 8.15 5.54 10.97
5/31/2022 1:00:00 PM 18.98 66.164 0.449 8.17 5.33 10.99
5/31/2022 1:15:00 PM 19.38 66.884 0.448 8.2 5.5 10.98
5/31/2022 1:30:00 PM 19.75 67.55 0.448 8.21 5.33 10.96
5/31/2022 1:45:00 PM 20.12 68.216 0.448 8.23 5.51 10.94
5/31/2022 2:00:00 PM 20.46 68.828 0.447 8.25 5.52 10.89
5/31/2022 2:15:00 PM 20.81 69.458 0.447 8.27 5.58 10.87
5/31/2022 2:30:00 PM 21.15 70.07 0.447 8.28 5.61 10.81
5/31/2022 2:45:00 PM 21.47 70.646 0.447 8.29 5.45 10.76
5/31/2022 3:00:00 PM 21.72 71.096 0.446 8.3 5.54 10.68
5/31/2022 3:15:00 PM 21.96 71.528 0.446 8.3 5.58 10.56
5/31/2022 3:30:00 PM 22.16 71.888 0.446 8.31 5.54 10.42
5/31/2022 3:45:00 PM 22.31 72.158 0.446 8.3 5.74 10.27
5/31/2022 4:00:00 PM 22.43 72.374 0.446 8.29 5.58 10.11
5/31/2022 4:15:00 PM 22.53 72.554 0.447 8.29 5.65 9.96
5/31/2022 4:30:00 PM 22.6 72.68 0.447 8.27 5.51 9.79
5/31/2022 4:45:00 PM 22.65 72.77 0.447 8.26 5.71 9.61
5/31/2022 5:00:00 PM 22.67 72.806 0.448 8.23 5.67 9.44
5/31/2022 5:15:00 PM 22.64 72.752 0.449 8.22 5.92 9.26
5/31/2022 5:30:00 PM 22.62 72.716 0.449 8.2 6.26 9.1
5/31/2022 5:45:00 PM 22.57 72.626 0.45 8.17 5.91 8.95
5/31/2022 6:00:00 PM 22.52 72.536 0.45 8.15 5.89 8.8
5/31/2022 6:15:00 PM 22.46 72.42799 0.451 8.12 6.2 8.65
5/31/2022 6:30:00 PM 22.4 72.32 0.452 8.09 6.17 8.52
5/31/2022 6:45:00 PM 22.34 72.212 0.452 8.07 6.38 8.4
5/31/2022 7:00:00 PM 22.27 72.086 0.453 8.04 6.51 8.31
5/31/2022 7:15:00 PM 22.19 71.942 0.453 8.02 6.69 8.23
5/31/2022 7:30:00 PM 22.1 71.78 0.454 8 6.47 8.14
5/31/2022 7:45:00 PM 22 71.6 0.454 7.98 6.59 8.07
5/31/2022 8:00:00 PM 21.91 71.438 0.454 7.96 6.62 8
5/31/2022 8:15:00 PM 21.82 71.276 0.454 7.94 6.8 7.95
5/31/2022 8:30:00 PM 21.73 71.114 0.454 7.93 6.62 7.91
5/31/2022 8:45:00 PM 21.64 70.952 0.454 7.91 7.03 7.88
5/31/2022 9:00:00 PM 21.54 70.772 0.453 7.9 6.85 7.85
5/31/2022 9:15:00 PM 21.42 70.556 0.453 7.89 7.91 7.84
5/31/2022 9:30:00 PM 21.3 70.34 0.453 7.88 8.51 7.83
5/31/2022 9:45:00 PM 21.16 70.088 0.454 7.88 8.56 7.83
5/31/2022 10:00:00 PM 21.01 69.818 0.454 7.87 8.48 7.84
5/31/2022 10:15:00 PM 20.85 69.53 0.454 7.87 8.94 7.86
5/31/2022 10:30:00 PM 20.68 69.224 0.455 7.86 8.4 7.89
5/31/2022 10:45:00 PM 20.5 68.9 0.455 7.86 8.88 7.91
5/31/2022 11:00:00 PM 20.31 68.558 0.456 7.85 9.41 7.96
5/31/2022 11:15:00 PM 20.12 68.216 0.456 7.85 10.9 7.99
5/31/2022 11:30:00 PM 19.93 67.874 0.456 7.85 8.94 8.04
5/31/2022 11:45:00 PM 19.73 67.514 0.456 7.84 10.37 8.08
6/1/2022 12:00:00 AM 19.53 67.154 0.456 7.84 9.6 8.13
6/1/2022 12:15:00 AM 19.33 66.794 0.457 7.84 9.56 8.17
6/1/2022 12:30:00 AM 19.12 66.416 0.457 7.83 9.84 8.21
6/1/2022 12:45:00 AM 18.92 66.056 0.458 7.83 9.54 8.25
6/1/2022 1:00:00 AM 18.73 65.714 0.458 7.83 9.77 8.29
6/1/2022 1:15:00 AM 18.54 65.372 0.458 7.82 9.52 8.33
6/1/2022 1:30:00 AM 18.36 65.048 0.458 7.82 9.65 8.38
6/1/2022 1:45:00 AM 18.18 64.724 0.459 7.81 9.8 8.42
6/1/2022 2:00:00 AM 18.02 64.436 0.459 7.81 10.28 8.46
6/1/2022 2:15:00 AM 17.86 64.148 0.459 7.82 9.96 8.5
6/1/2022 2:30:00 AM 17.71 63.878 0.459 7.81 9.68 8.54
6/1/2022 2:45:00 AM 17.56 63.608 0.459 7.81 10.04 8.57
6/1/2022 3:00:00 AM 17.41 63.338 0.46 7.81 10.3 8.61
6/1/2022 3:15:00 AM 17.27 63.086 0.46 7.81 9.96 8.65
6/1/2022 3:30:00 AM 17.14 62.852 0.46 7.8 9.7 8.69
6/1/2022 3:45:00 AM 17.01 62.618 0.461 7.8 9.7 8.73
6/1/2022 4:00:00 AM 16.89 62.402 0.461 7.8 9.94 8.75
6/1/2022 4:15:00 AM 16.77 62.186 0.461 7.8 9.57 8.79
6/1/2022 4:30:00 AM 16.66 61.988 0.461 7.8 10.09 8.82
6/1/2022 4:45:00 AM 16.55 61.79 0.461 7.8 9.95 8.85
6/1/2022 5:00:00 AM 16.45 61.61 0.461 7.8 9.97 8.88
6/1/2022 5:15:00 AM 16.34 61.412 0.461 7.79 10.09 8.9
6/1/2022 5:30:00 AM 16.24 61.232 0.462 7.79 10.01 8.93
6/1/2022 5:45:00 AM 16.14 61.052 0.461 7.79 9.19 8.96
6/1/2022 6:00:00 AM 16.05 60.89 0.461 7.79 8.8 9
6/1/2022 6:15:00 AM 15.97 60.746 0.461 7.79 8.11 9.05
6/1/2022 6:30:00 AM 15.89 60.602 0.461 7.8 7.3 9.1
6/1/2022 6:45:00 AM 15.81 60.458 0.461 7.8 7.16 9.16
6/1/2022 7:00:00 AM 15.75 60.35 0.461 7.81 6.61 9.22
6/1/2022 7:15:00 AM 15.69 60.242 0.461 7.81 6.06 9.28
6/1/2022 7:30:00 AM 15.65 60.17 0.461 7.81 5.85 9.37
6/1/2022 7:45:00 AM 15.61 60.098 0.461 7.82 5.53 9.43
6/1/2022 8:00:00 AM 15.6 60.08 0.46 7.83 5.43 9.51
6/1/2022 8:15:00 AM 15.6 60.08 0.46 7.83 5.11 9.61
6/1/2022 8:30:00 AM 15.61 60.098 0.46 7.85 4.92 9.71
6/1/2022 8:45:00 AM 15.63 60.134 0.459 7.86 4.68 9.77
6/1/2022 9:00:00 AM 15.67 60.206 0.459 7.86 4.7 9.87
6/1/2022 9:15:00 AM 15.73 60.314 0.459 7.88 4.34 9.96
6/1/2022 9:30:00 AM 15.81 60.458 0.458 7.88 4.37 10.03
6/1/2022 9:45:00 AM 15.92 60.656 0.458 7.91 4.59 10.11
6/1/2022 10:00:00 AM 16.04 60.872 0.457 7.92 4.94 10.19
6/1/2022 10:15:00 AM 16.22 61.196 0.457 7.94 4.48 10.3
6/1/2022 10:30:00 AM 16.4 61.52 0.456 7.97 4.55 10.39
6/1/2022 10:45:00 AM 16.61 61.898 0.456 7.99 4.17 10.48
6/1/2022 11:00:00 AM 16.82 62.276 0.455 8 4.58 10.55
6/1/2022 11:15:00 AM 17.04 62.672 0.455 8.02 4.4 10.62
6/1/2022 11:30:00 AM 17.28 63.104 0.455 8.05 4.4 10.71
6/1/2022 11:45:00 AM 17.55 63.59 0.454 8.07 4.43 10.78
6/1/2022 12:00:00 PM 17.85 64.13 0.453 8.1 4.47 10.87
6/1/2022 12:15:00 PM 18.14 64.652 0.453 8.13 4.71 10.95
6/1/2022 12:30:00 PM 18.45 65.21 0.452 8.15 4.52 11
6/1/2022 12:45:00 PM 18.73 65.714 0.452 8.17 4.83 10.98
6/1/2022 1:00:00 PM 18.94 66.092 0.452 8.18 5 10.84
6/1/2022 1:15:00 PM 19.21 66.578 0.451 8.19 5.43 10.79
6/1/2022 1:30:00 PM 19.48 67.064 0.451 8.2 5.52 10.74
6/1/2022 1:45:00 PM 19.72 67.496 0.451 8.22 5.81 10.62
6/1/2022 2:00:00 PM 20.02 68.036 0.45 8.23 5.77 10.63
6/1/2022 2:15:00 PM 20.39 68.702 0.45 8.25 5.5 10.68
6/1/2022 2:30:00 PM 20.78 69.404 0.449 8.28 5.58 10.75
6/1/2022 2:45:00 PM 21.12 70.016 0.449 8.29 5.47 10.73
6/1/2022 3:00:00 PM 21.43 70.574 0.448 8.3 5.14 10.66
6/1/2022 3:15:00 PM 21.61 70.898 0.448 8.3 5.21 10.49
6/1/2022 3:30:00 PM 21.78 71.204 0.448 8.31 5.26 10.38
6/1/2022 3:45:00 PM 21.99 71.582 0.448 8.3 5.55 10.29
6/1/2022 4:00:00 PM 22.11 71.798 0.448 8.3 5.71 10.17
6/1/2022 4:15:00 PM 22.23 72.014 0.448 8.3 5.64 10.04
6/1/2022 4:30:00 PM 22.3 72.14 0.448 8.28 5.73 9.91
6/1/2022 4:45:00 PM 22.37 72.266 0.449 8.27 5.47 9.74
6/1/2022 5:00:00 PM 22.43 72.374 0.449 8.26 5.62 9.57
6/1/2022 5:15:00 PM 22.43 72.374 0.449 8.24 5.39 9.38
6/1/2022 5:30:00 PM 22.42 72.356 0.45 8.22 5.58 9.24
6/1/2022 5:45:00 PM 22.41 72.338 0.45 8.2 5.48 9.11
6/1/2022 6:00:00 PM 22.39 72.302 0.45 8.18 5.74 8.98
6/1/2022 6:15:00 PM 22.36 72.248 0.451 8.16 5.72 8.85
6/1/2022 6:30:00 PM 22.33 72.194 0.451 8.14 5.69 8.75
6/1/2022 6:45:00 PM 22.28 72.104 0.452 8.12 5.53 8.62
6/1/2022 7:00:00 PM 22.23 72.014 0.452 8.09 5.69 8.5
6/1/2022 7:15:00 PM 22.15 71.87 0.453 8.07 5.92 8.36
6/1/2022 7:30:00 PM 22.08 71.744 0.454 8.04 5.9 8.26
6/1/2022 7:45:00 PM 22 71.6 0.454 8.01 5.9 8.15
6/1/2022 8:00:00 PM 21.93 71.474 0.454 7.98 6.18 8.06
6/1/2022 8:15:00 PM 21.86 71.348 0.455 7.96 6.22 7.99
6/1/2022 8:30:00 PM 21.78 71.204 0.455 7.94 6.32 7.93
6/1/2022 8:45:00 PM 21.69 71.042 0.455 7.92 6.64 7.87
6/1/2022 9:00:00 PM 21.6 70.88 0.456 7.9 7.66 7.83
6/1/2022 9:15:00 PM 21.49 70.682 0.456 7.89 8.06 7.79
6/1/2022 9:30:00 PM 21.38 70.484 0.457 7.88 8.21 7.78
6/1/2022 9:45:00 PM 21.27 70.286 0.457 7.86 8.36 7.77
6/1/2022 10:00:00 PM 21.14 70.052 0.457 7.86 8.75 7.78
6/1/2022 10:15:00 PM 20.99 69.782 0.457 7.87 8.4 7.81
6/1/2022 10:30:00 PM 20.84 69.512 0.457 7.87 8.53 7.84
6/1/2022 10:45:00 PM 20.68 69.224 0.457 7.87 8.66 7.87
6/1/2022 11:00:00 PM 20.52 68.936 0.458 7.87 9.48 7.9
6/1/2022 11:15:00 PM 20.35 68.63 0.458 7.87 9.21 7.93
6/1/2022 11:30:00 PM 20.17 68.306 0.459 7.87 9.59 7.96
6/1/2022 11:45:00 PM 19.99 67.982 0.459 7.87 9.32 7.99
6/2/2022 12:00:00 AM 19.82 67.676 0.459 7.86 9.64 8.03
6/2/2022 12:15:00 AM 19.63 67.334 0.459 7.86 10.33 8.06
6/2/2022 12:30:00 AM 19.45 67.01 0.46 7.86 10.19 8.1
6/2/2022 12:45:00 AM 19.26 66.668 0.459 7.85 10.89 8.11
6/2/2022 1:00:00 AM 19.08 66.344 0.46 7.84 11.83 8.15
6/2/2022 1:15:00 AM 18.91 66.038 0.46 7.84 11.3 8.18
6/2/2022 1:30:00 AM 18.74 65.732 0.46 7.84 11.94 8.22
6/2/2022 1:45:00 AM 18.58 65.444 0.46 7.83 11.87 8.26
6/2/2022 2:00:00 AM 18.43 65.174 0.46 7.83 12.38 8.29
6/2/2022 2:15:00 AM 18.29 64.922 0.461 7.83 14.27 8.32
6/2/2022 2:30:00 AM 18.15 64.67 0.461 7.82 11.8 8.35
6/2/2022 2:45:00 AM 18.02 64.436 0.462 7.83 10.97 8.38
6/2/2022 3:00:00 AM 17.9 64.22 0.462 7.83 11.02 8.41
6/2/2022 3:15:00 AM 17.78 64.004 0.463 7.82 11.59 8.45
6/2/2022 3:30:00 AM 17.66 63.788 0.464 7.82 11.69 8.48
6/2/2022 3:45:00 AM 17.55 63.59 0.464 7.82 12.89 8.51
6/2/2022 4:00:00 AM 17.44 63.392 0.465 7.81 12.69 8.54
6/2/2022 4:15:00 AM 17.34 63.212 0.465 7.81 12.07 8.57
6/2/2022 4:30:00 AM 17.24 63.032 0.464 7.82 11.81 8.6
6/2/2022 4:45:00 AM 17.14 62.852 0.463 7.82 12.07 8.63
6/2/2022 5:00:00 AM 17.05 62.69 0.461 7.82 12.74 8.65
6/2/2022 5:15:00 AM 16.96 62.528 0.459 7.81 14.6 8.67
6/2/2022 5:30:00 AM 16.87 62.366 0.458 7.81 15.71 8.68
6/2/2022 5:45:00 AM 16.78 62.204 0.457 7.8 14.55 8.65
6/2/2022 6:00:00 AM 16.7 62.06 0.456 7.79 15.04 8.63
6/2/2022 6:15:00 AM 16.62 61.916 0.455 7.78 15.39 8.61
6/2/2022 6:30:00 AM 16.55 61.79 0.453 7.77 14.16 8.61
6/2/2022 6:45:00 AM 16.5 61.7 0.451 7.76 13.12 8.61
6/2/2022 7:00:00 AM 16.47 61.646 0.449 7.76 12.97 8.63
6/2/2022 7:15:00 AM 16.45 61.61 0.448 7.75 12.32 8.65
6/2/2022 7:30:00 AM 16.42 61.556 0.449 7.76 11.97 8.68
6/2/2022 7:45:00 AM 16.39 61.502 0.45 7.75 10.62 8.75
6/2/2022 8:00:00 AM 16.37 61.466 0.452 7.77 9.38 8.89
6/2/2022 8:15:00 AM 16.36 61.448 0.452 7.79 8.27 9.04
6/2/2022 8:30:00 AM 16.38 61.484 0.451 7.81 8.15 9.24
6/2/2022 8:45:00 AM 16.41 61.538 0.45 7.83 7.59 9.4
6/2/2022 9:00:00 AM 16.43 61.574 0.448 7.85 6.97 9.49
6/2/2022 9:15:00 AM 16.49 61.682 0.445 7.87 6.58 9.63
6/2/2022 9:30:00 AM 16.54 61.772 0.441 7.87 6.34 9.71
6/2/2022 9:45:00 AM 16.62 61.916 0.435 7.89 6.32 9.82
6/2/2022 10:00:00 AM 16.68 62.024 0.428 7.9 6.67 9.84
6/2/2022 10:15:00 AM 16.79 62.222 0.423 7.91 6.49 9.92
6/2/2022 10:30:00 AM 16.97 62.546 0.419 7.92 6.4 10.08
6/2/2022 10:45:00 AM 17.07 62.726 0.418 7.94 6.44 10.11
6/2/2022 11:00:00 AM 17.23 63.014 0.418 7.95 6.2 10.17
6/2/2022 11:15:00 AM 17.42 63.356 0.419 7.97 6.11 10.22
6/2/2022 11:30:00 AM 17.5 63.5 0.42 7.98 6.21 10.26
6/2/2022 11:45:00 AM 17.57 63.626 0.42 7.99 5.89 10.26
6/2/2022 12:00:00 PM 17.7 63.86 0.421 8 5.8 10.29
6/2/2022 12:15:00 PM 17.95 64.31 0.421 8.02 5.43 10.38
6/2/2022 12:30:00 PM 18.13 64.634 0.421 8.05 5.53 10.52
6/2/2022 12:45:00 PM 18.29 64.922 0.421 8.07 5.63 10.56
6/2/2022 1:00:00 PM 18.46 65.228 0.422 8.08 5.46 10.58
6/2/2022 1:15:00 PM 18.67 65.606 0.424 8.1 5.94 10.62
6/2/2022 1:30:00 PM 18.75 65.75 0.426 8.1 5.37 10.48
6/2/2022 1:45:00 PM 18.86 65.948 0.428 8.1 5.7 10.44
6/2/2022 2:00:00 PM 19.12 66.416 0.429 8.13 5.68 10.58
6/2/2022 2:15:00 PM 19.36 66.848 0.43 8.15 5.58 10.66
6/2/2022 2:30:00 PM 19.55 67.19 0.431 8.17 5.46 10.68
6/2/2022 2:45:00 PM 19.68 67.424 0.432 8.17 5.54 10.62
6/2/2022 3:00:00 PM 19.87 67.766 0.433 8.19 5.53 10.62
6/2/2022 3:15:00 PM 19.99 67.982 0.434 8.2 5.31 10.51
6/2/2022 3:30:00 PM 20.11 68.198 0.434 8.2 5.5 10.41
6/2/2022 3:45:00 PM 20.24 68.432 0.434 8.21 5.52 10.36
6/2/2022 4:00:00 PM 20.31 68.558 0.435 8.19 5.09 10.09
6/2/2022 4:15:00 PM 20.32 68.576 0.435 8.17 5.11 9.73
6/2/2022 4:30:00 PM 20.31 68.558 0.434 8.14 5.26 9.42
6/2/2022 4:45:00 PM 20.3 68.54 0.434 8.11 5.56 9.21
6/2/2022 5:00:00 PM 20.28 68.504 0.432 8.09 5.49 9.06
6/2/2022 5:15:00 PM 20.28 68.504 0.431 8.08 5.89 9.05
6/2/2022 5:30:00 PM 20.27 68.486 0.431 8.07 5.57 9.08
6/2/2022 5:45:00 PM 20.21 68.378 0.431 8.06 6.02 9.02
6/2/2022 6:00:00 PM 20.13 68.234 0.431 8.05 6.04 8.94
6/2/2022 6:15:00 PM 20.04 68.07201 0.431 8.03 5.63 8.87
6/2/2022 6:30:00 PM 19.98 67.964 0.432 8.02 5.58 8.86
6/2/2022 6:45:00 PM 19.93 67.874 0.432 8.01 5.42 8.84
6/2/2022 7:00:00 PM 19.89 67.802 0.434 8.01 5.56 8.79
6/2/2022 7:15:00 PM 19.85 67.73 0.435 8 5.54 8.73
6/2/2022 7:30:00 PM 19.79 67.622 0.437 7.98 6.1 8.65
6/2/2022 7:45:00 PM 19.73 67.514 0.439 7.96 6.1 8.56
6/2/2022 8:00:00 PM 19.65 67.37 0.441 7.95 5.88 8.48
6/2/2022 8:15:00 PM 19.57 67.226 0.442 7.94 6.23 8.42
6/2/2022 8:30:00 PM 19.46 67.028 0.444 7.92 6.19 8.39
6/2/2022 8:45:00 PM 19.34 66.812 0.445 7.91 6.25 8.37
6/2/2022 9:00:00 PM 19.19 66.542 0.446 7.9 6.57 8.37
6/2/2022 9:15:00 PM 19.03 66.254 0.447 7.89 7.67 8.37
6/2/2022 9:30:00 PM 18.85 65.93 0.448 7.88 7.89 8.39
6/2/2022 9:45:00 PM 18.69 65.642 0.448 7.87 8.85 8.41
6/2/2022 10:00:00 PM 18.54 65.372 0.449 7.85 9.36 8.42
6/2/2022 10:15:00 PM 18.4 65.12 0.45 7.85 9.08 8.44
6/2/2022 10:30:00 PM 18.28 64.904 0.451 7.84 8.99 8.46
6/2/2022 10:45:00 PM 18.16 64.688 0.451 7.84 8.75 8.48
6/2/2022 11:00:00 PM 18.04 64.472 0.452 7.83 8.78 8.5
6/2/2022 11:15:00 PM 17.93 64.274 0.453 7.83 9.09 8.51
6/2/2022 11:30:00 PM 17.81 64.058 0.454 7.83 8.94 8.54
6/2/2022 11:45:00 PM 17.7 63.86 0.454 7.82 9.15 8.56
6/3/2022 12:00:00 AM 17.58 63.644 0.455 7.82 9.54 8.58
6/3/2022 12:15:00 AM 17.46 63.428 0.456 7.8 9.8 8.59
6/3/2022 12:30:00 AM 17.33 63.194 0.456 7.8 9.74 8.6
6/3/2022 12:45:00 AM 17.21 62.978 0.457 7.8 10.14 8.63
6/3/2022 1:00:00 AM 17.09 62.762 0.458 7.8 10.51 8.65
6/3/2022 1:15:00 AM 16.98 62.564 0.458 7.79 11.11 8.67
6/3/2022 1:30:00 AM 16.87 62.366 0.458 7.79 9.48 8.7
6/3/2022 1:45:00 AM 16.77 62.186 0.458 7.79 8.94 8.72
6/3/2022 2:00:00 AM 16.67 62.006 0.458 7.78 9.04 8.74
6/3/2022 2:15:00 AM 16.57 61.826 0.457 7.79 9.01 8.76
6/3/2022 2:30:00 AM 16.48 61.664 0.456 7.79 9.22 8.78
6/3/2022 2:45:00 AM 16.4 61.52 0.455 7.78 9.16 8.8
6/3/2022 3:00:00 AM 16.32 61.376 0.454 7.79 9.37 8.82
6/3/2022 3:15:00 AM 16.25 61.25 0.453 7.79 9.31 8.84
6/3/2022 3:30:00 AM 16.18 61.124 0.452 7.79 9.39 8.86
6/3/2022 3:45:00 AM 16.13 61.034 0.452 7.79 9.5 8.88
6/3/2022 4:00:00 AM 16.07 60.926 0.452 7.79 9.06 8.9
6/3/2022 4:15:00 AM 16.01 60.818 0.452 7.79 11.26 8.91
6/3/2022 4:30:00 AM 15.97 60.746 0.452 7.79 9.54 8.93
6/3/2022 4:45:00 AM 15.92 60.656 0.453 7.79 9.65 8.94
6/3/2022 5:00:00 AM 15.87 60.566 0.453 7.79 9.52 8.96
6/3/2022 5:15:00 AM 15.83 60.494 0.454 7.8 9.5 8.97
6/3/2022 5:30:00 AM 15.78 60.404 0.454 7.79 9.08 8.99
6/3/2022 5:45:00 AM 15.72 60.296 0.455 7.8 8.7 9.01
6/3/2022 6:00:00 AM 15.67 60.206 0.455 7.8 8.08 9.03
6/3/2022 6:15:00 AM 15.61 60.098 0.454 7.81 7.93 9.07
6/3/2022 6:30:00 AM 15.56 60.008 0.454 7.8 7.14 9.11
6/3/2022 6:45:00 AM 15.5 59.9 0.453 7.82 6.56 9.15
6/3/2022 7:00:00 AM 15.45 59.81 0.454 7.82 6.24 9.21
6/3/2022 7:15:00 AM 15.42 59.756 0.453 7.83 5.84 9.27
6/3/2022 7:30:00 AM 15.38 59.684 0.453 7.83 5.19 9.31
6/3/2022 7:45:00 AM 15.35 59.63 0.453 7.84 5.08 9.37
6/3/2022 8:00:00 AM 15.35 59.63 0.453 7.85 4.63 9.44
6/3/2022 8:15:00 AM 15.36 59.648 0.453 7.86 4.39 9.52
6/3/2022 8:30:00 AM 15.37 59.666 0.453 7.87 4.13 9.57
6/3/2022 8:45:00 AM 15.38 59.684 0.453 7.88 3.99 9.63
6/3/2022 9:00:00 AM 15.41 59.738 0.453 7.89 3.74 9.73
6/3/2022 9:15:00 AM 15.45 59.81 0.453 7.9 3.66 9.79
6/3/2022 9:30:00 AM 15.5 59.9 0.453 7.91 3.76 9.87
6/3/2022 9:45:00 AM 15.58 60.044 0.452 7.93 3.67 9.94
6/3/2022 10:00:00 AM 15.68 60.224 0.451 7.94 3.6 10.02
6/3/2022 10:15:00 AM 15.78 60.404 0.451 7.96 3.61 10.12
6/3/2022 10:30:00 AM 15.89 60.602 0.451 7.98 3.37 10.2
6/3/2022 10:45:00 AM 16.03 60.854 0.451 8 3.33 10.29
6/3/2022 11:00:00 AM 16.16 61.088 0.451 8.01 3.62 10.38
6/3/2022 11:15:00 AM 16.34 61.412 0.451 8.03 3.5 10.48
6/3/2022 11:30:00 AM 16.53 61.754 0.451 8.06 3.64 10.6
6/3/2022 11:45:00 AM 16.69 62.042 0.451 8.07 3.75 10.7
6/3/2022 12:00:00 PM 16.84 62.312 0.451 8.11 3.68 10.8
6/3/2022 12:15:00 PM 17.03 62.654 0.451 8.14 3.66 10.9
6/3/2022 12:30:00 PM 17.34 63.212 0.451 8.16 3.75 10.99
6/3/2022 12:45:00 PM 17.64 63.752 0.451 8.18 3.91 11
6/3/2022 1:00:00 PM 17.96 64.328 0.451 8.2 3.81 11.02
6/3/2022 1:15:00 PM 18.28 64.904 0.451 8.22 3.98 11.02
6/3/2022 1:30:00 PM 18.62 65.516 0.45 8.24 4.05 11.02
6/3/2022 1:45:00 PM 18.9 66.02 0.45 8.26 3.95 10.99
6/3/2022 2:00:00 PM 19.18 66.524 0.45 8.28 3.98 11.01
6/3/2022 2:15:00 PM 19.46 67.028 0.45 8.3 3.83 11
6/3/2022 2:30:00 PM 19.74 67.532 0.449 8.31 3.86 10.96
6/3/2022 2:45:00 PM 19.97 67.946 0.449 8.32 3.92 10.88
6/3/2022 3:00:00 PM 20.21 68.378 0.449 8.34 3.84 10.81
6/3/2022 3:15:00 PM 20.39 68.702 0.449 8.34 3.93 10.71
6/3/2022 3:30:00 PM 20.52 68.936 0.449 8.35 3.89 10.62
6/3/2022 3:45:00 PM 20.6 69.08 0.449 8.34 3.99 10.49
6/3/2022 4:00:00 PM 20.67 69.206 0.45 8.35 4.04 10.39
6/3/2022 4:15:00 PM 20.69 69.242 0.45 8.34 4.05 10.25
6/3/2022 4:30:00 PM 20.68 69.224 0.45 8.34 4.29 10.16
6/3/2022 4:45:00 PM 20.68 69.224 0.451 8.33 4.67 10.02
6/3/2022 5:00:00 PM 20.67 69.206 0.451 8.31 4.46 9.91
6/3/2022 5:15:00 PM 20.67 69.206 0.452 8.29 4.37 9.74
6/3/2022 5:30:00 PM 20.61 69.098 0.452 8.28 4.75 9.57
6/3/2022 5:45:00 PM 20.56 69.008 0.453 8.25 4.94 9.4
6/3/2022 6:00:00 PM 20.52 68.936 0.453 8.24 4.9 9.28
6/3/2022 6:15:00 PM 20.49 68.882 0.454 8.21 4.61 9.18
6/3/2022 6:30:00 PM 20.45 68.81 0.454 8.2 5.01 9.07
6/3/2022 6:45:00 PM 20.42 68.756 0.455 8.18 4.89 8.98
6/3/2022 7:00:00 PM 20.38 68.684 0.455 8.17 4.5 8.92
6/3/2022 7:15:00 PM 20.33 68.594 0.455 8.15 4.82 8.85
6/3/2022 7:30:00 PM 20.25 68.45 0.456 8.13 4.61 8.77
6/3/2022 7:45:00 PM 20.15 68.27 0.456 8.11 4.75 8.68
6/3/2022 8:00:00 PM 20.06 68.108 0.457 8.09 4.67 8.61
6/3/2022 8:15:00 PM 19.95 67.91 0.457 8.08 4.8 8.54
6/3/2022 8:30:00 PM 19.85 67.73 0.457 8.06 4.48 8.48
6/3/2022 8:45:00 PM 19.73 67.514 0.458 8.05 4.82 8.43
6/3/2022 9:00:00 PM 19.59 67.262 0.458 8.03 5.24 8.39
6/3/2022 9:15:00 PM 19.44 66.992 0.459 8.02 5.92 8.38
6/3/2022 9:30:00 PM 19.27 66.686 0.459 8 6.34 8.36
6/3/2022 9:45:00 PM 19.11 66.398 0.46 8 7 8.36
6/3/2022 10:00:00 PM 18.94 66.092 0.46 7.98 7.16 8.37
6/3/2022 10:15:00 PM 18.76 65.768 0.461 7.97 7.04 8.4
6/3/2022 10:30:00 PM 18.59 65.462 0.461 7.96 7.49 8.42
6/3/2022 10:45:00 PM 18.41 65.138 0.462 7.96 7.91 8.43
6/3/2022 11:00:00 PM 18.24 64.832 0.462 7.95 9.07 8.48
6/3/2022 11:15:00 PM 18.06 64.508 0.463 7.94 7.88 8.5
6/3/2022 11:30:00 PM 17.88 64.184 0.464 7.93 10.36 8.53
6/3/2022 11:45:00 PM 17.71 63.878 0.464 7.93 7.98 8.57
6/4/2022 12:00:00 AM 17.53 63.554 0.464 7.92 8.17 8.61
6/4/2022 12:15:00 AM 17.34 63.212 0.465 7.91 7.91 8.65
6/4/2022 12:30:00 AM 17.15 62.87 0.465 7.92 8.32 8.68
6/4/2022 12:45:00 AM 16.97 62.546 0.465 7.9 7.66 8.72
6/4/2022 1:00:00 AM 16.78 62.204 0.465 7.9 7.69 8.76
6/4/2022 1:15:00 AM 16.6 61.88 0.465 7.89 7.79 8.79
6/4/2022 1:30:00 AM 16.42 61.556 0.465 7.89 8.35 8.84
6/4/2022 1:45:00 AM 16.25 61.25 0.465 7.88 8.13 8.88
6/4/2022 2:00:00 AM 16.07 60.926 0.465 7.88 8.04 8.93
6/4/2022 2:15:00 AM 15.9 60.62 0.464 7.88 8.08 8.97
6/4/2022 2:30:00 AM 15.74 60.332 0.465 7.87 8.18 9.01
6/4/2022 2:45:00 AM 15.58 60.044 0.465 7.87 8.54 9.06
6/4/2022 3:00:00 AM 15.43 59.774 0.465 7.86 8.76 9.1
6/4/2022 3:15:00 AM 15.29 59.522 0.466 7.86 11.29 9.12
6/4/2022 3:30:00 AM 15.15 59.27 0.466 7.86 10.06 9.17
6/4/2022 3:45:00 AM 15.01 59.018 0.468 7.85 9.78 9.21
6/4/2022 4:00:00 AM 14.88 58.784 0.47 7.86 8.93 9.25
6/4/2022 4:15:00 AM 14.75 58.55 0.471 7.86 9.76 9.28
6/4/2022 4:30:00 AM 14.63 58.334 0.473 7.86 9.56 9.32
6/4/2022 4:45:00 AM 14.51 58.118 0.475 7.86 9.35 9.36
6/4/2022 5:00:00 AM 14.39 57.902 0.476 7.87 9.26 9.39
6/4/2022 5:15:00 AM 14.28 57.704 0.477 7.87 9.26 9.42
6/4/2022 5:30:00 AM 14.17 57.506 0.477 7.87 10.4 9.45
6/4/2022 5:45:00 AM 14.07 57.326 0.477 7.87 8.63 9.48
6/4/2022 6:00:00 AM 13.99 57.182 0.476 7.86 7.91 9.52
6/4/2022 6:15:00 AM 13.91 57.038 0.476 7.87 7 9.57
6/4/2022 6:30:00 AM 13.84 56.912 0.475 7.87 6.55 9.61
6/4/2022 6:45:00 AM 14 57.2 0.471 7.88 5.9 9.57
6/4/2022 7:00:00 AM 13.95 57.11 0.47 7.88 5.74 9.62
6/4/2022 7:15:00 AM 13.9 57.02 0.469 7.88 5.32 9.67
6/4/2022 7:30:00 AM 13.87 56.966 0.468 7.89 4.71 9.73
6/4/2022 7:45:00 AM 13.85 56.93 0.468 7.89 4.52 9.79
6/4/2022 8:00:00 AM 13.86 56.948 0.467 7.9 4.22 9.86
6/4/2022 8:15:00 AM 13.88 56.984 0.467 7.91 4.31 9.94
6/4/2022 8:30:00 AM 13.91 57.038 0.466 7.91 5.15 10.01
6/4/2022 8:45:00 AM 13.95 57.11 0.466 7.92 4.36 10.08
6/4/2022 9:00:00 AM 14 57.2 0.466 7.93 4.27 10.16
6/4/2022 9:15:00 AM 14.07 57.326 0.465 7.94 4.19 10.23
6/4/2022 9:30:00 AM 14.16 57.488 0.465 7.95 4.05 10.32
6/4/2022 9:45:00 AM 14.26 57.668 0.465 7.96 4.24 10.38
6/4/2022 10:00:00 AM 14.38 57.884 0.465 7.97 4.29 10.47
6/4/2022 10:15:00 AM 14.52 58.136 0.465 7.99 4.15 10.54
6/4/2022 10:30:00 AM 14.68 58.424 0.464 8 3.88 10.62
6/4/2022 10:45:00 AM 14.85 58.73 0.464 8.01 4.12 10.69
6/4/2022 11:00:00 AM 15.04 59.072 0.464 8.03 4.11 10.75
6/4/2022 11:15:00 AM 15.25 59.45 0.464 8.05 4.12 10.82
6/4/2022 11:30:00 AM 15.49 59.882 0.463 8.07 4.22 10.9
6/4/2022 11:45:00 AM 15.75 60.35 0.463 8.1 4.17 10.97
6/4/2022 12:00:00 PM 16.03 60.854 0.463 8.11 4.28 11.03
6/4/2022 12:15:00 PM 16.35 61.43 0.462 8.14 4.21 11.09
6/4/2022 12:30:00 PM 16.65 61.97 0.462 8.17 4.14 11.14
6/4/2022 12:45:00 PM 16.98 62.564 0.461 8.18 4.2 11.17
6/4/2022 1:00:00 PM 17.32 63.176 0.461 8.21 4.37 11.18
6/4/2022 1:15:00 PM 17.67 63.806 0.461 8.23 4.36 11.18
6/4/2022 1:30:00 PM 18.02 64.436 0.46 8.25 4.44 11.16
6/4/2022 1:45:00 PM 18.39 65.102 0.46 8.26 4.85 11.13
6/4/2022 2:00:00 PM 18.74 65.732 0.46 8.28 5.13 11.11
6/4/2022 2:15:00 PM 19.07 66.326 0.459 8.29 5.14 11.07
6/4/2022 2:30:00 PM 19.41 66.938 0.459 8.31 6.53 11
6/4/2022 2:45:00 PM 19.71 67.478 0.459 8.32 9.47 10.91
6/4/2022 3:00:00 PM 19.95 67.91 0.458 8.33 5.23 10.83
6/4/2022 3:15:00 PM 20.15 68.27 0.458 8.34 5.37 10.7
6/4/2022 3:30:00 PM 20.33 68.594 0.458 8.33 5.32 10.56
6/4/2022 3:45:00 PM 20.47 68.846 0.459 8.33 5.03 10.4
6/4/2022 4:00:00 PM 20.57 69.026 0.459 8.33 4.99 10.26
6/4/2022 4:15:00 PM 20.64 69.152 0.459 8.32 5.13 10.1
6/4/2022 4:30:00 PM 20.71 69.278 0.459 8.31 5.03 9.97
6/4/2022 4:45:00 PM 20.75 69.35 0.459 8.3 4.9 9.79
6/4/2022 5:00:00 PM 20.75 69.35 0.46 8.28 4.87 9.65
6/4/2022 5:15:00 PM 20.73 69.314 0.46 8.27 4.97 9.5
6/4/2022 5:30:00 PM 20.69 69.242 0.46 8.25 5.07 9.35
6/4/2022 5:45:00 PM 20.65 69.17 0.461 8.23 5.29 9.2
6/4/2022 6:00:00 PM 20.6 69.08 0.461 8.22 5.29 9.08
6/4/2022 6:15:00 PM 20.54 68.972 0.462 8.19 5.32 8.96
6/4/2022 6:30:00 PM 20.46 68.828 0.462 8.18 5.41 8.85
6/4/2022 6:45:00 PM 20.39 68.702 0.462 8.15 5.79 8.74
6/4/2022 7:00:00 PM 20.31 68.558 0.463 8.13 6.22 8.66
6/4/2022 7:15:00 PM 20.21 68.378 0.463 8.11 6.85 8.58
6/4/2022 7:30:00 PM 20.1 68.18 0.463 8.09 6.78 8.51
6/4/2022 7:45:00 PM 19.98 67.964 0.463 8.08 6.48 8.46
6/4/2022 8:00:00 PM 19.87 67.766 0.464 8.07 6.6 8.42
6/4/2022 8:15:00 PM 19.77 67.586 0.464 8.05 6.73 8.38
6/4/2022 8:30:00 PM 19.66 67.388 0.464 8.04 6.52 8.35
6/4/2022 8:45:00 PM 19.56 67.208 0.465 8.02 6.26 8.33
6/4/2022 9:00:00 PM 19.43 66.974 0.465 8.02 6.72 8.31
6/4/2022 9:15:00 PM 19.29 66.722 0.465 8.01 7.26 8.3
6/4/2022 9:30:00 PM 19.15 66.47 0.465 8 7.81 8.31
6/4/2022 9:45:00 PM 19 66.2 0.466 8 7.93 8.33
6/4/2022 10:00:00 PM 18.83 65.894 0.466 7.99 7.32 8.35
6/4/2022 10:15:00 PM 18.66 65.588 0.467 7.98 7.88 8.37
6/4/2022 10:30:00 PM 18.46 65.228 0.467 7.97 7.96 8.4
6/4/2022 10:45:00 PM 18.27 64.886 0.467 7.96 8.46 8.44
6/4/2022 11:00:00 PM 18.06 64.508 0.468 7.95 8.65 8.47
6/4/2022 11:15:00 PM 17.85 64.13 0.468 7.95 8.85 8.52
6/4/2022 11:30:00 PM 17.63 63.734 0.468 7.94 8.47 8.57
6/4/2022 11:45:00 PM 17.4 63.32 0.468 7.94 8.43 8.62
6/5/2022 12:00:00 AM 17.17 62.906 0.469 7.93 9.01 8.68
6/5/2022 12:15:00 AM 16.94 62.492 0.469 7.93 8.79 8.72
6/5/2022 12:30:00 AM 16.72 62.096 0.47 7.92 8.74 8.78
6/5/2022 12:45:00 AM 16.51 61.718 0.47 7.91 9.07 8.83
6/5/2022 1:00:00 AM 16.28 61.304 0.471 7.91 9.8 8.89
6/5/2022 1:15:00 AM 16.07 60.926 0.472 7.9 10.9 8.94
6/5/2022 1:30:00 AM 15.86 60.548 0.472 7.9 8.81 9
6/5/2022 1:45:00 AM 15.66 60.188 0.473 7.9 9.17 9.05
6/5/2022 2:00:00 AM 15.46 59.828 0.473 7.89 8.98 9.1
6/5/2022 2:15:00 AM 15.28 59.504 0.474 7.89 9.46 9.16
6/5/2022 2:30:00 AM 15.12 59.216 0.474 7.89 12.25 9.2
6/5/2022 2:45:00 AM 14.96 58.928 0.474 7.89 9.18 9.25
6/5/2022 3:00:00 AM 14.81 58.658 0.475 7.88 10.69 9.28
6/5/2022 3:15:00 AM 14.66 58.388 0.475 7.88 9.41 9.32
6/5/2022 3:30:00 AM 14.53 58.154 0.475 7.88 9.32 9.36
6/5/2022 3:45:00 AM 14.4 57.92 0.475 7.88 10.45 9.4
6/5/2022 4:00:00 AM 14.28 57.704 0.475 7.87 9.78 9.43
6/5/2022 4:15:00 AM 14.17 57.506 0.475 7.88 10.3 9.47
6/5/2022 4:30:00 AM 14.06 57.308 0.475 7.87 10.22 9.49
6/5/2022 4:45:00 AM 13.96 57.128 0.475 7.87 10.03 9.53
6/5/2022 5:00:00 AM 13.86 56.948 0.475 7.88 10.1 9.55
6/5/2022 5:15:00 AM 13.99 57.182 0.473 7.88 9.54 9.5
6/5/2022 5:30:00 AM 13.88 56.984 0.473 7.88 9.37 9.53
6/5/2022 5:45:00 AM 13.78 56.804 0.473 7.87 8.86 9.57
6/5/2022 6:00:00 AM 13.67 56.606 0.473 7.88 8.01 9.61
6/5/2022 6:15:00 AM 13.58 56.444 0.473 7.89 7.51 9.65
6/5/2022 6:30:00 AM 13.49 56.282 0.473 7.88 8.18 9.7
6/5/2022 6:45:00 AM 13.41 56.138 0.473 7.89 7.63 9.75
6/5/2022 7:00:00 AM 13.34 56.012 0.473 7.89 6.31 9.81
6/5/2022 7:15:00 AM 13.28 55.904 0.473 7.89 5.45 9.86
6/5/2022 7:30:00 AM 13.24 55.832 0.472 7.91 5.13 9.92
6/5/2022 7:45:00 AM 13.21 55.778 0.472 7.91 4.6 10
6/5/2022 8:00:00 AM 13.21 55.778 0.472 7.92 4.31 10.08
6/5/2022 8:15:00 AM 13.22 55.796 0.472 7.93 4.1 10.16
6/5/2022 8:30:00 AM 13.24 55.832 0.472 7.94 3.87 10.23
6/5/2022 8:45:00 AM 13.27 55.886 0.472 7.95 3.72 10.29
6/5/2022 9:00:00 AM 13.33 55.994 0.471 7.96 3.64 10.37
6/5/2022 9:15:00 AM 13.39 56.102 0.471 7.97 3.58 10.45
6/5/2022 9:30:00 AM 13.46 56.228 0.471 7.98 3.66 10.54
6/5/2022 9:45:00 AM 13.55 56.39 0.471 7.99 3.61 10.61
6/5/2022 10:00:00 AM 13.65 56.57 0.471 8.01 3.55 10.68
6/5/2022 10:15:00 AM 13.77 56.786 0.47 8.01 3.26 10.77
6/5/2022 10:30:00 AM 13.91 57.038 0.47 8.04 3.33 10.84
6/5/2022 10:45:00 AM 14.06 57.308 0.47 8.05 3.32 10.91
6/5/2022 11:00:00 AM 14.24 57.632 0.47 8.06 3.33 10.97
6/5/2022 11:15:00 AM 14.43 57.974 0.469 8.08 3.37 11.05
6/5/2022 11:30:00 AM 14.65 58.37 0.469 8.1 3.27 11.12
6/5/2022 11:45:00 AM 14.88 58.784 0.469 8.12 3.45 11.2
6/5/2022 12:00:00 PM 15.12 59.216 0.468 8.13 3.39 11.29
6/5/2022 12:15:00 PM 15.41 59.738 0.468 8.17 3.52 11.36
6/5/2022 12:30:00 PM 15.73 60.314 0.467 8.19 3.6 11.4
6/5/2022 12:45:00 PM 16.04 60.872 0.467 8.21 3.7 11.44
6/5/2022 1:00:00 PM 16.37 61.466 0.466 8.23 3.69 11.45
6/5/2022 1:15:00 PM 16.71 62.078 0.466 8.26 3.77 11.46
6/5/2022 1:30:00 PM 17.06 62.708 0.465 8.27 3.75 11.42
6/5/2022 1:45:00 PM 17.41 63.338 0.464 8.29 3.74 11.38
6/5/2022 2:00:00 PM 17.74 63.932 0.464 8.31 3.87 11.36
6/5/2022 2:15:00 PM 18.07 64.526 0.464 8.32 4.12 11.31
6/5/2022 2:30:00 PM 18.36 65.048 0.463 8.34 4.07 11.28
6/5/2022 2:45:00 PM 18.61 65.498 0.463 8.35 4.17 11.22
6/5/2022 3:00:00 PM 18.85 65.93 0.462 8.36 4.26 11.15
6/5/2022 3:15:00 PM 19.06 66.308 0.462 8.37 4.13 11.04
6/5/2022 3:30:00 PM 19.25 66.65 0.462 8.37 4.29 10.91
6/5/2022 3:45:00 PM 19.4 66.92 0.462 8.37 4.25 10.75
6/5/2022 4:00:00 PM 19.53 67.154 0.462 8.36 4.46 10.58
6/5/2022 4:15:00 PM 19.61 67.298 0.462 8.36 4.43 10.42
6/5/2022 4:30:00 PM 19.71 67.478 0.463 8.34 4.43 10.27
6/5/2022 4:45:00 PM 19.76 67.568 0.463 8.33 4.55 10.08
6/5/2022 5:00:00 PM 19.78 67.604 0.463 8.32 4.45 9.93
6/5/2022 5:15:00 PM 19.79 67.622 0.464 8.31 4.67 9.79
6/5/2022 5:30:00 PM 19.77 67.586 0.464 8.29 4.83 9.63
6/5/2022 5:45:00 PM 19.75 67.55 0.465 8.27 4.88 9.48
6/5/2022 6:00:00 PM 19.72 67.496 0.465 8.26 4.93 9.36
6/5/2022 6:15:00 PM 19.68 67.424 0.465 8.23 5.01 9.24
6/5/2022 6:30:00 PM 19.62 67.316 0.465 8.22 4.99 9.11
6/5/2022 6:45:00 PM 19.55 67.19 0.466 8.19 4.98 9
6/5/2022 7:00:00 PM 19.48 67.064 0.466 8.18 5.07 8.91
6/5/2022 7:15:00 PM 19.39 66.902 0.467 8.16 4.91 8.84
6/5/2022 7:30:00 PM 19.3 66.74 0.467 8.14 5 8.76
6/5/2022 7:45:00 PM 19.2 66.56 0.467 8.12 5.02 8.7
6/5/2022 8:00:00 PM 19.09 66.362 0.467 8.1 5.04 8.65
6/5/2022 8:15:00 PM 18.99 66.182 0.468 8.09 5.1 8.61
6/5/2022 8:30:00 PM 18.88 65.984 0.468 8.08 5.63 8.58
6/5/2022 8:45:00 PM 18.77 65.786 0.468 8.07 5.38 8.55
6/5/2022 9:00:00 PM 18.66 65.588 0.468 8.06 6.02 8.53
6/5/2022 9:15:00 PM 18.54 65.372 0.468 8.05 6.84 8.53
6/5/2022 9:30:00 PM 18.42 65.156 0.469 8.03 7.58 8.53
6/5/2022 9:45:00 PM 18.29 64.922 0.469 8.03 7.33 8.53
6/5/2022 10:00:00 PM 18.16 64.688 0.47 8.01 7.92 8.54
6/5/2022 10:15:00 PM 18.01 64.418 0.47 8.01 8.24 8.56
6/5/2022 10:30:00 PM 17.84 64.112 0.471 8 8.35 8.58
6/5/2022 10:45:00 PM 17.67 63.806 0.471 7.99 8.48 8.62
6/5/2022 11:00:00 PM 17.47 63.446 0.472 7.98 8.13 8.66
6/5/2022 11:15:00 PM 17.28 63.104 0.472 7.98 8.08 8.71
6/5/2022 11:30:00 PM 17.07 62.726 0.473 7.97 8.34 8.76
6/5/2022 11:45:00 PM 16.87 62.366 0.473 7.96 8.1 8.81
6/6/2022 12:00:00 AM 16.66 61.988 0.474 7.96 8.64 8.86
6/6/2022 12:15:00 AM 16.45 61.61 0.474 7.96 9.07 8.9
6/6/2022 12:30:00 AM 16.23 61.214 0.475 7.95 9 8.96
6/6/2022 12:45:00 AM 16.02 60.836 0.476 7.93 8.92 9
6/6/2022 1:00:00 AM 15.8 60.44 0.476 7.93 9.04 9.06
6/6/2022 1:15:00 AM 15.59 60.062 0.477 7.93 9.01 9.12
6/6/2022 1:30:00 AM 15.38 59.684 0.478 7.93 9.46 9.17
6/6/2022 1:45:00 AM 15.19 59.342 0.478 7.92 8.62 9.22
6/6/2022 2:00:00 AM 15 59 0.479 7.92 27.94 9.27
6/6/2022 2:15:00 AM 14.82 58.676 0.479 7.91 8.98 9.31
6/6/2022 2:30:00 AM 14.66 58.388 0.479 7.91 17.23 9.36
6/6/2022 2:45:00 AM 14.51 58.118 0.479 7.91 26.72 9.4
6/6/2022 3:00:00 AM 14.38 57.884 0.479 7.91 9.19 9.44
6/6/2022 3:15:00 AM 14.25 57.65 0.479 7.91 8.45 9.47
6/6/2022 3:30:00 AM 14.14 57.452 0.479 7.9 8.52 9.51
6/6/2022 3:45:00 AM 14.04 57.272 0.479 7.9 8.53 9.54
6/6/2022 4:00:00 AM 13.94 57.092 0.479 7.9 8.7 9.56
6/6/2022 4:15:00 AM 13.86 56.948 0.478 7.89 8.18 9.58
6/6/2022 4:30:00 AM 14 57.2 0.476 7.9 8.24 9.54
6/6/2022 4:45:00 AM 13.9 57.02 0.475 7.9 7.6 9.56
6/6/2022 5:00:00 AM 13.81 56.858 0.475 7.9 7.74 9.59
6/6/2022 5:15:00 AM 13.73 56.714 0.475 7.9 7.69 9.61
6/6/2022 5:30:00 AM 13.64 56.552 0.475 7.9 7.25 9.63
6/6/2022 5:45:00 AM 13.56 56.408 0.475 7.9 7.22 9.66
6/6/2022 6:00:00 AM 13.49 56.282 0.475 7.91 6.61 9.7
6/6/2022 6:15:00 AM 13.42 56.156 0.475 7.91 5.96 9.74
6/6/2022 6:30:00 AM 13.36 56.048 0.475 7.91 5.41 9.79
6/6/2022 6:45:00 AM 13.3 55.94 0.475 7.91 5.22 9.82
6/6/2022 7:00:00 AM 13.26 55.868 0.475 7.91 4.84 9.87
6/6/2022 7:15:00 AM 13.22 55.796 0.475 7.92 4.51 9.93
6/6/2022 7:30:00 AM 13.2 55.76 0.475 7.93 4.15 9.98
6/6/2022 7:45:00 AM 13.19 55.742 0.475 7.93 4.04 10.05
6/6/2022 8:00:00 AM 13.2 55.76 0.475 7.94 3.76 10.13
6/6/2022 8:15:00 AM 13.23 55.814 0.474 7.95 3.57 10.2
6/6/2022 8:30:00 AM 13.27 55.886 0.474 7.95 3.47 10.28
6/6/2022 8:45:00 AM 13.31 55.958 0.474 7.97 3.21 10.35
6/6/2022 9:00:00 AM 13.38 56.084 0.474 7.98 3.14 10.43
6/6/2022 9:15:00 AM 13.45 56.21 0.473 7.99 2.97 10.51
6/6/2022 9:30:00 AM 13.54 56.372 0.473 8 3.12 10.58
6/6/2022 9:45:00 AM 13.65 56.57 0.473 8.01 2.89 10.65
6/6/2022 10:00:00 AM 13.77 56.786 0.473 8.01 3.01 10.73
6/6/2022 10:15:00 AM 13.92 57.056 0.473 8.04 3 10.81
6/6/2022 10:30:00 AM 14.08 57.344 0.472 8.05 2.86 10.88
6/6/2022 10:45:00 AM 14.25 57.65 0.472 8.06 2.9 10.94
6/6/2022 11:00:00 AM 14.44 57.992 0.472 8.08 2.97 11.01
6/6/2022 11:15:00 AM 14.65 58.37 0.472 8.1 2.87 11.1
6/6/2022 11:30:00 AM 14.9 58.82 0.471 8.11 2.96 11.2
6/6/2022 11:45:00 AM 15.15 59.27 0.471 8.16 2.98 11.4
6/6/2022 12:00:00 PM 15.36 59.648 0.47 8.18 3.01 11.45
6/6/2022 12:15:00 PM 15.68 60.224 0.47 8.19 3.03 11.48
6/6/2022 12:30:00 PM 16.02 60.836 0.469 8.22 3.23 11.51
6/6/2022 12:45:00 PM 16.36 61.448 0.468 8.24 3.17 11.54
6/6/2022 1:00:00 PM 16.72 62.096 0.468 8.26 3.23 11.55
6/6/2022 1:15:00 PM 17.07 62.726 0.467 8.28 3.47 11.53
6/6/2022 1:30:00 PM 17.44 63.392 0.467 8.3 3.67 11.49
6/6/2022 1:45:00 PM 17.78 64.004 0.466 8.32 3.74 11.46
6/6/2022 2:00:00 PM 18.14 64.652 0.466 8.34 3.59 11.42
6/6/2022 2:15:00 PM 18.47 65.246 0.465 8.35 3.52 11.36
6/6/2022 2:30:00 PM 18.79 65.82201 0.465 8.37 3.68 11.31
6/6/2022 2:45:00 PM 19.1 66.38 0.464 8.38 3.9 11.24
6/6/2022 3:00:00 PM 19.38 66.884 0.464 8.39 3.8 11.16
6/6/2022 3:15:00 PM 19.61 67.298 0.464 8.39 4.02 11.03
6/6/2022 3:30:00 PM 19.8 67.64 0.464 8.39 4.23 10.9
6/6/2022 3:45:00 PM 19.96 67.92799 0.464 8.39 4.44 10.76
6/6/2022 4:00:00 PM 20.07 68.126 0.464 8.39 4.41 10.6
6/6/2022 4:15:00 PM 20.18 68.324 0.464 8.38 4.61 10.45
6/6/2022 4:30:00 PM 20.26 68.468 0.464 8.37 4.45 10.3
6/6/2022 4:45:00 PM 20.28 68.504 0.464 8.36 4.73 10.11
6/6/2022 5:00:00 PM 20.31 68.558 0.464 8.35 4.72 9.95
6/6/2022 5:15:00 PM 20.31 68.558 0.464 8.34 4.55 9.81
6/6/2022 5:30:00 PM 20.26 68.468 0.465 8.32 4.51 9.66
6/6/2022 5:45:00 PM 20.23 68.414 0.465 8.31 5.14 9.52
6/6/2022 6:00:00 PM 20.18 68.324 0.466 8.29 4.83 9.39
6/6/2022 6:15:00 PM 20.13 68.234 0.466 8.27 5.15 9.28
6/6/2022 6:30:00 PM 20.09 68.162 0.466 8.26 4.98 9.19
6/6/2022 6:45:00 PM 20.02 68.036 0.467 8.24 4.89 9.08
6/6/2022 7:00:00 PM 19.94 67.892 0.467 8.22 4.73 8.98
6/6/2022 7:15:00 PM 19.87 67.766 0.468 8.2 4.8 8.89
6/6/2022 7:30:00 PM 19.79 67.622 0.468 8.18 5.11 8.8
6/6/2022 7:45:00 PM 19.71 67.478 0.468 8.16 4.65 8.73
6/6/2022 8:00:00 PM 19.64 67.352 0.469 8.14 4.93 8.66
6/6/2022 8:15:00 PM 19.55 67.19 0.469 8.12 4.73 8.58
6/6/2022 8:30:00 PM 19.46 67.028 0.469 8.11 5 8.53
6/6/2022 8:45:00 PM 19.36 66.848 0.469 8.08 5.16 8.48
6/6/2022 9:00:00 PM 19.26 66.668 0.47 8.08 5.86 8.46
6/6/2022 9:15:00 PM 19.14 66.452 0.47 8.06 6.22 8.44
6/6/2022 9:30:00 PM 19.01 66.218 0.47 8.06 6.7 8.44
6/6/2022 9:45:00 PM 18.87 65.966 0.471 8.05 6.76 8.44
6/6/2022 10:00:00 PM 18.72 65.696 0.471 8.04 6.92 8.46
6/6/2022 10:15:00 PM 18.56 65.408 0.471 8.03 6.67 8.47
6/6/2022 10:30:00 PM 18.4 65.12 0.472 8.02 7.06 8.49
6/6/2022 10:45:00 PM 18.23 64.814 0.473 8.01 7.61 8.52
6/6/2022 11:00:00 PM 18.05 64.49 0.473 8 8.73 8.54
6/6/2022 11:15:00 PM 17.87 64.166 0.474 7.99 8.18 8.59
6/6/2022 11:30:00 PM 17.69 63.842 0.474 7.98 7.58 8.62
6/6/2022 11:45:00 PM 17.5 63.5 0.475 7.98 8.01 8.67
6/7/2022 12:00:00 AM 17.31 63.158 0.476 7.97 8.68 8.71
6/7/2022 12:15:00 AM 17.11 62.798 0.477 7.96 8.04 8.76
6/7/2022 12:30:00 AM 16.92 62.456 0.477 7.96 8.16 8.8
6/7/2022 12:45:00 AM 16.72 62.096 0.478 7.94 8.13 8.86
6/7/2022 1:00:00 AM 16.53 61.754 0.478 7.95 7.99 8.9
6/7/2022 1:15:00 AM 16.34 61.412 0.479 7.94 8.34 8.95
6/7/2022 1:30:00 AM 16.16 61.088 0.479 7.93 8.23 8.99
6/7/2022 1:45:00 AM 15.98 60.764 0.48 7.93 7.97 9.02
6/7/2022 2:00:00 AM 15.8 60.44 0.48 7.92 7.76 9.06
6/7/2022 2:15:00 AM 15.63 60.134 0.481 7.92 7.88 9.11
6/7/2022 2:30:00 AM 15.48 59.864 0.481 7.91 7.81 9.14
6/7/2022 2:45:00 AM 15.33 59.594 0.481 7.92 7.71 9.19
6/7/2022 3:00:00 AM 15.2 59.36 0.481 7.91 7.6 9.23
6/7/2022 3:15:00 AM 15.07 59.126 0.482 7.91 7.75 9.26
6/7/2022 3:30:00 AM 14.95 58.91 0.482 7.91 7.91 9.3
6/7/2022 3:45:00 AM 14.84 58.712 0.482 7.91 7.76 9.33
6/7/2022 4:00:00 AM 14.73 58.514 0.482 7.91 7.75 9.36
6/7/2022 4:15:00 AM 14.62 58.316 0.482 7.9 7.68 9.39
6/7/2022 4:30:00 AM 14.53 58.154 0.482 7.91 7.79 9.41
6/7/2022 4:45:00 AM 14.44 57.992 0.482 7.9 7.82 9.44
6/7/2022 5:00:00 AM 14.36 57.848 0.482 7.91 7.72 9.46
6/7/2022 5:15:00 AM 14.3 57.74 0.483 7.91 8.04 9.47
6/7/2022 5:30:00 AM 14.24 57.632 0.483 7.91 7.6 9.5
6/7/2022 5:45:00 AM 14.18 57.524 0.483 7.91 6.87 9.53
6/7/2022 6:00:00 AM 14.13 57.434 0.483 7.91 7.83 9.56
6/7/2022 6:15:00 AM 14.08 57.344 0.482 7.91 8.09 9.61
6/7/2022 6:30:00 AM 14.04 57.272 0.483 7.92 6.39 9.69
6/7/2022 6:45:00 AM 14.01 57.218 0.482 7.92 5.43 9.74
6/7/2022 7:00:00 AM 13.98 57.164 0.482 7.93 5.3 9.81
6/7/2022 7:15:00 AM 13.97 57.146 0.482 7.94 4.7 9.89
6/7/2022 7:30:00 AM 13.97 57.146 0.482 7.95 4.26 9.97
6/7/2022 7:45:00 AM 13.98 57.164 0.482 7.96 4.02 10.08
6/7/2022 8:00:00 AM 14.02 57.236 0.481 7.97 3.7 10.21
6/7/2022 8:15:00 AM 14.06 57.308 0.481 7.99 3.52 10.34
6/7/2022 8:30:00 AM 14.1 57.38 0.481 8 3.43 10.45
6/7/2022 8:45:00 AM 14.13 57.434 0.48 8.01 3.64 10.51
6/7/2022 9:00:00 AM 14.15 57.47 0.48 8.02 3.11 10.52
6/7/2022 9:15:00 AM 14.23 57.614 0.48 8.04 3.1 10.67
6/7/2022 9:30:00 AM 14.31 57.758 0.479 8.05 3.09 10.78
6/7/2022 9:45:00 AM 14.41 57.938 0.479 8.07 3.13 10.88
6/7/2022 10:00:00 AM 14.51 58.118 0.479 8.09 3.11 10.99
6/7/2022 10:15:00 AM 14.6 58.28 0.478 8.1 3.14 10.99
6/7/2022 10:30:00 AM 14.73 58.514 0.478 8.12 2.97 11.08
6/7/2022 10:45:00 AM 14.87 58.766 0.477 8.13 3.04 11.18
6/7/2022 11:00:00 AM 15.03 59.054 0.476 8.16 3 11.27
6/7/2022 11:15:00 AM 15.17 59.306 0.476 8.18 2.96 11.33
6/7/2022 11:30:00 AM 15.32 59.576 0.475 8.19 2.95 11.36
6/7/2022 11:45:00 AM 15.4 59.72 0.475 8.2 3.09 11.28
6/7/2022 12:00:00 PM 15.53 59.954 0.475 8.21 3.07 11.29
6/7/2022 12:15:00 PM 15.65 60.17 0.474 8.22 3.16 11.25
6/7/2022 12:30:00 PM 15.87 60.566 0.473 8.24 3.16 11.37
6/7/2022 12:45:00 PM 16.16 61.088 0.472 8.28 3.19 11.53
6/7/2022 1:00:00 PM 16.4 61.52 0.47 8.3 3.14 11.64
6/7/2022 1:15:00 PM 16.56 61.808 0.47 8.32 3.32 11.53
6/7/2022 1:30:00 PM 16.72 62.096 0.469 8.32 3.22 11.4
6/7/2022 1:45:00 PM 16.84 62.312 0.469 8.32 3.34 11.24
6/7/2022 2:00:00 PM 16.95 62.51 0.469 8.32 3.1 11.08
6/7/2022 2:15:00 PM 17.04 62.672 0.469 8.32 3.08 10.91
6/7/2022 2:30:00 PM 17.13 62.834 0.468 8.32 3.08 10.74
6/7/2022 2:45:00 PM 17.23 63.014 0.468 8.31 3.01 10.6
6/7/2022 3:00:00 PM 17.34 63.212 0.468 8.31 3.15 10.52
6/7/2022 3:15:00 PM 17.45 63.41 0.468 8.31 3.22 10.41
6/7/2022 3:30:00 PM 17.54 63.572 0.468 8.3 3.19 10.23
6/7/2022 3:45:00 PM 17.63 63.734 0.468 8.28 3.32 10.08
6/7/2022 4:00:00 PM 17.72 63.896 0.468 8.26 3.35 9.92
6/7/2022 4:15:00 PM 17.83 64.094 0.468 8.26 3.47 9.91
6/7/2022 4:30:00 PM 17.9 64.22 0.468 8.25 3.63 9.8
6/7/2022 4:45:00 PM 17.95 64.31 0.468 8.24 3.54 9.68
6/7/2022 5:00:00 PM 17.98 64.364 0.469 8.22 3.77 9.55
6/7/2022 5:15:00 PM 17.99 64.382 0.469 8.21 3.53 9.42
6/7/2022 5:30:00 PM 18 64.4 0.468 8.19 3.78 9.36
6/7/2022 5:45:00 PM 17.99 64.382 0.467 8.18 4.47 9.26
6/7/2022 6:00:00 PM 17.99 64.382 0.465 8.16 4.84 9.19
6/7/2022 6:15:00 PM 17.98 64.364 0.463 8.14 5.28 9.12
6/7/2022 6:30:00 PM 17.96 64.328 0.461 8.12 6 9.03
6/7/2022 6:45:00 PM 17.93 64.274 0.459 8.09 6.26 8.96
6/7/2022 7:00:00 PM 17.88 64.184 0.458 8.07 6.49 8.91
6/7/2022 7:15:00 PM 17.82 64.076 0.458 8.06 6.61 8.86
6/7/2022 7:30:00 PM 17.75 63.95 0.457 8.03 6.69 8.83
6/7/2022 7:45:00 PM 17.67 63.806 0.458 8.02 6.92 8.82
6/7/2022 8:00:00 PM 17.59 63.662 0.458 8 6.69 8.8
6/7/2022 8:15:00 PM 17.52 63.536 0.458 7.99 7.03 8.81
6/7/2022 8:30:00 PM 17.46 63.428 0.458 7.98 6.88 8.79
6/7/2022 8:45:00 PM 17.4 63.32 0.459 7.97 7.19 8.78
6/7/2022 9:00:00 PM 17.35 63.23 0.459 7.96 7.61 8.78
6/7/2022 9:15:00 PM 17.3 63.14 0.459 7.95 8.9 8.76
6/7/2022 9:30:00 PM 17.25 63.05 0.459 7.93 9.18 8.75
6/7/2022 9:45:00 PM 17.19 62.942 0.46 7.92 10.07 8.73
6/7/2022 10:00:00 PM 17.13 62.834 0.46 7.91 10.35 8.75
6/7/2022 10:15:00 PM 17.06 62.708 0.459 7.91 10.51 8.75
6/7/2022 10:30:00 PM 16.99 62.582 0.457 7.9 10.77 8.75
6/7/2022 10:45:00 PM 16.92 62.456 0.455 7.89 10.86 8.75
6/7/2022 11:00:00 PM 16.86 62.348 0.453 7.88 11.01 8.75
6/7/2022 11:15:00 PM 16.79 62.222 0.452 7.87 11.95 8.74
6/7/2022 11:30:00 PM 16.73 62.114 0.451 7.86 12.52 8.74
6/7/2022 11:45:00 PM 16.65 61.97 0.452 7.84 13.86 8.73
6/8/2022 12:00:00 AM 16.59 61.862 0.452 7.84 14.55 8.72
6/8/2022 12:15:00 AM 16.52 61.736 0.452 7.83 16.62 8.72
6/8/2022 12:30:00 AM 16.46 61.628 0.452 7.82 17.15 8.7
6/8/2022 12:45:00 AM 16.41 61.538 0.451 7.8 14.59 8.69
6/8/2022 1:00:00 AM 16.36 61.448 0.452 7.79 17.93 8.68
6/8/2022 1:15:00 AM 16.31 61.358 0.453 7.79 18.44 8.69
6/8/2022 1:30:00 AM 16.27 61.286 0.454 7.79 16.76 8.7
6/8/2022 1:45:00 AM 16.23 61.214 0.456 7.78 16.1 8.73
6/8/2022 2:00:00 AM 16.18 61.124 0.458 7.79 15.29 8.76
6/8/2022 2:15:00 AM 16.13 61.034 0.459 7.78 14.49 8.77
6/8/2022 2:30:00 AM 16.08 60.944 0.46 7.79 14.44 8.78
6/8/2022 2:45:00 AM 16.03 60.854 0.46 7.79 14.06 8.78
6/8/2022 3:00:00 AM 15.98 60.764 0.459 7.79 13.46 8.8
6/8/2022 3:15:00 AM 15.93 60.674 0.456 7.78 13.27 8.82
6/8/2022 3:30:00 AM 15.89 60.602 0.453 7.77 13.33 8.84
6/8/2022 3:45:00 AM 15.86 60.548 0.449 7.77 12.8 8.85
6/8/2022 4:00:00 AM 15.84 60.512 0.445 7.76 12.64 8.85
6/8/2022 4:15:00 AM 15.82 60.476 0.44 7.74 14.23 8.86
6/8/2022 4:30:00 AM 15.8 60.44 0.436 7.75 12.36 8.86
6/8/2022 4:45:00 AM 15.79 60.422 0.432 7.74 12 8.88
6/8/2022 5:00:00 AM 15.77 60.386 0.429 7.73 11.96 8.89
6/8/2022 5:15:00 AM 15.75 60.35 0.426 7.73 11.52 8.91
6/8/2022 5:30:00 AM 15.73 60.314 0.425 7.73 11.51 8.92
6/8/2022 5:45:00 AM 15.71 60.278 0.424 7.72 11.17 8.93
6/8/2022 6:00:00 AM 15.68 60.224 0.424 7.73 10.23 8.95
6/8/2022 6:15:00 AM 15.65 60.17 0.425 7.72 9.39 8.99
6/8/2022 6:30:00 AM 15.62 60.116 0.426 7.73 8.53 9.03
6/8/2022 6:45:00 AM 15.59 60.062 0.427 7.72 8.1 9.06
6/8/2022 7:00:00 AM 15.56 60.008 0.429 7.73 7.56 9.11
6/8/2022 7:15:00 AM 15.54 59.972 0.43 7.74 7.1 9.14
6/8/2022 7:30:00 AM 15.52 59.936 0.432 7.74 6.42 9.2
6/8/2022 7:45:00 AM 15.53 59.954 0.433 7.76 5.66 9.26
6/8/2022 8:00:00 AM 15.57 60.026 0.433 7.78 5.61 9.39
6/8/2022 8:15:00 AM 15.58 60.044 0.434 7.8 5.18 9.45
6/8/2022 8:30:00 AM 15.61 60.098 0.434 7.81 4.88 9.52
6/8/2022 8:45:00 AM 15.65 60.17 0.435 7.84 4.56 9.63
6/8/2022 9:00:00 AM 15.72 60.296 0.435 7.86 4.45 9.75
6/8/2022 9:15:00 AM 15.74 60.332 0.435 7.86 4.21 9.8
6/8/2022 9:30:00 AM 15.81 60.458 0.435 7.89 4.05 9.91
6/8/2022 9:45:00 AM 15.88 60.584 0.435 7.91 4.06 10.04
6/8/2022 10:00:00 AM 15.96 60.728 0.435 7.93 4.03 10.16
6/8/2022 10:15:00 AM 16.05 60.89 0.435 7.95 3.98 10.26
6/8/2022 10:30:00 AM 16.16 61.088 0.436 7.97 3.88 10.38
6/8/2022 10:45:00 AM 16.3 61.34 0.436 8 3.95 10.51
6/8/2022 11:00:00 AM 16.44 61.592 0.437 8.02 4.05 10.63
6/8/2022 11:15:00 AM 16.55 61.79 0.438 8.05 4.07 10.73
6/8/2022 11:30:00 AM 16.73 62.114 0.439 8.07 4.08 10.81
6/8/2022 11:45:00 AM 16.93 62.474 0.44 8.08 4.14 10.89
6/8/2022 12:00:00 PM 17.2 62.96 0.44 8.12 4.05 10.97
6/8/2022 12:15:00 PM 17.47 63.446 0.441 8.14 4.11 11.03
6/8/2022 12:30:00 PM 17.76 63.968 0.442 8.16 3.96 11.09
6/8/2022 12:45:00 PM 18.05 64.49 0.443 8.19 4.07 11.12
6/8/2022 1:00:00 PM 18.37 65.066 0.443 8.21 3.98 11.13
6/8/2022 1:15:00 PM 18.66 65.588 0.444 8.24 4.03 11.14
6/8/2022 1:30:00 PM 18.95 66.11 0.445 8.25 3.93 11.13
6/8/2022 1:45:00 PM 19.25 66.65 0.445 8.28 3.65 11.11
6/8/2022 2:00:00 PM 19.54 67.172 0.446 8.29 3.76 11.08
6/8/2022 2:15:00 PM 19.84 67.712 0.446 8.31 3.69 11.04
6/8/2022 2:30:00 PM 20.14 68.252 0.447 8.33 3.81 11
6/8/2022 2:45:00 PM 20.39 68.702 0.447 8.35 3.63 10.94
6/8/2022 3:00:00 PM 20.65 69.17 0.448 8.36 3.95 10.84
6/8/2022 3:15:00 PM 20.85 69.53 0.448 8.36 3.8 10.71
6/8/2022 3:30:00 PM 21.03 69.854 0.449 8.37 3.8 10.56
6/8/2022 3:45:00 PM 21.16 70.088 0.449 8.37 3.76 10.41
6/8/2022 4:00:00 PM 21.24 70.232 0.45 8.37 3.96 10.25
6/8/2022 4:15:00 PM 21.32 70.376 0.451 8.36 4.05 10.09
6/8/2022 4:30:00 PM 21.38 70.484 0.452 8.35 3.89 9.93
6/8/2022 4:45:00 PM 21.41 70.538 0.452 8.34 4.17 9.74
6/8/2022 5:00:00 PM 21.43 70.574 0.453 8.33 4.01 9.59
6/8/2022 5:15:00 PM 21.41 70.538 0.454 8.31 4.12 9.44
6/8/2022 5:30:00 PM 21.39 70.502 0.455 8.3 4.3 9.29
6/8/2022 5:45:00 PM 21.35 70.43 0.456 8.28 4.3 9.12
6/8/2022 6:00:00 PM 21.31 70.358 0.456 8.25 4.4 9.01
6/8/2022 6:15:00 PM 21.26 70.268 0.457 8.23 4.48 8.88
6/8/2022 6:30:00 PM 21.2 70.16 0.458 8.22 4.52 8.77
6/8/2022 6:45:00 PM 21.14 70.052 0.459 8.19 4.5 8.65
6/8/2022 7:00:00 PM 21.08 69.944 0.46 8.17 4.51 8.59
6/8/2022 7:15:00 PM -99999.99 -179968 -99999.99 -99999.99 -99999.99 -99999.99
6/8/2022 7:30:00 PM 20.96 69.728 0.461 8.14 4.72 8.48
6/8/2022 7:45:00 PM 20.88 69.584 0.462 8.11 4.73 8.4
6/8/2022 8:00:00 PM 20.81 69.458 0.462 8.09 4.72 8.31
6/8/2022 8:15:00 PM 20.74 69.332 0.463 8.07 4.86 8.24
6/8/2022 8:30:00 PM 20.68 69.224 0.463 8.06 5.17 8.18
6/8/2022 8:45:00 PM 20.6 69.08 0.464 8.03 5.21 8.14
6/8/2022 9:00:00 PM 20.53 68.954 0.464 8.03 5.75 8.11
6/8/2022 9:15:00 PM 20.45 68.81 0.465 8.01 6.28 8.08
6/8/2022 9:30:00 PM 20.37 68.666 0.465 8.01 7.03 8.07
6/8/2022 9:45:00 PM 20.29 68.522 0.466 8 7.02 8.06
6/8/2022 10:00:00 PM 20.19 68.342 0.466 7.98 7.48 8.05
6/8/2022 10:15:00 PM 20.08 68.144 0.467 7.97 8.02 8.05
6/8/2022 10:30:00 PM 19.95 67.91 0.468 7.96 8.35 8.05
6/8/2022 10:45:00 PM 19.82 67.676 0.468 7.95 8.48 8.07
6/8/2022 11:00:00 PM 19.68 67.424 0.469 7.94 10.9 8.1
6/8/2022 11:15:00 PM 19.52 67.136 0.469 7.93 9.84 8.12
6/8/2022 11:30:00 PM 19.37 66.866 0.469 7.92 9.07 8.15
6/8/2022 11:45:00 PM 19.21 66.578 0.47 7.92 8.88 8.18
6/9/2022 12:00:00 AM 19.04 66.272 0.47 7.91 9.12 8.21
6/9/2022 12:15:00 AM 18.88 65.984 0.468 7.91 9.79 8.25
6/9/2022 12:30:00 AM 18.71 65.67799 0.464 7.9 10.03 8.31
6/9/2022 12:45:00 AM 18.54 65.372 0.461 7.89 12.59 8.31
6/9/2022 1:00:00 AM 18.38 65.084 0.457 7.87 18.15 8.31
6/9/2022 1:15:00 AM 18.22 64.796 0.456 7.86 14.88 8.31
6/9/2022 1:30:00 AM 18.06 64.508 0.456 7.84 15.68 8.33
6/9/2022 1:45:00 AM 17.91 64.238 0.456 7.84 15.17 8.37
6/9/2022 2:00:00 AM 17.77 63.986 0.456 7.83 13.83 8.38
6/9/2022 2:15:00 AM 17.64 63.752 0.455 7.82 14.72 8.39
6/9/2022 2:30:00 AM 17.52 63.536 0.455 7.81 12.84 8.42
6/9/2022 2:45:00 AM 17.41 63.338 0.456 7.81 16.51 8.45
6/9/2022 3:00:00 AM 17.31 63.158 0.456 7.81 13.51 8.48
6/9/2022 3:15:00 AM 17.22 62.996 0.457 7.81 16.38 8.48
6/9/2022 3:30:00 AM 17.14 62.852 0.457 7.8 17.26 8.5
6/9/2022 3:45:00 AM 17.06 62.708 0.457 7.81 17.84 8.53
6/9/2022 4:00:00 AM 16.98 62.564 0.458 7.8 15.94 8.56
6/9/2022 4:15:00 AM 16.9 62.42 0.459 7.81 15.8 8.58
6/9/2022 4:30:00 AM 16.84 62.312 0.46 7.8 19.59 8.6
6/9/2022 4:45:00 AM 16.78 62.204 0.459 7.81 15.17 8.63
6/9/2022 5:00:00 AM 16.74 62.132 0.457 7.81 15.15 8.65
6/9/2022 5:15:00 AM 16.71 62.078 0.454 7.81 14.69 8.63
6/9/2022 5:30:00 AM 16.67 62.006 0.452 7.79 14.94 8.61
6/9/2022 5:45:00 AM 16.63 61.934 0.451 7.79 15.18 8.56
6/9/2022 6:00:00 AM 16.6 61.88 0.451 7.77 16.04 8.54
6/9/2022 6:15:00 AM 16.57 61.826 0.45 7.78 15.47 8.54
6/9/2022 6:30:00 AM 16.55 61.79 0.45 7.78 14.37 8.56
6/9/2022 6:45:00 AM 16.53 61.754 0.449 7.78 13.91 8.6
6/9/2022 7:00:00 AM 16.52 61.736 0.448 7.78 12.79 8.63
6/9/2022 7:15:00 AM 16.51 61.718 0.447 7.77 12.5 8.66
6/9/2022 7:30:00 AM 16.51 61.718 0.448 7.79 11.37 8.69
6/9/2022 7:45:00 AM 16.51 61.718 0.45 7.79 10.3 8.74
6/9/2022 8:00:00 AM 16.52 61.736 0.453 7.8 9.84 8.83
6/9/2022 8:15:00 AM 16.53 61.754 0.455 7.82 8.25 8.92
6/9/2022 8:30:00 AM 16.55 61.79 0.458 7.84 7.77 9.01
6/9/2022 8:45:00 AM 16.57 61.826 0.46 7.85 6.8 9.1
6/9/2022 9:00:00 AM 16.6 61.88 0.461 7.86 5.94 9.19
6/9/2022 9:15:00 AM 16.65 61.97 0.461 7.89 5.77 9.33
6/9/2022 9:30:00 AM 16.72 62.096 0.461 7.89 5.13 9.45
6/9/2022 9:45:00 AM 16.72 62.096 0.46 7.91 5.02 9.48
6/9/2022 10:00:00 AM 16.76 62.168 0.458 7.92 4.85 9.5
6/9/2022 10:15:00 AM 16.78 62.204 0.456 7.92 4.72 9.5
6/9/2022 10:30:00 AM 16.9 62.42 0.453 7.94 4.87 9.58
6/9/2022 10:45:00 AM 17.12 62.816 0.449 7.96 7.39 9.82
6/9/2022 11:00:00 AM 17.29 63.122 0.445 8 5.13 10.01
6/9/2022 11:15:00 AM 17.54 63.572 0.441 8.02 5.26 10.11
6/9/2022 11:30:00 AM 17.72 63.896 0.438 8.04 5.25 10.18
6/9/2022 11:45:00 AM 17.93 64.274 0.435 8.07 5.15 10.3
6/9/2022 12:00:00 PM 18.05 64.49 0.433 8.09 4.85 10.34
6/9/2022 12:15:00 PM 18.22 64.796 0.432 8.11 5.06 10.39
6/9/2022 12:30:00 PM 18.38 65.084 0.43 8.13 8.44 10.41
6/9/2022 12:45:00 PM 18.64 65.552 0.43 8.15 4.77 10.52
6/9/2022 1:00:00 PM 18.99 66.182 0.429 8.19 4.89 10.7
6/9/2022 1:15:00 PM 19.24 66.632 0.429 8.21 4.5 10.72
6/9/2022 1:30:00 PM 19.53 67.154 0.429 8.24 4.47 10.78
6/9/2022 1:45:00 PM 19.86 67.748 0.429 8.27 4.73 10.8
6/9/2022 2:00:00 PM -99999.99 -179968 -99999.99 -99999.99 -99999.99 -99999.99
6/9/2022 2:15:00 PM 20.44 68.792 0.429 8.3 4.72 10.79
6/9/2022 2:30:00 PM 20.71 69.278 0.429 8.32 4.92 10.75
6/9/2022 2:45:00 PM 20.86 69.548 0.43 8.32 4.99 10.61
6/9/2022 3:00:00 PM 20.99 69.782 0.43 8.32 4.97 10.56
6/9/2022 3:15:00 PM 21.11 69.998 0.431 8.33 5.36 10.5
6/9/2022 3:30:00 PM 21.2 70.16 0.432 8.33 5.6 10.39
6/9/2022 3:45:00 PM 21.31 70.358 0.433 8.33 5.77 10.31
6/9/2022 4:00:00 PM 21.33 70.394 0.434 8.33 5.86 10.18
6/9/2022 4:15:00 PM 21.36 70.448 0.436 8.32 5.76 10.06
6/9/2022 4:30:00 PM 21.28 70.304 0.437 8.31 5.77 9.85
6/9/2022 4:45:00 PM 21.21 70.17799 0.439 8.29 5.6 9.64
6/9/2022 5:00:00 PM 21.17 70.106 0.44 8.28 5.75 9.54
6/9/2022 5:15:00 PM 21.09 69.962 0.441 8.26 5.45 9.39
6/9/2022 5:30:00 PM 21.02 69.836 0.442 8.25 5.28 9.25
6/9/2022 5:45:00 PM 20.91 69.638 0.444 8.23 5.37 9.12
6/9/2022 6:00:00 PM 20.75 69.35 0.445 8.21 5.01 8.97
6/9/2022 6:15:00 PM 20.67 69.206 0.446 8.2 4.96 8.94
6/9/2022 6:30:00 PM 20.58 69.044 0.447 8.19 5.47 8.84
6/9/2022 6:45:00 PM 20.52 68.936 0.448 8.17 4.98 8.73
6/9/2022 7:00:00 PM 20.45 68.81 0.449 8.16 4.87 8.65
6/9/2022 7:15:00 PM 20.36 68.648 0.45 8.15 4.72 8.58
6/9/2022 7:30:00 PM 20.3 68.54 0.451 8.13 4.72 8.53
6/9/2022 7:45:00 PM 20.21 68.378 0.452 8.11 4.62 8.46
6/9/2022 8:00:00 PM 20.12 68.216 0.453 8.1 4.79 8.41
6/9/2022 8:15:00 PM 20.03 68.054 0.454 8.09 4.75 8.39
6/9/2022 8:30:00 PM 19.94 67.892 0.455 8.08 4.57 8.35
6/9/2022 8:45:00 PM 19.85 67.73 0.456 8.07 5.09 8.31
6/9/2022 9:00:00 PM 19.75 67.55 0.457 8.06 5.54 8.3
6/9/2022 9:15:00 PM 19.63 67.334 0.458 8.05 6.52 8.29
6/9/2022 9:30:00 PM 19.51 67.118 0.459 8.03 6.35 8.28
6/9/2022 9:45:00 PM 19.37 66.866 0.46 8.03 8.63 8.29
6/9/2022 10:00:00 PM 19.22 66.596 0.461 8.02 7.41 8.29
6/9/2022 10:15:00 PM 19.07 66.326 0.462 8 7.23 8.31
6/9/2022 10:30:00 PM 18.91 66.038 0.463 8 7.92 8.33
6/9/2022 10:45:00 PM 18.75 65.75 0.464 7.98 7.67 8.35
6/9/2022 11:00:00 PM 18.57 65.426 0.464 7.98 7.9 8.38
6/9/2022 11:15:00 PM 18.4 65.12 0.465 7.97 7.79 8.42
6/9/2022 11:30:00 PM 18.21 64.778 0.466 7.96 7.74 8.45
6/9/2022 11:45:00 PM 18.03 64.454 0.467 7.96 9.36 8.49
6/10/2022 12:00:00 AM 17.84 64.112 0.468 7.94 10.48 8.53
6/10/2022 12:15:00 AM 17.65 63.77 0.469 7.95 8.46 8.57
6/10/2022 12:30:00 AM 17.45 63.41 0.469 7.94 9.04 8.61
6/10/2022 12:45:00 AM 17.26 63.068 0.47 7.92 8.11 8.65
6/10/2022 1:00:00 AM 17.06 62.708 0.471 7.93 9.16 8.69
6/10/2022 1:15:00 AM 16.86 62.348 0.472 7.92 8.04 8.74
6/10/2022 1:30:00 AM 16.67 62.006 0.472 7.92 8.35 8.79
6/10/2022 1:45:00 AM 16.48 61.664 0.473 7.91 8.31 8.84
6/10/2022 2:00:00 AM 16.29 61.322 0.474 7.91 8.18 8.88
6/10/2022 2:15:00 AM 16.11 60.998 0.474 7.91 8.2 8.93
6/10/2022 2:30:00 AM 15.93 60.674 0.474 7.9 8.95 8.97
6/10/2022 2:45:00 AM 15.77 60.386 0.475 7.9 8.33 9.02
6/10/2022 3:00:00 AM 15.61 60.098 0.475 7.9 7.67 9.06
6/10/2022 3:15:00 AM 15.46 59.828 0.476 7.9 7.68 9.09
6/10/2022 3:30:00 AM 15.32 59.576 0.476 7.9 7.48 9.14
6/10/2022 3:45:00 AM 15.19 59.342 0.477 7.9 7.88 9.16
6/10/2022 4:00:00 AM 15.06 59.108 0.477 7.9 8.13 9.2
6/10/2022 4:15:00 AM 14.93 58.874 0.477 7.9 7.71 9.24
6/10/2022 4:30:00 AM 14.81 58.658 0.478 7.9 8.08 9.28
6/10/2022 4:45:00 AM 14.7 58.46 0.478 7.89 7.06 9.3
6/10/2022 5:00:00 AM 14.59 58.262 0.479 7.9 7.41 9.33
6/10/2022 5:15:00 AM 14.49 58.082 0.479 7.9 7.14 9.36
6/10/2022 5:30:00 AM 14.39 57.902 0.479 7.9 6.8 9.4
6/10/2022 5:45:00 AM 14.29 57.722 0.479 7.9 6.3 9.43
6/10/2022 6:00:00 AM 14.21 57.578 0.48 7.9 6.61 9.47
6/10/2022 6:15:00 AM 14.13 57.434 0.48 7.9 5.5 9.52
6/10/2022 6:30:00 AM 14.05 57.29 0.48 7.91 5.16 9.57
6/10/2022 6:45:00 AM 13.99 57.182 0.48 7.91 4.66 9.62
6/10/2022 7:00:00 AM 13.94 57.092 0.48 7.91 4.26 9.67
6/10/2022 7:15:00 AM 13.89 57.002 0.48 7.92 4.88 9.71
6/10/2022 7:30:00 AM 13.86 56.948 0.48 7.93 3.8 9.76
6/10/2022 7:45:00 AM 13.84 56.912 0.48 7.93 3.63 9.83
6/10/2022 8:00:00 AM 13.84 56.912 0.48 7.94 3.33 9.91
6/10/2022 8:15:00 AM 13.86 56.948 0.48 7.94 3.27 9.99
6/10/2022 8:30:00 AM 13.89 57.002 0.48 7.95 3 10.07
6/10/2022 8:45:00 AM 13.92 57.056 0.479 7.96 2.89 10.14
6/10/2022 9:00:00 AM 13.96 57.128 0.479 7.98 2.95 10.22
6/10/2022 9:15:00 AM 14.01 57.218 0.479 7.99 3.1 10.31
6/10/2022 9:30:00 AM 14.08 57.344 0.479 8 3.07 10.38
6/10/2022 9:45:00 AM 14.16 57.488 0.479 8 2.76 10.48
6/10/2022 10:00:00 AM 14.28 57.704 0.479 8.03 2.82 10.62
6/10/2022 10:15:00 AM 14.42 57.956 0.479 8.05 2.58